ftp/pub/palmer/observations_modified/2019/March/AR190306_BASE.txt

Download

Sample DateTime	Unit Id	WS Avg 2min	WD Avg 2min	WGS 10min	WGD 10min	Air Temp	Rel Humidity	Dew Point	Pyranometer	Quantum	Air Pressure	Snow Level	Rainfall	PW Current	Visibility	CBase 1	CBase 2	CBase 3	Vert Vis
2019/03/06  00:00:00  BASE  0        5    0        M    2.2   100   2.2   0     0     973.7    NA       0.0000   9999     3050  0     0    
2019/03/06  00:01:00  BASE  0.29988  26   0.81732  46   2.2   100   2.2   0     0     973.7    NA       0.0000   9999     3020  0     0    
2019/03/06  00:02:00  BASE  0.40572  42   0.81732  46   2.2   100   2.2   0     0     973.7    NA       0.0000   9999     0     0     0    
2019/03/06  00:03:00  BASE  0.09996  44   0.81732  46   2.2   100   2.2   0     0     973.7    NA       0.0000   9999     0     0     0    
2019/03/06  00:04:00  BASE  0        46   0.81732  46   2.2   100   2.2   0     0     973.7    NA       0.0000   9999     0     0     0    
2019/03/06  00:05:00  BASE  0        55   0.81732  46   2.2   100   2.2   0     0     973.7    NA       0.0000   9999     0     0     0    
2019/03/06  00:06:00  BASE  0        61   0.81732  46   2.2   100   2.2   0     0     973.7    NA       0.0000   9999     0     0     0    
2019/03/06  00:07:00  BASE  0        63   0.81732  46   2.3   100   2.3   0     0     973.7    NA       0.0000   9999     0     0     0    
2019/03/06  00:08:00  BASE  0        64   0.81732  46   2.2   100   2.2   0     0     973.7    NA       0.0000   9999     0     0     0    
2019/03/06  00:09:00  BASE  0        43   0.81732  46   2.2   100   2.2   0     0     973.7    NA       0.0000   9999     0     0     0    
2019/03/06  00:10:00  BASE  0        349  0.81732  46   2.2   100   2.2   0     0     973.7    NA       0.0000   9999     0     0     0    
2019/03/06  00:11:00  BASE  0        322  0.63504  44   2.2   100   2.2   0     0     973.7    NA       0.0000   9999     0     0     0    
2019/03/06  00:12:00  BASE  0        291  0        M    2.2   100   2.2   0     0     973.7    NA       0.0000   9999     0     0     0    
2019/03/06  00:13:00  BASE  0        260  0        M    2.2   100   2.2   0     0     973.7    NA       0.0000   9999     0     0     0    
2019/03/06  00:14:00  BASE  0        254  0        M    2.1   100   2.1   0     0     973.7    NA       0.0000   9999     0     0     0    
2019/03/06  00:15:00  BASE  0        257  0        M    2.1   100   2.1   0     0     973.7    NA       0.0000   9999     0     0     0    
2019/03/06  00:16:00  BASE  0.02352  275  0.60564  298  2.1   100   2.1   0     0     973.7    NA       0.0000   9999     0     0     0    
2019/03/06  00:17:00  BASE  0.16464  297  0.69384  304  2.0   100   2.0   0     0     973.7    NA       0.0000   9999     3670  0     0    
2019/03/06  00:18:00  BASE  0.4998   305  0.78792  308  2.0   100   2.0   0     0     973.7    NA       0.0000   9999     5150  0     0    
2019/03/06  00:19:00  BASE  0.71736  308  0.81732  310  2.0   100   2.0   0     0     973.7    NA       0.0000   9999     5120  0     0    
2019/03/06  00:20:00  BASE  0.74088  309  0.9996   297  2.0   100   2.0   0     0     973.8    NA       0.0000   9999     3580  5180  0    
2019/03/06  00:21:00  BASE  1.03488  302  1.48176  292  1.9   100   1.9   0     0     973.7    NA       0.0000   9999     3540  0     0    
2019/03/06  00:22:00  BASE  1.21716  299  1.48176  292  1.9   100   1.9   0     0     973.8    NA       0.0000   9999     3510  0     0    
2019/03/06  00:23:00  BASE  1.28772  305  1.60524  305  1.9   100   1.9   0     0     973.9    NA       0.0000   9999     3480  0     0    
2019/03/06  00:24:00  BASE  1.43472  308  1.60524  305  1.8   100   1.8   0     0     973.9    NA       0.0000   9999     0     0     0    
2019/03/06  00:25:00  BASE  1.4406   308  1.66404  304  1.7   100   1.7   0     0     973.9    NA       0.0000   9999     3510  5220  0    
2019/03/06  00:26:00  BASE  1.66992  306  1.96392  305  1.6   100   1.6   0     0     973.9    NA       0.0000   9999     3450  5220  0    
2019/03/06  00:27:00  BASE  1.86984  305  2.0874   306  1.6   100   1.6   0     0     973.9    NA       0.0000   9999     3410  0     0    
2019/03/06  00:28:00  BASE  1.89924  306  2.0874   306  1.6   100   1.6   0     0     973.9    NA       0.0000   9999     3380  0     0    
2019/03/06  00:29:00  BASE  1.91688  307  2.0874   306  1.5   100   1.5   0     0     973.9    NA       0.0000   9999     3350  0     0    
2019/03/06  00:30:01  BASE  1.911    308  2.0874   306  1.5   100   1.5   0     0     973.9    NA       0.0000   9999     2990  0     0    
2019/03/06  00:31:01  BASE  1.93452  307  2.0874   306  1.5   100   1.5   0     0     973.9    NA       0.0000   9999     2820  0     0    
2019/03/06  00:32:01  BASE  1.89924  304  2.0874   306  1.4   100   1.4   0     0     973.9    NA       0.0000   9999     2820  0     0    
2019/03/06  00:33:01  BASE  1.84044  302  2.0874   306  1.4   100   1.4   0     0     973.9    NA       0.0000   9999     2990  0     0    
2019/03/06  00:34:00  BASE  1.81692  304  2.0874   306  1.4   100   1.4   0     0     973.9    NA       0.0000   9999     3020  0     0    
2019/03/06  00:35:00  BASE  1.76988  306  2.0874   306  1.4   100   1.4   0     0     973.9    NA       0.0000   9999     2920  0     0    
2019/03/06  00:36:01  BASE  1.64052  310  2.0874   306  1.4   100   1.4   0     0     973.9    NA       0.0000   9999     2850  0     0    
2019/03/06  00:37:01  BASE  1.65228  312  2.058    306  1.4   100   1.4   0     0     973.9    NA       0.0000   9999     2820  0     0    
2019/03/06  00:38:01  BASE  1.74048  313  2.058    306  1.3   100   1.3   0     0     973.9    NA       0.0000   9999     2920  0     0    
2019/03/06  00:39:01  BASE  1.69932  315  2.058    306  1.3   100   1.3   0     0     973.9    NA       0.0000   9999     2990  0     0    
2019/03/06  00:40:01  BASE  1.71108  313  2.058    306  1.4   100   1.4   0     0     973.9    NA       0.0000   9999     2990  0     0    
2019/03/06  00:41:01  BASE  1.77576  312  2.0286   312  1.4   100   1.4   0     0     973.9    NA       0.0000   9999     2950  5120  0    
2019/03/06  00:42:01  BASE  1.84044  311  2.0286   310  1.4   100   1.4   0     0     973.9    NA       0.0000   9999     2990  0     0    
2019/03/06  00:43:01  BASE  1.8228   311  2.0286   310  1.4   100   1.4   0     0     973.9    NA       0.0000   9999     2950  0     0    
2019/03/06  00:44:01  BASE  1.72872  313  2.0286   310  1.4   100   1.4   0     0     973.9    NA       0.0000   9999     2890  0     0    
2019/03/06  00:45:01  BASE  1.84632  313  2.21088  311  1.3   100   1.3   0     0     973.9    NA       0.0000   9999     2890  0     0    
2019/03/06  00:46:00  BASE  1.9404   315  2.21088  311  1.3   100   1.3   0     0     973.9    NA       0.0000   9999     2990  0     0    
2019/03/06  00:47:00  BASE  1.84044  318  2.21088  311  1.2   100   1.2   0     0     973.9    NA       0.0000   9999     2920  0     0    
2019/03/06  00:48:00  BASE  1.88748  318  2.21088  311  1.2   100   1.2   0     0     973.9    NA       0.0000   9999     2920  0     0    
2019/03/06  00:49:00  BASE  1.92276  315  2.21088  311  1.2   100   1.2   0     0     973.9    NA       0.0000   9999     2850  0     0    
2019/03/06  00:50:00  BASE  1.81692  314  2.21088  311  1.2   100   1.2   0     0     973.9    NA       0.0000   9999     2790  0     0    
2019/03/06  00:51:00  BASE  1.65816  316  2.21088  311  1.2   100   1.2   0     0     973.9    NA       0.0000   9999     2720  0     0    
2019/03/06  00:52:00  BASE  1.54056  319  2.21088  311  1.2   100   1.2   0     0     973.9    NA       0.0000   9999     2690  0     0    
2019/03/06  00:53:00  BASE  1.5288   319  2.21088  311  1.2   100   1.2   0     0     973.9    NA       0.0000   9999     2660  0     0    
2019/03/06  00:54:00  BASE  1.54644  320  2.21088  311  1.3   100   1.3   0     0     973.9    NA       0.0000   9999     2920  0     0    
2019/03/06  00:55:00  BASE  1.5876   321  2.0286   315  1.3   100   1.3   0     0     973.9    NA       0.0000   9999     2850  0     0    
2019/03/06  00:56:00  BASE  1.65816  321  2.0286   315  1.3   100   1.3   0     0     973.9    NA       0.0000   9999     2890  0     0    
2019/03/06  00:57:00  BASE  1.68756  323  2.0286   315  1.3   100   1.3   0     0     973.9    NA       0.0000   9999     2890  0     0    
2019/03/06  00:58:00  BASE  1.6464   324  1.9992   314  1.3   100   1.3   0     0     973.8    NA       0.0000   9999     2850  0     0    
2019/03/06  00:59:00  BASE  1.6464   323  1.84632  311  1.4   100   1.4   0     0     973.8    NA       0.0000   9999     2820  0     0    
2019/03/06  01:00:00  BASE  1.61112  326  1.75224  321  1.4   100   1.4   0     0     973.8    NA       0.0000   9999     2760  0     0    
2019/03/06  01:01:00  BASE  1.48176  335  1.75224  321  1.4   100   1.4   0     0     973.7    NA       0.0000   9999     2720  0     0    
2019/03/06  01:02:00  BASE  1.34652  347  1.75224  321  1.3   100   1.3   0     0     973.8    NA       0.0000   9999     2790  0     0    
2019/03/06  01:03:00  BASE  1.17012  354  1.75224  321  1.3   100   1.3   0     0     973.7    NA       0.0000   9999     2920  0     0    
2019/03/06  01:04:00  BASE  1.06428  1    1.75224  321  1.3   100   1.3   0     0     973.7    NA       0.0000   9999     2920  0     0    
2019/03/06  01:05:00  BASE  1.09368  5    1.75224  321  1.2   100   1.2   0     0     973.7    NA       0.0000   9999     2920  0     0    
2019/03/06  01:06:00  BASE  1.09956  358  1.75224  321  1.2   100   1.2   0     0     973.7    NA       0.0000   9999     2950  0     0    
2019/03/06  01:07:00  BASE  1.01724  348  1.75224  321  1.2   100   1.2   0     0     973.7    NA       0.0000   9999     2920  0     0    
2019/03/06  01:08:00  BASE  1.03488  341  1.75224  321  1.1   100   1.1   0     0     973.7    NA       0.0000   9999     2920  0     0    
2019/03/06  01:09:00  BASE  1.16424  333  1.69344  327  1.1   100   1.1   0     0     973.7    NA       0.0000   9999     2950  0     0    
2019/03/06  01:10:00  BASE  1.2642   329  1.63464  329  1.2   100   1.2   0     0     973.7    NA       0.0000   9999     2850  0     0    
2019/03/06  01:11:00  BASE  1.34652  332  1.42296  338  1.2   100   1.2   0     0     973.7    NA       0.0000   9999     2720  0     0    
2019/03/06  01:12:00  BASE  1.3524   336  1.48176  336  1.2   100   1.2   0     0     973.7    NA       0.0000   9999     2920  0     0    
2019/03/06  01:13:00  BASE  1.35828  339  1.57584  340  1.2   100   1.2   0     0     973.7    NA       0.0000   9999     2760  0     0    
2019/03/06  01:14:00  BASE  1.41708  339  1.57584  333  1.2   100   1.2   0     0     973.7    NA       0.0000   9999     2690  0     0    
2019/03/06  01:15:00  BASE  1.49352  346  1.63464  346  1.2   100   1.2   0     0     973.7    NA       0.0000   9999     2890  0     0    
2019/03/06  01:16:00  BASE  1.47588  356  1.63464  346  1.1   100   1.1   0     0     973.7    NA       0.0000   9999     2950  4300  0    
2019/03/06  01:17:00  BASE  1.4112   357  1.63464  346  1.1   100   1.1   0     0     973.7    NA       0.0000   9999     2950  0     0    
2019/03/06  01:18:00  BASE  1.39944  353  1.63464  346  1.1   100   1.1   0     0     973.7    NA       0.0000   9999     2920  4200  0    
2019/03/06  01:19:00  BASE  1.40532  348  1.63464  346  1.1   100   1.1   0     0     973.7    NA       0.0000   9999     3080  4200  0    
2019/03/06  01:20:00  BASE  1.42296  344  1.66404  340  1.1   100   1.1   0     0     973.7    NA       0.0000   9999     3080  4230  0    
2019/03/06  01:21:00  BASE  1.34652  342  1.66404  340  1.1   100   1.1   0     0     973.7    NA       0.0000   9999     3020  4270  0    
2019/03/06  01:22:00  BASE  1.27008  342  1.66404  340  1.1   100   1.1   0     0     973.7    NA       0.0000   9999     4270  0     0    
2019/03/06  01:23:00  BASE  1.27596  340  1.66404  340  1.2   100   1.2   0     0     973.7    NA       0.0000   9999     4300  0     0    
2019/03/06  01:24:00  BASE  1.2936   336  1.66404  340  1.2   100   1.2   0     0     973.7    NA       0.0000   9999     4200  0     0    
2019/03/06  01:25:00  BASE  1.4406   332  1.87572  329  1.2   100   1.2   0     0     973.7    NA       0.0000   9999     4170  0     0    
2019/03/06  01:26:00  BASE  1.47588  333  1.87572  329  1.2   100   1.2   0     0     973.7    NA       0.0000   9999     4170  0     0    
2019/03/06  01:27:00  BASE  1.38768  334  1.87572  329  1.2   100   1.2   0     0     973.7    NA       0.0000   9999     4130  0     0    
2019/03/06  01:28:00  BASE  1.36416  332  1.87572  329  1.2   100   1.2   0     0     973.7    NA       0.0000   9999     4070  0     0    
2019/03/06  01:29:00  BASE  1.3524   333  1.87572  329  1.2   100   1.2   0     0     973.7    NA       0.0000   9999     3020  4070  0    
2019/03/06  01:30:00  BASE  1.3524   336  1.87572  329  1.2   100   1.2   0     0     973.7    NA       0.0000   9999     3050  4100  0    
2019/03/06  01:31:00  BASE  1.4112   339  1.87572  329  1.2   100   1.2   0     0     973.7    NA       0.0000   9999     4070  0     0    
2019/03/06  01:32:00  BASE  1.4406   343  1.87572  329  1.2   100   1.2   0     0     973.7    NA       0.0000   9999     4100  0     0    
2019/03/06  01:33:00  BASE  1.38768  348  1.87572  329  1.2   100   1.2   0     0     973.7    NA       0.0000   9999     4130  0     0    
2019/03/06  01:34:00  BASE  1.34652  353  1.87572  329  1.2   100   1.2   0     0     973.7    NA       0.0000   9999     4130  0     0    
2019/03/06  01:35:00  BASE  1.3818   359  1.51116  340  1.2   100   1.2   0     0     973.7    NA       0.0000   9999     3050  4230  0    
2019/03/06  01:36:00  BASE  1.42296  4    1.51116  340  1.1   100   1.1   0     0     973.7    NA       0.0000   9999     3050  4360  0    
2019/03/06  01:37:00  BASE  1.39356  9    1.51116  340  1.1   100   1.1   0     0     973.7    NA       0.0000   9999     3080  4430  0    
2019/03/06  01:38:00  BASE  1.32888  9    1.51116  340  1.1   100   1.1   0     0     973.7    NA       0.0000   9999     0     0     0    
2019/03/06  01:39:00  BASE  1.27596  8    1.51116  340  1.1   100   1.1   0     0     973.7    NA       0.0000   9999     3020  0     0    
2019/03/06  01:40:00  BASE  1.13484  8    1.51116  340  1.0   100   1.0   0     0     973.7    NA       0.0000   9999     2990  0     0    
2019/03/06  01:41:00  BASE  1.00548  8    1.48176  12   1.0   100   1.0   0     0     973.7    NA       0.0000   9999     2990  0     0    
2019/03/06  01:42:00  BASE  0.99372  1    1.48176  12   0.9   100   0.9   0     0     973.7    NA       0.0000   9999     2990  0     0    
2019/03/06  01:43:00  BASE  0.90552  357  1.48176  12   0.9   100   0.9   0     0     973.7    NA       0.0000   9999     2920  0     0    
2019/03/06  01:44:00  BASE  0.83496  5    1.48176  12   1.0   100   1.0   0     0     973.6    NA       0.0000   9999     2920  0     0    
2019/03/06  01:45:00  BASE  0.84672  7    1.48176  12   1.0   100   1.0   0     0     973.6    NA       0.0000   9999     2890  0     0    
2019/03/06  01:46:00  BASE  0.87024  2    1.42296  6    1.0   100   1.0   0     0     973.6    NA       0.0000   9999     2920  0     0    
2019/03/06  01:47:00  BASE  0.8526   357  1.39356  6    1.0   100   1.0   0     0     973.6    NA       0.0000   9999     2950  0     0    
2019/03/06  01:48:00  BASE  0.81732  354  1.29948  13   1.0   100   1.0   0     0     973.6    NA       0.0000   9999     2950  4430  0    
2019/03/06  01:49:00  BASE  0.87612  355  1.18188  7    1.0   100   1.0   0     0     973.6    NA       0.0000   9999     2950  4430  0    
2019/03/06  01:50:00  BASE  0.89964  356  1.1466   350  1.0   100   1.0   0     0     973.6    NA       0.0000   9999     2990  4430  0    
2019/03/06  01:51:00  BASE  0.88788  358  1.1466   350  1.1   100   1.1   0     0     973.6    NA       0.0000   9999     2950  4490  0    
2019/03/06  01:52:00  BASE  0.94668  1    1.0878   351  1.1   100   1.1   0     0     973.6    NA       0.0000   9999     2950  0     0    
2019/03/06  01:53:00  BASE  0.97608  1    1.1172   355  1.1   100   1.1   0     0     973.6    NA       0.0000   9999     2950  0     0    
2019/03/06  01:54:00  BASE  1.00548  2    1.1172   355  1.1   100   1.1   0     0     973.6    NA       0.0000   9999     2950  0     0    
2019/03/06  01:55:00  BASE  0.98784  3    1.1172   355  1.1   100   1.1   0     0     973.6    NA       0.0000   9999     2920  0     0    
2019/03/06  01:56:01  BASE  0.91728  3    1.1172   355  1.1   100   1.1   0     0     973.6    NA       0.0000   9999     2950  0     0    
2019/03/06  01:57:01  BASE  0.87612  6    1.1172   355  1.1   100   1.1   0     0     973.6    NA       0.0000   9999     2920  0     0    
2019/03/06  01:58:00  BASE  0.86436  4    1.1172   355  1.1   100   1.1   0     0     973.6    NA       0.0000   9999     2920  0     0    
2019/03/06  01:59:01  BASE  0.79968  1    1.1172   355  1.1   100   1.1   0     0     973.6    NA       0.0000   9999     2890  0     0    
2019/03/06  02:00:01  BASE  0.68208  355  1.1172   355  1.1   100   1.1   0     0     973.6    NA       0.0000   9999     2920  0     0    
2019/03/06  02:01:01  BASE  0.42924  340  1.1172   355  1.1   100   1.1   0     0     973.6    NA       0.0000   9999     0     0     0    
2019/03/06  02:02:01  BASE  0.27048  322  1.1172   355  1.1   100   1.1   0     0     973.6    NA       0.0000   9999     3020  0     0    
2019/03/06  02:03:01  BASE  0.65268  308  1.1466   302  1.0   100   1.0   0     0     973.6    NA       0.0000   9999     2920  0     0    
2019/03/06  02:04:01  BASE  0.94668  300  1.1466   302  1.1   100   1.1   0     0     973.6    NA       0.0000   9999     0     0     0    
2019/03/06  02:05:01  BASE  0.92904  299  1.1466   302  1.1   100   1.1   0     0     973.6    NA       0.0000   9999     0     0     0    
2019/03/06  02:06:01  BASE  0.92316  301  1.1466   302  1.1   100   1.1   0     0     973.6    NA       0.0000   9999     0     0     0    
2019/03/06  02:07:01  BASE  1.09956  303  1.48176  302  1.1   100   1.1   0     0     973.6    NA       0.0000   9999     0     0     0    
2019/03/06  02:08:01  BASE  1.3524   305  1.54056  304  1.1   100   1.1   0     0     973.5    NA       0.0000   9999     0     0     0    
2019/03/06  02:09:01  BASE  1.4406   309  1.60524  308  1.1   100   1.1   0     0     973.6    NA       0.0000   9999     3020  0     0    
2019/03/06  02:10:01  BASE  1.45824  316  1.60524  308  1.1   100   1.1   0     0     973.6    NA       0.0000   9999     2950  0     0    
2019/03/06  02:11:01  BASE  1.34652  320  1.60524  308  1.1   100   1.1   0     0     973.6    NA       0.0000   9999     2950  0     0    
2019/03/06  02:12:01  BASE  1.2642   320  1.60524  308  1.1   100   1.1   0     0     973.6    NA       0.0000   9999     2950  0     0    
2019/03/06  02:13:01  BASE  1.24068  320  1.60524  308  1.2   100   1.2   0     0     973.6    NA       0.0000   9999     2950  0     0    
2019/03/06  02:14:01  BASE  1.1172   317  1.60524  308  1.2   100   1.2   0     0     973.6    NA       0.0000   9999     2990  0     0    
2019/03/06  02:15:01  BASE  0.98784  316  1.60524  308  1.2   100   1.2   0     0     973.5    NA       0.0000   9999     2990  0     0    
2019/03/06  02:16:01  BASE  0.95256  319  1.60524  308  1.2   100   1.2   0     0     973.5    NA       0.0000   9999     0     0     0    
2019/03/06  02:17:01  BASE  1.029    326  1.60524  308  1.2   100   1.2   0     0     973.5    NA       0.0000   9999     0     0     0    
2019/03/06  02:18:01  BASE  1.0584   332  1.60524  308  1.1   100   1.1   0     0     973.5    NA       0.0000   9999     0     0     0    
2019/03/06  02:19:01  BASE  1.00548  333  1.54056  319  1.1   100   1.1   0     0     973.5    NA       0.0000   9999     0     0     0    
2019/03/06  02:20:01  BASE  1.07016  333  1.48176  324  1.1   100   1.1   0     0     973.5    NA       0.0000   9999     0     0     0    
2019/03/06  02:21:01  BASE  1.08192  331  1.48176  324  1.1   100   1.1   0     0     973.5    NA       0.0000   9999     590   0     0    
2019/03/06  02:22:01  BASE  1.01136  328  1.32888  321  1.1   100   1.1   0     0     973.5    NA       0.0000   9999     520   0     0    
2019/03/06  02:23:01  BASE  1.07016  329  1.24068  331  1.1   100   1.1   0     0     973.5    NA       0.0000   9999     490   0     0    
2019/03/06  02:24:01  BASE  1.1172   330  1.24068  331  1.1   100   1.1   0     0     973.5    NA       0.0000   9999     520   0     0    
2019/03/06  02:25:01  BASE  1.11132  334  1.27008  335  1.0   100   1.0   0     0     973.5    NA       0.0000   9999     490   0     0    
2019/03/06  02:26:01  BASE  1.029    342  1.27008  335  1.0   100   1.0   0     0     973.5    NA       0.0000   9999     490   0     0    
2019/03/06  02:27:01  BASE  0.92316  343  1.27008  335  1.0   100   1.0   0     0     973.5    NA       0.0000   9999     490   0     0    
2019/03/06  02:28:01  BASE  0.89964  345  1.27008  335  1.0   100   1.0   0     0     973.5    NA       0.0000   9999     490   0     0    
2019/03/06  02:29:01  BASE  0.9996   345  1.27008  335  1.0   100   1.0   0     0     973.4    NA       0.0000   9999     460   0     0    
2019/03/06  02:30:01  BASE  1.02312  343  1.27008  335  1.0   100   1.0   0     0     973.4    NA       0.0000   9999     460   0     0    
2019/03/06  02:31:01  BASE  0.89964  348  1.27008  335  1.0   100   1.0   0     0     973.4    NA       0.0000   9999     430   0     0    
2019/03/06  02:32:01  BASE  1.00548  357  1.27008  335  0.9   100   0.9   0     0     973.4    NA       0.0000   9999     430   0     0    
2019/03/06  02:33:01  BASE  1.05252  5    1.27008  335  0.9   100   0.9   0     0     973.4    NA       0.0000   9999     390   0     0    
2019/03/06  02:34:01  BASE  0.87024  6    1.27008  335  0.9   100   0.9   0     0     973.4    NA       0.0000   9999     430   0     0    
2019/03/06  02:35:01  BASE  0.71148  349  1.24068  360  0.9   100   0.9   0     0     973.4    NA       0.0000   9999     390   0     0    
2019/03/06  02:36:01  BASE  0.32928  334  1.24068  360  0.9   100   0.9   0     0     973.4    NA       0.0000   9999     430   0     0    
2019/03/06  02:37:01  BASE  0.07644  331  1.24068  360  0.8   100   0.8   0     0     973.4    NA       0.0000   9999     430   0     0    
2019/03/06  02:38:01  BASE  0.45276  331  1.24068  360  0.8   100   0.8   0     0     973.4    NA       0.0000   9999     430   0     0    
2019/03/06  02:39:01  BASE  0.79968  307  1.24068  360  0.8   100   0.8   0     0     973.4    NA       0.0000   9999     390   0     0    
2019/03/06  02:40:01  BASE  0.9702   270  1.27008  257  0.8   100   0.8   0     0     973.4    NA       0.0000   9999     360   0     0    
2019/03/06  02:41:01  BASE  1.14072  262  1.39356  260  0.8   100   0.8   0     0     973.4    NA       0.0000   9999     360   0     0    
2019/03/06  02:42:01  BASE  1.13484  260  1.39356  260  0.8   100   0.8   0     0     973.4    NA       0.0000   9999     390   0     0    
2019/03/06  02:43:01  BASE  0.87024  259  1.39356  260  0.8   100   0.8   0     0     973.4    NA       0.0000   9999     430   0     0    
2019/03/06  02:44:01  BASE  0.735    267  1.39356  260  0.9   100   0.9   0     0     973.4    NA       0.0000   9999     460   0     0    
2019/03/06  02:45:01  BASE  1.07604  276  1.60524  277  0.9   100   0.9   0     0     973.4    NA       0.0000   9999     390   0     0    
2019/03/06  02:46:01  BASE  1.22892  268  1.60524  277  0.9   100   0.9   0     0     973.4    NA       0.0000   9999     430   0     0    
2019/03/06  02:47:01  BASE  1.2936   257  1.75224  254  0.9   100   0.9   0     0     973.4    NA       0.0000   9999     330   0     0    
2019/03/06  02:48:01  BASE  1.50528  256  1.81692  255  0.9   100   0.9   0     0     973.4    NA       0.0000   9999     390   0     0    
2019/03/06  02:49:01  BASE  1.30536  257  1.81692  255  0.9   100   0.9   0     0     973.4    NA       0.0000   9999     360   0     0    
2019/03/06  02:50:01  BASE  0.9996   250  1.81692  255  0.9   100   0.9   0     0     973.4    NA       0.0000   9999     360   0     0    
2019/03/06  02:51:01  BASE  1.07604  240  1.81692  255  0.9   100   0.9   0     0     973.4    NA       0.0000   9999     360   0     0    
2019/03/06  02:52:01  BASE  1.17012  235  1.81692  255  0.9   100   0.9   0     0     973.4    NA       0.0000   9999     390   0     0    
2019/03/06  02:53:01  BASE  1.21128  235  1.81692  255  0.9   100   0.9   0     0     973.4    NA       0.0000   9999     430   0     0    
2019/03/06  02:54:01  BASE  1.31712  237  1.81692  255  0.9   100   0.9   0     0     973.4    NA       0.0000   9999     390   0     0    
2019/03/06  02:55:01  BASE  1.2642   241  1.81692  255  0.9   100   0.9   0     0     973.4    NA       0.0000   9999     430   0     0    
2019/03/06  02:56:01  BASE  1.38768  250  1.81692  255  0.9   100   0.9   0     0     973.4    NA       0.0000   9999     430   0     0    
2019/03/06  02:57:01  BASE  1.50528  255  1.81692  255  0.9   100   0.9   0     0     973.4    NA       0.0000   9999     430   0     0    
2019/03/06  02:58:01  BASE  1.51116  259  1.69344  254  0.9   100   0.9   0     0     973.4    NA       0.0000   9999     360   0     0    
2019/03/06  02:59:01  BASE  1.5582   257  1.72284  256  0.9   100   0.9   0     0     973.4    NA       0.0000   9999     360   0     0    
2019/03/06  03:00:01  BASE  1.3524   249  1.72284  256  0.9   100   0.9   0     0     973.4    NA       0.0000   9999     260   0     0    
2019/03/06  03:01:01  BASE  1.27008  249  1.72284  256  0.9   100   0.9   0     0     973.4    NA       0.0000   9999     260   0     0    
2019/03/06  03:02:01  BASE  1.31712  253  1.72284  256  0.9   100   0.9   0     0     973.4    NA       0.0000   9999     300   0     0    
2019/03/06  03:03:01  BASE  1.2348   249  1.72284  256  0.8   100   0.8   0     0     973.4    NA       0.0000   9999     330   0     0    
2019/03/06  03:04:01  BASE  1.27008  246  1.72284  256  0.8   100   0.8   0     0     973.4    NA       0.0000   9999     430   0     0    
2019/03/06  03:05:01  BASE  1.4406   249  1.72284  256  0.8   100   0.8   0     0     973.4    NA       0.0000   9999     360   0     0    
2019/03/06  03:06:01  BASE  1.49352  247  1.72284  256  0.8   100   0.8   0     0     973.4    NA       0.0000   9999     360   0     0    
2019/03/06  03:07:01  BASE  1.2642   250  1.72284  256  0.8   100   0.8   0     0     973.4    NA       0.0000   9999     330   0     0    
2019/03/06  03:08:01  BASE  0.7938   252  1.72284  256  0.8   100   0.8   0     0     973.4    NA       0.0000   9999     330   0     0    
2019/03/06  03:09:01  BASE  0.3234   265  1.69344  245  0.8   100   0.8   0     0     973.4    NA       0.0000   9999     330   0     0    
2019/03/06  03:10:01  BASE  0.05292  281  1.69344  245  0.8   100   0.8   0     0     973.4    NA       0.0000   9999     330   0     0    
2019/03/06  03:11:01  BASE  0        279  1.69344  245  0.8   100   0.8   0     0     973.4    NA       0.0000   9999     330   0     0    
2019/03/06  03:12:01  BASE  0.08232  288  1.69344  245  0.8   100   0.8   0     0     973.4    NA       0.0000   9999     360   0     0    
2019/03/06  03:13:01  BASE  0.08232  297  1.69344  245  0.9   100   0.9   0     0     973.4    NA       0.0000   9999     330   0     0    
2019/03/06  03:14:01  BASE  0.05292  287  1.69344  245  0.9   100   0.9   0     0     973.4    NA       0.0000   9999     390   0     0    
2019/03/06  03:15:01  BASE  0.15876  276  1.60524  246  0.9   100   0.9   0     0     973.4    NA       0.0000   9999     360   0     0    
2019/03/06  03:16:01  BASE  0.09996  275  1.42296  259  0.9   100   0.9   0     0     973.4    NA       0.0000   9999     390   0     0    
2019/03/06  03:17:01  BASE  0        287  0.84672  251  0.9   100   0.9   0     0     973.4    NA       0.0000   9999     360   0     0    
2019/03/06  03:18:01  BASE  0        305  0.72324  300  0.9   100   0.9   0     0     973.4    NA       0.0000   9999     360   0     0    
2019/03/06  03:19:01  BASE  0        317  0.72324  300  0.9   100   0.9   0     0     973.4    NA       0.0000   9999     360   0     0    
2019/03/06  03:20:01  BASE  0        323  0.72324  300  0.9   100   0.9   0     0     973.4    NA       0.0000   9999     360   0     0    
2019/03/06  03:21:01  BASE  0        334  0.72324  300  0.9   100   0.9   0     0     973.4    NA       0.0000   9999     360   0     0    
2019/03/06  03:22:01  BASE  0.34104  351  1.0878   1    0.9   100   0.9   0     0     973.4    NA       0.0000   9999     360   0     0    
2019/03/06  03:23:01  BASE  0.79968  357  1.0878   1    0.9   100   0.9   0     0     973.4    NA       0.0000   9999     330   3480  0    
2019/03/06  03:24:01  BASE  0.87612  352  1.0878   1    0.9   100   0.9   0     0     973.4    NA       0.0000   9999     360   2990  0    
2019/03/06  03:25:01  BASE  0.72912  350  1.0878   1    0.9   100   0.9   0     0     973.4    NA       0.0000   9999     390   3350  0    
2019/03/06  03:26:01  BASE  0.735    351  1.0878   1    0.9   100   0.9   0     0     973.4    NA       0.0000   9999     390   1640  0    
2019/03/06  03:27:01  BASE  0.68208  1    1.0878   1    0.8   100   0.8   0     0     973.4    NA       0.0000   9999     390   1610  0    
2019/03/06  03:28:01  BASE  0.48804  14   1.0878   1    0.8   100   0.8   0     0     973.4    NA       0.0000   9999     330   1640  0    
2019/03/06  03:29:01  BASE  0.44688  22   1.0878   1    0.8   100   0.8   0     0     973.4    NA       0.0000   9999     330   0     0    
2019/03/06  03:30:01  BASE  0.49392  25   1.0878   1    0.7   100   0.7   0     0     973.4    NA       0.0000   9999     360   3410  0    
2019/03/06  03:31:01  BASE  0.6762   27   1.0878   1    0.6   100   0.6   0     0     973.4    NA       0.0000   9999     360   3410  0    
2019/03/06  03:32:01  BASE  0.7644   33   1.0584   351  0.6   100   0.6   0     0     973.4    NA       0.0000   9999     330   2850  0    
2019/03/06  03:33:01  BASE  0.84672  35   1.1172   31   0.6   100   0.6   0     0     973.4    NA       0.0000   9999     330   3480  0    
2019/03/06  03:34:01  BASE  1.04076  41   1.24068  53   0.6   100   0.6   0     0     973.4    NA       0.0000   9999     360   2820  0    
2019/03/06  03:35:01  BASE  1.14072  51   1.24068  50   0.6   100   0.6   0     0     973.4    NA       0.0000   9999     360   1710  0    
2019/03/06  03:36:01  BASE  1.24068  49   1.42296  47   0.6   100   0.6   0     0     973.4    NA       0.0000   9999     360   1670  0    
2019/03/06  03:37:01  BASE  1.45236  48   1.66404  51   0.6   100   0.6   0     0     973.3    NA       0.0000   9999     430   1670  0    
2019/03/06  03:38:01  BASE  1.59936  50   1.75224  48   0.6   100   0.6   0     0     973.3    NA       0.0000   9999     1640  3480  0    
2019/03/06  03:39:01  BASE  1.5876   49   1.75224  48   0.6   100   0.6   0     0     973.3    NA       0.0000   9999     1640  0     0    
2019/03/06  03:40:01  BASE  1.60524  49   1.75224  48   0.6   100   0.6   0     0     973.3    NA       0.0000   9999     1640  0     0    
2019/03/06  03:41:01  BASE  1.617    46   1.75224  39   0.7   100   0.7   0     0     973.3    NA       0.0000   9999     1640  2330  0    
2019/03/06  03:42:01  BASE  1.61112  46   1.75224  43   0.7   100   0.7   0     0     973.3    NA       0.0000   9999     1640  2300  0    
2019/03/06  03:43:01  BASE  1.7052   51   1.96392  49   0.7   100   0.7   0     0     973.3    NA       0.0000   9999     1610  2230  0    
2019/03/06  03:44:01  BASE  1.78164  54   2.0286   52   0.8   100   0.8   0     0     973.3    NA       0.0000   9999     1610  2230  0    
2019/03/06  03:45:01  BASE  1.84044  55   2.24028  60   0.8   100   0.8   0     0     973.3    NA       0.0000   9999     1610  2170  0    
2019/03/06  03:46:01  BASE  2.18148  53   2.75184  47   0.9   100   0.9   0     0     973.3    NA       0.0000   9999     1640  2170  0    
2019/03/06  03:47:01  BASE  2.42844  47   2.75184  45   0.9   100   0.9   0     0     973.3    NA       0.0000   9999     1640  2170  0    
2019/03/06  03:48:01  BASE  2.27556  45   2.75184  45   0.9   100   0.9   0     0     973.3    NA       0.0000   9999     1610  2100  0    
2019/03/06  03:49:01  BASE  2.24616  45   2.75184  45   0.9   100   0.9   0     0     973.3    NA       0.0000   9999     2100  0     0    
2019/03/06  03:50:01  BASE  2.34612  46   2.81064  42   0.9   100   0.9   0     0     973.3    NA       0.0000   9999     1970  0     0    
2019/03/06  03:51:01  BASE  2.2932   44   2.81064  42   0.9   100   0.9   0     0     973.3    NA       0.0000   9999     2070  0     0    
2019/03/06  03:52:01  BASE  2.1168   44   2.81064  42   0.9   100   0.9   0     0     973.3    NA       0.0000   9999     1770  0     0    
2019/03/06  03:53:01  BASE  2.0874   45   2.81064  42   0.9   100   0.9   0     0     973.3    NA       0.0000   9999     1870  0     0    
2019/03/06  03:54:01  BASE  2.10504  42   2.81064  42   0.9   100   0.9   0     0     973.3    NA       0.0000   9999     1940  0     0    
2019/03/06  03:55:01  BASE  2.04624  38   2.81064  42   0.9   100   0.9   0     0     973.3    NA       0.0000   9999     2000  0     0    
2019/03/06  03:56:01  BASE  2.01684  37   2.81064  42   0.9   100   0.9   0     0     973.3    NA       0.0000   9999     1970  0     0    
2019/03/06  03:57:01  BASE  1.8522   36   2.81064  42   0.9   100   0.9   0     0     973.3    NA       0.0000   9999     1940  0     0    
2019/03/06  03:58:01  BASE  1.7346   41   2.81064  42   0.9   100   0.9   0     0     973.3    NA       0.0000   9999     1870  0     0    
2019/03/06  03:59:01  BASE  1.65228  48   2.81064  42   0.9   100   0.9   0     0     973.3    NA       0.0000   9999     1970  0     0    
2019/03/06  04:00:01  BASE  1.40532  47   2.51076  40   0.9   100   0.9   0     0     973.3    NA       0.0000   9999     2030  0     0    
2019/03/06  04:01:01  BASE  1.22304  44   2.45196  45   0.9   100   0.9   0     0     973.3    NA       0.0000   9999     1970  0     0    
2019/03/06  04:02:01  BASE  1.16424  43   2.45196  45   0.9   100   0.9   0     0     973.3    NA       0.0000   9999     2070  0     0    
2019/03/06  04:03:01  BASE  1.12308  33   2.24028  42   0.9   100   0.9   0     0     973.3    NA       0.0000   9999     1970  0     0    
2019/03/06  04:04:01  BASE  1.176    24   2.1462   39   0.9   100   0.9   0     0     973.3    NA       0.0000   9999     2130  0     0    
2019/03/06  04:06:00  BASE  1.4406   25   2.1168   26   0.9   100   0.9   0     0     973.3    NA       0.0000   9999     2130  0     0    
2019/03/06  04:07:00  BASE  1.05252  18   2.1168   26   0.9   100   0.9   0     0     973.3    NA       0.0000   9999     1900  0     0    
2019/03/06  04:08:00  BASE  0.24108  5    2.1168   26   0.9   100   0.9   0     0     973.3    NA       0.0000   9999     2170  0     0    
2019/03/06  04:09:00  BASE  0.40572  356  2.1168   26   0.9   100   0.9   0     0     973.3    NA       0.0000   9999     2170  0     0    
2019/03/06  04:10:00  BASE  0.43512  337  2.1168   26   0.9   100   0.9   0     0     973.3    NA       0.0000   9999     2130  0     0    
2019/03/06  04:11:00  BASE  0.48216  309  2.1168   26   0.9   100   0.9   0     0     973.3    NA       0.0000   9999     2130  0     0    
2019/03/06  04:12:00  BASE  0.69972  295  2.1168   26   0.8   100   0.8   0     0     973.3    NA       0.0000   9999     2100  0     0    
2019/03/06  04:13:00  BASE  0.58212  293  2.1168   26   0.8   100   0.8   0     0     973.3    NA       0.0000   9999     2260  0     0    
2019/03/06  04:14:00  BASE  0.6468   290  2.1168   26   0.8   100   0.8   0     0     973.3    NA       0.0000   9999     2130  0     0    
2019/03/06  04:15:00  BASE  0.68796  289  2.1168   26   0.8   100   0.8   0     0     973.3    NA       0.0000   9999     2230  0     0    
2019/03/06  04:16:00  BASE  0.78204  285  1.1466   298  0.8   100   0.8   0     0     973.3    NA       0.0000   9999     2170  0     0    
2019/03/06  04:17:00  BASE  0.87612  284  1.1466   298  0.9   100   0.9   0     0     973.3    NA       0.0000   9999     2230  0     0    
2019/03/06  04:18:00  BASE  0.9114   285  1.1466   298  0.9   100   0.9   0     0     973.3    NA       0.0000   9999     2230  0     0    
2019/03/06  04:19:00  BASE  0.87024  285  1.1466   298  0.9   100   0.9   0     0     973.3    NA       0.0000   9999     2200  0     0    
2019/03/06  04:20:00  BASE  1.27596  290  1.93452  297  0.9   100   0.9   0     0     973.3    NA       0.0000   9999     2200  0     0    
2019/03/06  04:21:00  BASE  1.77576  297  2.058    295  0.9   100   0.9   0     0     973.3    NA       0.0000   9999     1970  0     0    
2019/03/06  04:22:00  BASE  1.76988  304  2.058    295  0.8   100   0.8   0     0     973.3    NA       0.0000   9999     1900  0     0    
2019/03/06  04:23:00  BASE  1.7052   310  2.058    295  0.7   100   0.7   0     0     973.3    NA       0.0000   9999     1940  2430  0    
2019/03/06  04:24:00  BASE  1.68756  315  2.058    295  0.7   100   0.7   0     0     973.3    NA       0.0000   9999     1970  0     0    
2019/03/06  04:25:00  BASE  1.68756  316  2.058    295  0.6   100   0.6   0     0     973.3    NA       0.0000   9999     1900  0     0    
2019/03/06  04:26:00  BASE  1.7052   315  2.058    295  0.6   100   0.6   0     0     973.3    NA       0.0000   9999     1900  2300  0    
2019/03/06  04:27:00  BASE  1.66992  313  2.058    295  0.5   100   0.5   0     0     973.3    NA       0.0000   9999     2230  0     0    
2019/03/06  04:28:00  BASE  1.7052   311  2.058    295  0.4   100   0.4   0     0     973.3    NA       0.0000   9999     1940  0     0    
2019/03/06  04:29:00  BASE  1.77576  308  2.058    295  0.4   100   0.4   0     0     973.3    NA       0.0000   9999     1940  0     0    
2019/03/06  04:30:00  BASE  1.74636  307  2.058    295  0.4   100   0.4   0     0     973.3    NA       0.0000   9999     1940  0     0    
2019/03/06  04:31:00  BASE  1.68756  306  1.87572  305  0.4   100   0.4   0     0     973.3    NA       0.0000   9999     2130  0     0    
2019/03/06  04:32:00  BASE  1.93452  302  2.35788  301  0.4   100   0.4   0     0     973.3    NA       0.0000   9999     1970  0     0    
2019/03/06  04:33:00  BASE  2.205    301  2.35788  301  0.5   100   0.5   0     0     973.3    NA       0.0000   9999     1940  0     0    
2019/03/06  04:34:00  BASE  2.21676  305  2.35788  301  0.5   100   0.5   0     0     973.3    NA       0.0000   9999     1940  0     0    
2019/03/06  04:35:00  BASE  2.13444  306  2.35788  301  0.6   100   0.6   0     0     973.3    NA       0.0000   9999     1970  0     0    
2019/03/06  04:36:00  BASE  2.21676  302  2.63424  294  0.6   100   0.6   0     0     973.2    NA       0.0000   9999     1870  0     0    
2019/03/06  04:37:00  BASE  2.42844  296  2.63424  295  0.6   100   0.6   0     0     973.2    NA       0.0000   9999     1840  0     0    
2019/03/06  04:38:00  BASE  2.56368  293  2.75184  293  0.6   100   0.6   0     0     973.2    NA       0.0000   9999     1900  0     0    
2019/03/06  04:39:00  BASE  2.31672  288  2.75184  293  0.6   100   0.6   0     0     973.2    NA       0.0000   9999     1840  0     0    
2019/03/06  04:40:00  BASE  1.91688  280  2.75184  293  0.6   100   0.6   0     0     973.2    NA       0.0000   9999     1870  0     0    
2019/03/06  04:41:00  BASE  1.74048  277  2.75184  293  0.5   100   0.5   0     0     973.2    NA       0.0000   9999     1900  0     0    
2019/03/06  04:42:00  BASE  1.72872  286  2.75184  293  0.5   100   0.5   0     0     973.2    NA       0.0000   9999     2130  0     0    
2019/03/06  04:43:00  BASE  2.09916  292  2.75184  293  0.4   100   0.4   0     0     973.2    NA       0.0000   9999     2230  0     0    
2019/03/06  04:44:00  BASE  2.45784  294  2.75184  293  0.4   100   0.4   0     0     973.2    NA       0.0000   9999     2260  0     0    
2019/03/06  04:45:00  BASE  2.57544  296  2.75184  293  0.4   100   0.4   0     0     973.2    NA       0.0000   9999     2170  6560  0    
2019/03/06  04:46:00  BASE  2.62836  296  2.75184  293  0.5   100   0.5   0     0     973.2    NA       0.0000   9999     2260  6560  0    
2019/03/06  04:47:00  BASE  2.66952  295  2.84592  294  0.5   100   0.5   0     0     973.3    NA       0.0000   9999     2260  6590  0    
2019/03/06  04:48:00  BASE  2.68128  294  2.84592  294  0.5   100   0.5   0     0     973.2    NA       0.0000   9999     1940  2300  6590 
2019/03/06  04:49:00  BASE  2.6754   294  2.87532  294  0.5   100   0.5   0     0     973.2    NA       0.0000   9999     2230  6560  0    
2019/03/06  04:50:00  BASE  2.59896  295  2.87532  294  0.5   100   0.5   0     0     973.2    NA       0.0000   9999     2300  6530  0    
2019/03/06  04:51:00  BASE  2.4696   299  2.87532  294  0.5   100   0.5   0     0     973.2    NA       0.0000   9999     2300  6560  0    
2019/03/06  04:52:00  BASE  2.32848  302  2.87532  294  0.5   100   0.5   0     0     973.2    NA       0.0000   9999     2000  6560  0    
2019/03/06  04:53:00  BASE  2.14032  304  2.87532  294  0.4   100   0.4   0     0     973.2    NA       0.0000   9999     6560  0     0    
2019/03/06  04:54:00  BASE  1.97568  304  2.87532  294  0.4   100   0.4   0     0     973.2    NA       0.0000   9999     1970  6560  0    
2019/03/06  04:55:00  BASE  1.911    304  2.87532  294  0.3   100   0.3   0     0     973.2    NA       0.0000   9999     6530  0     0    
2019/03/06  04:56:00  BASE  1.7934   306  2.87532  294  0.3   100   0.3   0     0     973.2    NA       0.0000   9999     6590  0     0    
2019/03/06  04:57:00  BASE  1.58172  309  2.87532  294  0.3   100   0.3   0     0     973.3    NA       0.0000   9999     6590  0     0    
2019/03/06  04:58:00  BASE  1.45236  309  2.87532  294  0.3   100   0.3   0     0     973.3    NA       0.0000   9999     5610  6590  0    
2019/03/06  04:59:00  BASE  1.42884  305  2.69304  294  0.3   100   0.3   0     0     973.3    NA       0.0000   9999     5610  6590  0    
2019/03/06  05:00:00  BASE  1.45236  301  2.54016  301  0.2   100   0.2   0     0     973.3    NA       0.0000   9999     1870  5610  6560 
2019/03/06  05:01:00  BASE  1.44648  298  2.45196  300  0.2   100   0.2   0     0     973.3    NA       0.0000   9999     1800  6630  0    
2019/03/06  05:02:00  BASE  1.48764  294  2.24028  306  0.2   100   0.2   0     0     973.3    NA       0.0000   9999     1800  6660  0    
2019/03/06  05:03:00  BASE  1.6464   293  2.058    304  0.2   100   0.2   0     0     973.3    NA       0.0000   9999     5610  6560  0    
2019/03/06  05:04:00  BASE  1.74636  291  1.96392  302  0.3   100   0.3   0     0     973.3    NA       0.0000   9999     6590  0     0    
2019/03/06  05:05:00  BASE  1.72872  288  1.87572  293  0.3   100   0.3   0     0     973.3    NA       0.0000   9999     360   5610  0    
2019/03/06  05:06:00  BASE  1.65228  286  1.90512  293  0.3   100   0.3   0     0     973.3    NA       0.0000   9999     330   5640  0    
2019/03/06  05:07:00  BASE  1.71696  288  2.24028  291  0.4   100   0.4   0     0     973.3    NA       0.0000   9999     300   0     0    
2019/03/06  05:08:00  BASE  1.93452  292  2.24028  294  0.4   100   0.4   0     0     973.3    NA       0.0000   9999     300   0     0    
2019/03/06  05:09:00  BASE  2.01096  292  2.26968  290  0.4   100   0.4   0     0     973.3    NA       0.0000   9999     300   0     0    
2019/03/06  05:10:00  BASE  1.9698   290  2.26968  290  0.4   100   0.4   0     0     973.3    NA       0.0000   9999     300   5610  0    
2019/03/06  05:11:00  BASE  1.84632  291  2.26968  290  0.4   100   0.4   0     0     973.4    NA       0.0000   9999     300   0     0    
2019/03/06  05:12:00  BASE  1.68756  287  2.26968  290  0.4   100   0.4   0     0     973.4    NA       0.0000   9999     200   0     0    
2019/03/06  05:13:00  BASE  1.37004  277  2.26968  290  0.4   100   0.4   0     0     973.3    NA       0.0000   9999     0     0     0    
2019/03/06  05:14:00  BASE  1.15836  259  2.26968  290  0.4   100   0.4   0     0     973.3    NA       0.0000   9999     0     0     0    
2019/03/06  05:15:00  BASE  1.27596  242  2.26968  290  0.3   100   0.3   0     0     973.3    NA       0.0000   7000     0     0     0    
2019/03/06  05:16:00  BASE  1.15836  232  2.26968  290  0.3   100   0.3   0     0     973.3    NA       0.0000   BR       4400  0     0    
2019/03/06  05:17:00  BASE  1.27008  230  2.26968  290  0.3   100   0.3   0     0     973.3    NA       0.0000   BR       3300  0     0    
2019/03/06  05:18:00  BASE  1.69344  235  2.26968  290  0.2   100   0.2   0     0     973.3    NA       0.0000   BR       2600  0     0    
2019/03/06  05:19:00  BASE  1.60524  238  2.1462   285  0.2   100   0.2   0     0     973.3    NA       0.0000   BR       2700  0     0    
2019/03/06  05:20:00  BASE  1.47     239  2.0286   236  0.2   100   0.2   0     0     973.3    NA       0.0000   BR       2800  0     0    
2019/03/06  05:21:00  BASE  1.48176  240  2.0286   236  0.2   100   0.2   0     0     973.3    NA       0.0000   BR       2400  0     0    
2019/03/06  05:22:00  BASE  1.2642   235  2.0286   236  0.2   100   0.2   0     0     973.3    NA       0.0000   BR       2000  0     0    
2019/03/06  05:23:00  BASE  1.14072  231  2.0286   236  0.2   100   0.2   0     0     973.3    NA       0.0000   BR       2400  0     0    
2019/03/06  05:24:00  BASE  1.10544  233  2.0286   236  0.2   100   0.2   0     0     973.3    NA       0.0000   BR       2700  0     0    
2019/03/06  05:25:00  BASE  1.1466   235  2.0286   236  0.2   100   0.2   0     0     973.3    NA       0.0000   BR       2600  0     0    
2019/03/06  05:26:00  BASE  1.15248  236  2.0286   236  0.3   100   0.3   0     0     973.3    NA       0.0000   BR       2300  0     0    
2019/03/06  05:27:00  BASE  0.84084  235  2.0286   236  0.3   100   0.3   0     0     973.3    NA       0.0000   BR       2800  0     0    
2019/03/06  05:28:00  BASE  0.78204  234  1.69344  246  0.3   100   0.3   0     0     973.3    NA       0.0000   BR       2800  0     0    
2019/03/06  05:29:00  BASE  0.67032  229  1.69344  246  0.3   100   0.3   0     0     973.4    NA       0.0000   BR       2000  0     0    
2019/03/06  05:30:00  BASE  0.72912  229  1.66404  238  0.3   100   0.3   0     0     973.4    NA       0.0000   BR       2000  0     0    
2019/03/06  05:31:00  BASE  1.00548  243  1.48176  233  0.3   100   0.3   0     0     973.4    NA       0.0000   BR       1800  0     0    
2019/03/06  05:32:00  BASE  1.04076  256  1.48176  233  0.3   100   0.3   0     0     973.4    NA       0.0000   BR       1900  0     0    
2019/03/06  05:33:00  BASE  1.176    253  1.45236  247  0.3   100   0.3   0     0     973.4    NA       0.0000   BR       1600  0     0    
2019/03/06  05:34:00  BASE  0.88788  253  1.45236  247  0.3   100   0.3   0     0     973.4    NA       0.0000   BR       1500  0     0    
2019/03/06  05:35:00  BASE  0.74088  256  1.45236  247  0.3   100   0.3   0     0     973.4    NA       0.0000   BR       1600  0     0    
2019/03/06  05:36:00  BASE  1.01136  254  1.66404  253  0.3   100   0.3   0     0     973.4    NA       0.0000   BR       1700  0     0    
2019/03/06  05:37:00  BASE  1.38768  258  1.93452  267  0.3   100   0.3   0     0     973.4    NA       0.0000   BR       1600  0     0    
2019/03/06  05:38:00  BASE  1.27596  261  1.93452  267  0.3   100   0.3   0     0     973.4    NA       0.0000   BR       1300  0     0    
2019/03/06  05:39:00  BASE  0.75852  260  1.93452  267  0.3   100   0.3   0     0     973.4    NA       0.0000   BR       1300  0     0    
2019/03/06  05:40:00  BASE  0.47628  264  1.93452  267  0.3   100   0.3   0     0     973.4    NA       0.0000   BR       1500  0     0    
2019/03/06  05:41:00  BASE  0.4116   278  1.93452  267  0.3   100   0.3   0     0     973.4    NA       0.0000   BR       1500  0     0    
2019/03/06  05:42:00  BASE  0.57036  288  1.93452  267  0.3   100   0.3   0     0     973.4    NA       0.0000   BR       1500  0     0    
2019/03/06  05:43:00  BASE  0.5586   303  1.93452  267  0.3   100   0.3   0     0     973.4    NA       0.0000   BR       1800  0     0    
2019/03/06  05:44:00  BASE  0.48216  313  1.93452  267  0.3   100   0.3   0     0     973.4    NA       0.0000   BR       1800  0     0    
2019/03/06  05:45:00  BASE  0.78792  311  1.93452  267  0.3   100   0.3   0     0     973.4    NA       0.0000   BR       1700  0     0    
2019/03/06  05:46:00  BASE  0.99372  310  1.93452  267  0.3   100   0.3   0     0     973.4    NA       0.0000   BR       2500  0     0    
2019/03/06  05:47:00  BASE  0.84672  308  1.54056  271  0.3   100   0.3   0     0     973.4    NA       0.0000   BR       4700  0     0    
2019/03/06  05:48:00  BASE  0.67032  303  1.35828  310  0.3   100   0.3   0     0     973.4    NA       0.0000   BR       3500  0     0    
2019/03/06  05:49:00  BASE  0.61152  302  1.35828  310  0.3   100   0.3   0     0     973.4    NA       0.0000   BR       2300  0     0    
2019/03/06  05:50:00  BASE  0.58212  308  1.35828  310  0.3   100   0.3   0     0     973.4    NA       0.0000   BR       3100  0     0    
2019/03/06  05:51:00  BASE  0.69972  330  1.35828  310  0.2   100   0.2   0     0     973.3    NA       0.0000   BR       2800  0     0    
2019/03/06  05:52:00  BASE  0.89964  352  1.35828  310  0.2   100   0.2   0     0     973.3    NA       0.0000   BR       1500  0     0    
2019/03/06  05:53:00  BASE  0.87612  351  1.35828  310  0.2   100   0.2   0     0     973.3    NA       0.0000   BR       1700  0     0    
2019/03/06  05:54:00  BASE  0.87612  352  1.35828  310  0.1   100   0.1   0     0     973.3    NA       0.0000   BR       2000  0     0    
2019/03/06  05:55:00  BASE  0.92904  2    1.18188  355  0.1   100   0.1   0     0     973.3    NA       0.0000   BR       2100  0     0    
2019/03/06  05:56:00  BASE  0.96432  1    1.18188  355  0.1   100   0.1   0     0     973.3    NA       0.0000   BR       2500  0     0    
2019/03/06  05:57:00  BASE  0.98784  4    1.27008  10   0.1   100   0.1   0     0     973.3    NA       0.0000   BR       1900  0     0    
2019/03/06  05:58:00  BASE  1.2054   7    1.42296  6    0.1   100   0.1   0     0     973.3    NA       0.0000   BR       1500  0     0    
2019/03/06  05:59:00  BASE  1.37004  7    1.48176  6    0.0   100   0.0   0     0     973.3    NA       0.0000   BR       1200  0     0    
2019/03/06  06:00:00  BASE  1.35828  6    1.48176  4    -0.0  100   -0.0  0     0     973.3    NA       0.0000   BR       1100  0     0    
2019/03/06  06:01:00  BASE  1.54056  9    1.87572  15   -0.0  100   -0.0  0     0     973.3    NA       0.0000   BR       1300  0     0    
2019/03/06  06:02:00  BASE  1.77576  12   2.0286   14   -0.0  100   -0.0  0     0     973.3    NA       0.0000   BR       1300  0     0    
2019/03/06  06:03:00  BASE  1.81104  13   2.0286   14   -0.0  100   -0.0  0     0     973.3    NA       0.0000   BR       1300  0     0    
2019/03/06  06:04:01  BASE  1.7934   11   2.0286   14   -0.0  100   -0.0  0     0     973.3    NA       0.0000   BR       1400  0     0    
2019/03/06  06:05:00  BASE  1.81104  9    2.0286   14   -0.0  100   -0.0  0     0     973.3    NA       0.0000   BR       1300  0     0    
2019/03/06  06:06:00  BASE  1.84632  8    2.0286   14   -0.0  100   -0.0  0     0     973.3    NA       0.0000   BR       1200  0     0    
2019/03/06  06:07:00  BASE  1.82868  7    2.0286   14   -0.0  100   -0.0  0     0     973.3    NA       0.0000   BR       1200  0     0    
2019/03/06  06:08:00  BASE  1.81104  9    2.0286   14   -0.1  100   -0.1  0     0     973.3    NA       0.0000   BR       1200  0     0    
2019/03/06  06:09:00  BASE  1.8228   13   2.0286   18   -0.1  100   -0.1  0     0     973.3    NA       0.0000   BR       1100  0     0    
2019/03/06  06:10:00  BASE  1.8228   17   2.0286   18   -0.1  100   -0.1  0     0     973.3    NA       0.0000   BR       1000  0     0    
2019/03/06  06:11:00  BASE  1.78752  18   2.0286   18   -0.2  100   -0.2  0     0     973.3    NA       0.0000   BR       0900  0     0    
2019/03/06  06:12:00  BASE  1.63464  19   2.0286   18   -0.2  100   -0.2  0     0     973.3    NA       0.0000   BR       0750  0     0    
2019/03/06  06:13:00  BASE  1.41708  17   2.0286   18   -0.2  100   -0.2  0     0     973.3    NA       0.0000   BR       0750  0     0    
2019/03/06  06:14:00  BASE  1.2642   12   2.0286   18   -0.2  100   -0.2  0     0     973.3    NA       0.0000   BR       0750  0     0    
2019/03/06  06:15:00  BASE  1.16424  7    2.0286   18   -0.2  100   -0.2  0     0     973.3    NA       0.0000   BR       0800  0     0    
2019/03/06  06:16:00  BASE  1.07604  7    2.0286   18   -0.2  100   -0.2  0     0     973.3    NA       0.0000   BR       0800  0     0    
2019/03/06  06:17:00  BASE  0.9408   2    2.0286   18   -0.2  100   -0.2  0     0     973.3    NA       0.0000   FZFG     0800  0     0    
2019/03/06  06:18:00  BASE  0.84084  354  2.0286   18   -0.2  100   -0.2  0     0     973.3    NA       0.0000   FZFG     0900  0     0    
2019/03/06  06:19:00  BASE  0.54684  340  1.90512  20   -0.1  100   -0.1  0     0     973.3    NA       0.0000   FZFG     1000  0     0    
2019/03/06  06:20:00  BASE  0.12936  326  1.81692  19   -0.1  100   -0.1  0     0     973.3    NA       0.0000   FZFG     0900  0     0    
2019/03/06  06:21:00  BASE  0        314  1.63464  21   -0.1  100   -0.1  0     0     973.3    NA       0.0000   FZFG     0800  0     0    
2019/03/06  06:22:00  BASE  0        315  1.39356  10   -0.1  100   -0.1  0     0     973.3    NA       0.0000   FZFG     0800  0     0    
2019/03/06  06:23:01  BASE  0        328  1.39356  10   -0.1  100   -0.1  0     0     973.3    NA       0.0000   FZFG     0800  0     0    
2019/03/06  06:24:00  BASE  0        322  1.21128  12   -0.2  100   -0.2  0     0     973.2    NA       0.0000   BR       1100  0     0    
2019/03/06  06:25:00  BASE  0        307  1.0878   7    -0.2  100   -0.2  0     0     973.2    NA       0.0000   BR       1400  0     0    
2019/03/06  06:26:00  BASE  0        297  0.9702   352  -0.1  100   -0.1  0     0     973.2    NA       0.0000   BR       2100  0     0    
2019/03/06  06:27:00  BASE  0        288  0.93492  352  -0.1  100   -0.1  0     0     973.2    NA       0.0000   BR       3000  0     0    
2019/03/06  06:28:00  BASE  0.08232  283  0.81732  344  -0.2  100   -0.2  0     0     973.2    NA       0.0000   BR       3700  0     0    
2019/03/06  06:29:00  BASE  0.31752  274  0.75852  264  -0.2  100   -0.2  0     0     973.2    NA       0.0000   BR       3400  0     0    
2019/03/06  06:30:00  BASE  0.62328  254  1.24068  228  -0.2  100   -0.2  0     0     973.2    NA       0.0000   BR       4900  0     0    
2019/03/06  06:31:00  BASE  1.029    238  1.35828  239  -0.2  100   -0.2  0     0     973.2    NA       0.0000   BR       4300  0     0    
2019/03/06  06:32:00  BASE  1.28772  236  1.35828  241  -0.3  100   -0.3  0     0     973.2    NA       0.0000   BR       2800  0     0    
2019/03/06  06:33:00  BASE  1.21716  241  1.42296  241  -0.4  100   -0.4  0     0     973.2    NA       0.0000   BR       2100  0     0    
2019/03/06  06:34:00  BASE  1.04664  246  1.42296  241  -0.4  100   -0.4  0     0     973.2    NA       0.0000   BR       1900  0     0    
2019/03/06  06:35:00  BASE  1.05252  242  1.42296  241  -0.5  100   -0.5  0     0     973.2    NA       0.0000   BR       2700  0     0    
2019/03/06  06:36:00  BASE  1.21716  235  1.42296  241  -0.6  100   -0.6  0     0     973.2    NA       0.0000   BR       5000  0     0    
2019/03/06  06:37:00  BASE  1.2642   233  1.42296  241  -0.6  100   -0.6  0     0     973.2    NA       0.0000   BR       8000  0     0    
2019/03/06  06:38:00  BASE  1.30536  231  1.51116  227  -0.6  100   -0.6  0     0     973.2    NA       0.0000   BR       9000  0     0    
2019/03/06  06:39:00  BASE  1.50528  230  1.78752  231  -0.6  100   -0.6  0     0     973.2    NA       0.0000   BR       5000  0     0    
2019/03/06  06:40:00  BASE  1.68756  230  1.90512  230  -0.6  100   -0.6  0     0     973.2    NA       0.0000   BR       3500  0     0    
2019/03/06  06:41:00  BASE  1.57584  230  1.90512  230  -0.6  100   -0.6  0     0     973.2    NA       0.0000   BR       2600  0     0    
2019/03/06  06:42:00  BASE  1.4406   233  1.90512  230  -0.6  100   -0.6  0     0     973.2    NA       0.0000   BR       2100  0     0    
2019/03/06  06:43:00  BASE  1.42296  237  1.90512  230  -0.6  100   -0.6  0     0     973.2    NA       0.0000   BR       1800  0     0    
2019/03/06  06:44:00  BASE  1.323    239  1.90512  230  -0.7  100   -0.7  0     0     973.2    NA       0.0000   BR       2300  0     0    
2019/03/06  06:45:00  BASE  1.27596  238  1.90512  230  -0.7  100   -0.7  0     0     973.2    NA       0.0000   BR       2700  0     0    
2019/03/06  06:46:00  BASE  1.32888  235  1.90512  230  -0.7  100   -0.7  0     0     973.2    NA       0.0000   BR       2500  0     0    
2019/03/06  06:47:00  BASE  1.37592  236  1.90512  230  -0.7  100   -0.7  0     0     973.2    NA       0.0000   BR       2300  0     0    
2019/03/06  06:48:00  BASE  1.2936   237  1.90512  230  -0.7  100   -0.7  0     0     973.2    NA       0.0000   BR       2000  0     0    
2019/03/06  06:49:00  BASE  1.28772  239  1.90512  230  -0.7  100   -0.7  0     0     973.2    NA       0.0000   BR       1800  0     0    
2019/03/06  06:50:01  BASE  1.29948  241  1.60524  234  -0.7  100   -0.7  0     0     973.2    NA       0.0000   BR       2300  0     0    
2019/03/06  06:51:01  BASE  1.17012  241  1.60524  234  -0.7  100   -0.7  0     0     973.2    NA       0.0000   BR       2000  0     0    
2019/03/06  06:52:01  BASE  1.12308  236  1.57584  239  -0.6  100   -0.6  0     0     973.2    NA       0.0000   BR       1700  0     0    
2019/03/06  06:53:00  BASE  1.32888  231  1.78752  230  -0.7  100   -0.7  0     0     973.2    NA       0.0000   BR       1900  0     0    
2019/03/06  06:54:00  BASE  1.53468  228  1.78752  230  -0.7  100   -0.7  0     0     973.2    NA       0.0000   BR       2300  0     0    
2019/03/06  06:55:01  BASE  1.59348  226  1.78752  230  -0.7  100   -0.7  0     0     973.3    NA       0.0000   BR       2100  0     0    
2019/03/06  06:56:00  BASE  1.34064  228  1.78752  230  -0.7  100   -0.7  0     0     973.3    NA       0.0000   BR       2000  0     0    
2019/03/06  06:57:00  BASE  0.9996   236  1.78752  230  -0.7  100   -0.7  0     0     973.3    NA       0.0000   BR       1700  0     0    
2019/03/06  06:58:00  BASE  0.86436  238  1.78752  230  -0.7  100   -0.7  0     0     973.3    NA       0.0000   BR       1800  0     0    
2019/03/06  06:59:00  BASE  0.88788  232  1.78752  230  -0.7  100   -0.7  0     0     973.3    NA       0.0000   BR       2000  0     0    
2019/03/06  07:00:00  BASE  1.16424  230  1.78752  230  -0.7  100   -0.7  0     0     973.3    NA       0.0000   BR       1800  0     0    
2019/03/06  07:01:00  BASE  1.41708  228  1.78752  230  -0.7  100   -0.7  0     0     973.3    NA       0.0000   BR       1900  0     0    
2019/03/06  07:02:00  BASE  1.59348  224  1.81692  222  -0.7  100   -0.7  0     0     973.3    NA       0.0000   BR       1800  0     0    
2019/03/06  07:03:01  BASE  1.69344  225  1.81692  228  -0.7  100   -0.7  0     0     973.3    NA       0.0000   BR       2000  0     0    
2019/03/06  07:04:00  BASE  1.57584  227  1.81692  228  -0.7  100   -0.7  0     0     973.3    NA       0.0000   BR       2100  0     0    
2019/03/06  07:05:00  BASE  1.61112  226  1.96392  226  -0.7  100   -0.7  0     0     973.3    NA       0.0000   BR       1900  0     0    
2019/03/06  07:06:00  BASE  1.75812  225  1.96392  226  -0.8  100   -0.8  0     0     973.3    NA       0.0000   BR       1900  0     0    
2019/03/06  07:07:00  BASE  1.80516  227  1.96392  226  -0.8  100   -0.8  0     0     973.3    NA       0.0000   BR       1900  0     0    
2019/03/06  07:08:00  BASE  1.89336  226  2.0874   220  -0.8  100   -0.8  0     0     973.3    NA       0.0000   BR       2000  0     0    
2019/03/06  07:09:00  BASE  1.93452  221  2.0874   220  -0.8  100   -0.8  0     0     973.3    NA       0.0000   BR       1900  0     0    
2019/03/06  07:10:00  BASE  1.74048  217  2.0874   220  -0.8  100   -0.8  0     0     973.3    NA       0.0000   BR       1900  0     0    
2019/03/06  07:11:00  BASE  1.46412  210  2.0874   220  -0.8  100   -0.8  0     0     973.3    NA       0.0000   BR       1800  0     0    
2019/03/06  07:12:00  BASE  1.3524   208  2.0874   220  -0.9  100   -0.9  0     0     973.3    NA       0.0000   BR       1500  0     0    
2019/03/06  07:13:00  BASE  1.2054   207  2.0874   220  -0.9  100   -0.9  0     0     973.3    NA       0.0000   BR       1100  0     0    
2019/03/06  07:14:00  BASE  1.05252  202  2.0874   220  -0.9  100   -0.9  0     0     973.3    NA       0.0000   BR       1000  0     0    
2019/03/06  07:15:01  BASE  1.12308  202  2.0874   220  -0.9  100   -0.9  0     0     973.3    NA       0.0000   BR       0800  0     0    
2019/03/06  07:16:01  BASE  1.0878   207  2.0874   220  -0.9  100   -0.9  0     0     973.3    NA       0.0000   BR       0900  0     0    
2019/03/06  07:17:01  BASE  1.08192  210  2.0874   220  -0.9  100   -0.9  0     0     973.3    NA       0.0000   BR       1000  0     0    
2019/03/06  07:18:00  BASE  1.2348   209  1.96392  216  -0.9  100   -0.9  0     0     973.3    NA       0.0000   BR       1000  0     0    
2019/03/06  07:19:00  BASE  1.3818   206  1.87572  213  -0.9  100   -0.9  0     0     973.3    NA       0.0000   BR       1000  0     0    
2019/03/06  07:20:00  BASE  1.66992  208  2.0286   203  -0.9  100   -0.9  0     0     973.3    NA       0.0000   BR       1100  0     0    
2019/03/06  07:21:00  BASE  1.71108  209  2.0286   203  -0.9  100   -0.9  0     0     973.3    NA       0.0000   BR       1200  0     0    
2019/03/06  07:22:00  BASE  1.42296  208  2.0286   203  -1.0  100   -1.0  0     0     973.3    NA       0.0000   BR       1200  0     0    
2019/03/06  07:23:00  BASE  1.13484  204  2.0286   203  -1.0  100   -1.0  0     0     973.3    NA       0.0000   BR       1300  0     0    
2019/03/06  07:24:00  BASE  1.10544  201  2.0286   203  -0.9  100   -0.9  0     0     973.3    NA       0.0000   BR       1300  0     0    
2019/03/06  07:25:00  BASE  1.17012  198  2.0286   203  -0.9  100   -0.9  0     0     973.3    NA       0.0000   BR       1200  0     0    
2019/03/06  07:26:00  BASE  1.18188  197  2.0286   203  -0.9  100   -0.9  0     0     973.3    NA       0.0000   BR       1200  0     0    
2019/03/06  07:27:00  BASE  1.1172   203  2.0286   203  -0.9  100   -0.9  0     0     973.3    NA       0.0000   BR       1200  0     0    
2019/03/06  07:28:00  BASE  1.05252  210  2.0286   203  -0.9  100   -0.9  0     0     973.3    NA       0.0000   BR       1300  0     0    
2019/03/06  07:29:00  BASE  1.01136  211  2.0286   203  -0.9  100   -0.9  0     0     973.3    NA       0.0000   BR       1200  0     0    
2019/03/06  07:30:00  BASE  1.08192  208  1.81692  211  -0.9  100   -0.9  0     0     973.3    NA       0.0000   BR       1100  0     0    
2019/03/06  07:31:00  BASE  1.11132  210  1.57584  208  -0.9  100   -0.9  0     0     973.4    NA       0.0000   BR       1200  0     0    
2019/03/06  07:32:00  BASE  1.11132  210  1.42296  214  -0.9  100   -0.9  0     0     973.3    NA       0.0000   BR       1400  0     0    
2019/03/06  07:33:00  BASE  1.12896  209  1.42296  214  -0.9  100   -0.9  0     0     973.3    NA       0.0000   BR       1400  0     0    
2019/03/06  07:34:00  BASE  1.00548  213  1.42296  214  -1.0  100   -1.0  0     0     973.3    NA       0.0000   BR       1700  0     0    
2019/03/06  07:35:00  BASE  0.9408   212  1.42296  214  -1.0  100   -1.0  0     0     973.3    NA       0.0000   BR       1800  0     0    
2019/03/06  07:36:00  BASE  0.8232   208  1.42296  214  -1.0  100   -1.0  0     0     973.3    NA       0.0000   BR       1600  0     0    
2019/03/06  07:37:00  BASE  0.5292   209  1.42296  214  -1.0  100   -1.0  0     0     973.3    NA       0.0000   BR       1500  0     0    
2019/03/06  07:38:01  BASE  0.47628  211  1.42296  214  -1.0  100   -1.0  0     0     973.3    NA       0.0000   BR       1400  0     0    
2019/03/06  07:39:01  BASE  0.37044  213  1.42296  214  -0.9  100   -0.9  0     0     973.3    NA       0.0000   BR       1100  0     0    
2019/03/06  07:40:01  BASE  0.05292  218  1.42296  214  -0.9  100   -0.9  0     0     973.4    NA       0.0000   BR       1000  0     0    
2019/03/06  07:41:01  BASE  0        230  1.42296  214  -0.9  100   -0.9  0     0     973.4    NA       0.0000   BR       1100  0     0    
2019/03/06  07:42:00  BASE  0.02352  233  1.1172   220  -0.9  100   -0.9  0     0     973.4    NA       0.0000   BR       1300  0     0    
2019/03/06  07:43:00  BASE  0.02352  231  1.1172   220  -0.9  100   -0.9  0     0     973.4    NA       0.0000   BR       1300  0     0    
2019/03/06  07:44:00  BASE  0        240  1.029    211  -0.9  100   -0.9  0     0     973.4    NA       0.0000   BR       1500  0     0    
2019/03/06  07:45:00  BASE  0        251  0.90552  214  -0.8  100   -0.8  0     0     973.4    NA       0.0000   BR       1600  0     0    
2019/03/06  07:46:00  BASE  0        273  0.90552  214  -0.8  100   -0.8  0     0     973.4    NA       0.0000   BR       1400  0     0    
2019/03/06  07:47:00  BASE  0        291  0.90552  214  -0.9  100   -0.9  0     0     973.4    NA       0.0000   BR       1500  0     0    
2019/03/06  07:48:00  BASE  0        293  0.63504  212  -0.9  100   -0.9  0     0     973.4    NA       0.0000   BR       1700  0     0    
2019/03/06  07:49:00  BASE  0        294  0.60564  230  -0.9  100   -0.9  0     0     973.4    NA       0.0000   BR       1900  0     0    
2019/03/06  07:50:00  BASE  0        305  0.60564  230  -0.9  100   -0.9  0     0     973.4    NA       0.0000   BR       1800  0     0    
2019/03/06  07:51:00  BASE  0        330  0.60564  230  -0.9  100   -0.9  0     0     973.4    NA       0.0000   BR       2200  0     0    
2019/03/06  07:52:01  BASE  0.34104  348  0.75852  349  -0.8  100   -0.8  0     0     973.5    NA       0.0000   BR       2100  0     0    
2019/03/06  07:53:01  BASE  0.51156  353  0.75852  349  -0.8  100   -0.8  0     0     973.5    NA       0.0000   BR       1800  0     0    
2019/03/06  07:54:00  BASE  0.3234   353  0.75852  349  -0.8  100   -0.8  0     0     973.5    NA       0.0000   BR       1700  0     0    
2019/03/06  07:55:00  BASE  0.15876  346  0.75852  349  -0.8  100   -0.8  0     0     973.5    NA       0.0000   BR       1700  0     0    
2019/03/06  07:56:00  BASE  0        344  0.75852  349  -0.8  100   -0.8  0     0     973.5    NA       0.0000   BR       1800  0     0    
2019/03/06  07:57:00  BASE  0        343  0.75852  349  -0.8  100   -0.8  0     0     973.5    NA       0.0000   BR       1600  0     0    
2019/03/06  07:58:00  BASE  0        340  0.75852  349  -0.8  100   -0.8  0     0     973.5    NA       0.0000   BR       1800  0     0    
2019/03/06  07:59:00  BASE  0        341  0.75852  349  -0.8  100   -0.8  0     0     973.5    NA       0.0000   BR       1700  0     0    
2019/03/06  08:00:00  BASE  0.05292  344  0.75852  349  -0.8  100   -0.8  0     0     973.5    NA       0.0000   BR       1600  0     0    
2019/03/06  08:01:00  BASE  0.09996  348  0.75852  349  -0.8  100   -0.8  0     0     973.5    NA       0.0000   BR       1900  0     0    
2019/03/06  08:02:00  BASE  0.15288  354  0.72324  354  -0.8  100   -0.8  0     0     973.5    NA       0.0000   BR       2200  0     0    
2019/03/06  08:03:00  BASE  0.36456  360  0.69384  352  -0.8  100   -0.8  0     0     973.5    NA       0.0000   BR       2300  0     0    
2019/03/06  08:04:00  BASE  0.588    4    0.75852  10   -0.8  100   -0.8  0     0     973.5    NA       0.0000   BR       2000  0     0    
2019/03/06  08:05:00  BASE  0.57624  8    0.75852  10   -0.8  100   -0.8  0     0     973.5    NA       0.0000   BR       2000  0     0    
2019/03/06  08:06:00  BASE  0.32928  9    0.75852  10   -0.8  100   -0.8  0     0     973.5    NA       0.0000   BR       1800  0     0    
2019/03/06  08:07:00  BASE  0.07644  6    0.75852  10   -0.8  100   -0.8  0     0     973.5    NA       0.0000   BR       1700  0     0    
2019/03/06  08:08:00  BASE  0        356  0.75852  10   -0.8  100   -0.8  0     0     973.5    NA       0.0000   BR       1700  0     0    
2019/03/06  08:09:00  BASE  0        330  0.75852  10   -0.8  100   -0.8  0     0     973.5    NA       0.0000   BR       1600  0     0    
2019/03/06  08:10:00  BASE  0        303  0.75852  10   -0.8  100   -0.8  0     0     973.5    NA       0.0000   BR       1400  0     0    
2019/03/06  08:11:00  BASE  0        296  0.75852  10   -0.8  100   -0.8  0     0     973.5    NA       0.0000   BR       1200  0     0    
2019/03/06  08:12:00  BASE  0        300  0.75852  10   -0.8  100   -0.8  0     0     973.5    NA       0.0000   BR       1200  0     0    
2019/03/06  08:13:00  BASE  0        304  0.75852  10   -0.8  100   -0.8  0     0     973.5    NA       0.0000   BR       1100  0     0    
2019/03/06  08:14:00  BASE  0        304  0.72324  9    -0.8  100   -0.8  0     0     973.5    NA       0.0000   BR       1100  0     0    
2019/03/06  08:15:00  BASE  0        304  0.63504  9    -0.8  100   -0.8  0     0     973.5    NA       0.0000   BR       1000  0     0    
2019/03/06  08:16:00  BASE  0        302  0        M    -0.8  100   -0.8  0     0     973.5    NA       0.0000   BR       0900  0     0    
2019/03/06  08:17:00  BASE  0        298  0        M    -0.8  100   -0.8  0     0     973.5    NA       0.0000   BR       0900  0     0    
2019/03/06  08:18:00  BASE  0        302  0        M    -0.8  100   -0.8  0     0     973.5    NA       0.0000   BR       1000  0     0    
2019/03/06  08:19:00  BASE  0        306  0        M    -0.8  100   -0.8  0     0     973.5    NA       0.0000   BR       1000  0     0    
2019/03/06  08:20:00  BASE  0        300  0        M    -0.8  100   -0.8  0     0     973.5    NA       0.0000   BR       1000  0     0    
2019/03/06  08:21:00  BASE  0.25284  299  0.72324  302  -0.8  100   -0.8  0     0     973.5    NA       0.0000   BR       1100  0     0    
2019/03/06  08:22:01  BASE  0.44688  303  0.72324  302  -0.8  100   -0.8  0     0     973.5    NA       0.0000   BR       1100  0     0    
2019/03/06  08:23:01  BASE  0.21756  308  0.72324  302  -0.8  100   -0.8  0     0     973.5    NA       0.0000   BR       1100  0     0    
2019/03/06  08:24:01  BASE  0.19404  313  0.72324  308  -0.8  100   -0.8  0     0     973.5    NA       0.0000   BR       1200  0     0    
2019/03/06  08:25:01  BASE  0.43512  317  1.0878   321  -0.7  100   -0.7  0     0     973.5    NA       0.0000   BR       1300  0     0    
2019/03/06  08:26:00  BASE  0.68208  322  1.0878   321  -0.7  100   -0.7  0     0     973.5    NA       0.0000   BR       1200  0     0    
2019/03/06  08:27:00  BASE  0.9702   322  1.42296  317  -0.7  100   -0.7  0     0     973.5    NA       0.0000   BR       1100  0     0    
2019/03/06  08:28:00  BASE  1.16424  314  1.42296  317  -0.7  100   -0.7  0     0     973.5    NA       0.0000   BR       1100  0     0    
2019/03/06  08:29:00  BASE  1.39356  312  2.1168   312  -0.7  100   -0.7  0     0     973.5    NA       0.0000   BR       1100  0     0    
2019/03/06  08:30:00  BASE  1.51704  311  2.1168   312  -0.7  100   -0.7  0     0     973.5    NA       0.0000   BR       1100  0     0    
2019/03/06  08:31:00  BASE  1.53468  313  2.1168   312  -0.7  100   -0.7  0     0     973.5    NA       0.0000   BR       1100  0     0    
2019/03/06  08:32:00  BASE  1.65228  313  2.1168   312  -0.7  100   -0.7  0     0     973.5    NA       0.0000   BR       1200  0     0    
2019/03/06  08:33:00  BASE  1.81104  308  2.1462   306  -0.6  100   -0.6  0     0     973.5    NA       0.0000   BR       1100  0     0    
2019/03/06  08:34:00  BASE  1.89924  308  2.1462   306  -0.6  100   -0.6  0     0     973.5    NA       0.0000   BR       1100  0     0    
2019/03/06  08:35:00  BASE  1.8816   307  2.1462   306  -0.6  100   -0.6  0     0     973.5    NA       0.0000   BR       1000  0     0    
2019/03/06  08:36:00  BASE  1.7934   308  2.1462   306  -0.6  100   -0.6  0     0     973.5    NA       0.0000   BR       1000  0     0    
2019/03/06  08:37:00  BASE  1.7346   313  2.1462   306  -0.5  100   -0.5  0     0     973.5    NA       0.0000   BR       1000  0     0    
2019/03/06  08:38:00  BASE  1.7934   314  2.1462   306  -0.5  100   -0.5  0     0     973.5    NA       0.0000   BR       1000  0     0    
2019/03/06  08:39:00  BASE  1.84632  313  2.1462   306  -0.5  100   -0.5  0     0     973.5    NA       0.0000   BR       1000  0     0    
2019/03/06  08:40:00  BASE  1.88748  313  2.1462   306  -0.5  100   -0.5  0     0     973.5    NA       0.0000   BR       1000  0     0    
2019/03/06  08:41:00  BASE  1.96392  314  2.1756   314  -0.5  100   -0.5  0     0     973.5    NA       0.0000   BR       1000  0     0    
2019/03/06  08:42:00  BASE  1.98156  315  2.48136  319  -0.4  100   -0.4  0     0     973.5    NA       0.0000   BR       1000  0     0    
2019/03/06  08:43:00  BASE  2.01684  316  2.48136  319  -0.4  100   -0.4  0     0     973.5    NA       0.0000   BR       1000  0     0    
2019/03/06  08:44:00  BASE  2.12856  319  2.48136  319  -0.4  100   -0.4  0     0     973.5    NA       0.0000   BR       1000  0     0    
2019/03/06  08:45:00  BASE  2.21088  325  2.48136  319  -0.4  100   -0.4  0     0     973.5    NA       0.0000   BR       1000  490   0    
2019/03/06  08:46:00  BASE  2.10504  327  2.48136  319  -0.4  100   -0.4  0     0     973.5    NA       0.0000   BR       1000  720   5770 
2019/03/06  08:47:00  BASE  1.97568  324  2.48136  319  -0.3  100   -0.3  0     0     973.5    NA       0.0000   BR       1000  560   0    
2019/03/06  08:48:00  BASE  2.15796  323  2.48136  319  -0.3  100   -0.3  0     0     973.5    NA       0.0000   BR       1000  560   5770 
2019/03/06  08:49:00  BASE  2.33436  321  2.48136  320  -0.3  100   -0.3  0     0     973.5    NA       0.0000   BR       1000  490   5740 
2019/03/06  08:50:00  BASE  2.36376  319  2.54016  317  -0.3  100   -0.3  0     0     973.5    NA       0.0000   BR       1200  520   0    
2019/03/06  08:51:00  BASE  2.39316  316  2.54016  314  -0.2  100   -0.2  0     0     973.5    NA       0.0000   BR       1600  520   5770 
2019/03/06  08:52:00  BASE  2.40492  315  2.63424  315  -0.2  100   -0.2  0     0     973.5    NA       0.0000   BR       1700  660   0    
2019/03/06  08:53:00  BASE  2.35788  312  2.63424  315  -0.2  100   -0.2  0     0     973.5    NA       0.0000   BR       2400  660   3450 
2019/03/06  08:54:00  BASE  2.36376  309  2.63424  306  -0.2  100   -0.2  0     0     973.5    NA       0.0000   BR       4200  620   3410 
2019/03/06  08:55:00  BASE  2.36964  309  2.63424  306  -0.2  100   -0.2  0     0     973.5    NA       0.0000   BR       8000  590   6000 
2019/03/06  08:56:00  BASE  2.26968  307  2.63424  306  -0.1  100   -0.1  0     0     973.5    NA       0.0000   BR       9999  560   6070 
2019/03/06  08:57:00  BASE  2.22264  305  2.63424  306  -0.1  100   -0.1  0     0     973.5    NA       0.0000   BR       9999  690   6100 
2019/03/06  08:58:00  BASE  2.16384  303  2.63424  306  -0.1  100   -0.1  0     0     973.5    NA       0.0000   BR       9999  660   6170 
2019/03/06  08:59:00  BASE  2.14032  299  2.63424  306  -0.1  100   -0.1  0     0     973.5    NA       0.0000   BR       9999  560   6100 
2019/03/06  09:00:00  BASE  2.14032  297  2.63424  306  -0.1  100   -0.1  0     0     973.5    NA       0.0000   BR       5000  430   6100 
2019/03/06  09:01:00  BASE  2.11092  298  2.63424  306  -0.1  100   -0.1  0     0     973.5    NA       0.0000   BR       3300  520   6140 
2019/03/06  09:02:00  BASE  2.13444  298  2.63424  306  -0.2  100   -0.2  0     0     973.5    NA       0.0000   BR       2600  720   1640 
2019/03/06  09:03:00  BASE  2.16384  299  2.63424  306  -0.2  100   -0.2  0     0     973.5    NA       0.0000   BR       2000  520   6170 
2019/03/06  09:04:00  BASE  2.1756   302  2.56956  312  -0.2  100   -0.2  0     0     973.5    NA       0.0000   BR       1800  520   0    
2019/03/06  09:05:00  BASE  2.11092  301  2.51076  306  -0.2  100   -0.2  0     0     973.5    NA       0.0000   BR       2500  560   0    
2019/03/06  09:06:00  BASE  2.06976  300  2.51076  306  -0.2  100   -0.2  0     0     973.5    NA       0.0000   BR       4600  590   6070 
2019/03/06  09:07:00  BASE  2.24616  299  2.45196  302  -0.2  100   -0.2  0     0     973.5    NA       0.0000   BR       2700  560   0    
2019/03/06  09:08:00  BASE  2.36376  299  2.48136  299  -0.2  100   -0.2  0     0     973.5    NA       0.0000   BR       1800  520   0    
2019/03/06  09:09:00  BASE  2.46372  297  2.72244  291  -0.2  100   -0.2  0     0     973.5    NA       0.0000   UP       BR    1500  620  
2019/03/06  09:10:00  BASE  2.64012  295  2.75184  296  -0.2  100   -0.2  0     0     973.5    NA       0.0000   UP       BR    1400  620  
2019/03/06  09:11:00  BASE  2.69304  296  2.87532  298  -0.2  100   -0.2  1     0     973.5    NA       0.0000   UP       BR    1700  590  
2019/03/06  09:12:00  BASE  2.66952  295  2.87532  298  -0.2  100   -0.2  1     0     973.5    NA       0.0000   UP       BR    2400  560  
2019/03/06  09:13:00  BASE  2.74008  294  3.02232  295  -0.2  100   -0.2  1     0     973.5    NA       0.0000   UP       BR    3200  490  
2019/03/06  09:14:00  BASE  2.8812   294  3.02232  292  -0.2  100   -0.2  1     0     973.5    NA       0.0000   UP       BR    4100  520  
2019/03/06  09:15:00  BASE  2.9106   293  3.02232  292  -0.2  100   -0.2  1     0     973.6    NA       0.0000   UP       BR    6000  520  
2019/03/06  09:16:00  BASE  2.78124  291  3.02232  292  -0.2  100   -0.2  1     0     973.6    NA       0.0000   UP       BR    9000  590  
2019/03/06  09:17:00  BASE  2.54604  288  3.02232  292  -0.2  100   -0.2  1     0     973.6    NA       0.0000   UP       BR    9999  560  
2019/03/06  09:18:00  BASE  2.36376  288  3.02232  292  -0.2  100   -0.2  1     0     973.6    NA       0.0000   UP       BR    9999  490  
2019/03/06  09:19:00  BASE  2.27556  288  3.02232  292  -0.2  100   -0.2  1     0     973.6    NA       0.0000   UP       BR    9000  490  
2019/03/06  09:20:00  BASE  2.11092  285  3.02232  292  -0.2  100   -0.2  1     0     973.7    NA       0.0000   UP       BR    9000  330  
2019/03/06  09:21:00  BASE  1.84044  282  3.02232  292  -0.2  100   -0.2  1     0     973.7    NA       0.0000   UP       BR    9999  390  
2019/03/06  09:22:00  BASE  1.54644  282  3.02232  292  -0.2  100   -0.2  1     0     973.7    NA       0.0000   UP       BR    6000  390  
2019/03/06  09:23:00  BASE  1.30536  281  3.02232  292  -0.1  100   -0.1  1     0     973.7    NA       0.0000   UP       BR    6000  360  
2019/03/06  09:24:00  BASE  1.25832  276  2.96352  294  -0.1  100   -0.1  1     0     973.7    NA       0.0000   UP       BR    6000  430  
2019/03/06  09:25:00  BASE  1.37004  279  2.81064  291  -0.1  100   -0.1  1     0     973.7    NA       0.0000   UP       BR    8000  460  
2019/03/06  09:26:00  BASE  1.21716  284  2.51076  288  -0.1  100   -0.1  1     0     973.7    NA       0.0000   UP       BR    9000  490  
2019/03/06  09:27:00  BASE  1.19364  287  2.48136  285  -0.1  100   -0.1  1     0     973.7    NA       0.0000   UP       BR    8000  590  
2019/03/06  09:28:00  BASE  1.48764  291  2.48136  285  -0.1  100   -0.1  1     0     973.7    NA       0.0000   UP       BR    8000  460  
2019/03/06  09:29:00  BASE  1.58172  292  2.21088  283  -0.1  100   -0.1  1     0     973.7    NA       0.0000   UP       BR    8000  430  
2019/03/06  09:30:00  BASE  1.69932  292  1.93452  293  -0.1  100   -0.1  1     0     973.7    NA       0.0000   UP       BR    8000  430  
2019/03/06  09:31:00  BASE  1.8522   292  2.0874   295  -0.1  100   -0.1  1     0     973.7    NA       0.0000   UP       BR    5000  360  
2019/03/06  09:32:00  BASE  1.8522   293  2.0874   295  -0.1  100   -0.1  1     0     973.7    NA       0.0000   UP       BR    6000  330  
2019/03/06  09:33:00  BASE  1.83456  294  2.0874   295  -0.1  100   -0.1  1     0     973.7    NA       0.0000   UP       BR    6000  330  
2019/03/06  09:34:00  BASE  1.8816   297  2.0874   295  -0.1  100   -0.1  2     0     973.7    NA       0.0000   UP       BR    8000  230  
2019/03/06  09:35:00  BASE  1.84632  300  2.0874   295  -0.1  100   -0.1  2     0     973.7    NA       0.0000   UP       BR    9000  230  
2019/03/06  09:36:00  BASE  1.69932  304  2.0874   295  -0.1  100   -0.1  2     0     973.7    NA       0.0000   UP       BR    9000  200  
2019/03/06  09:37:00  BASE  1.44648  316  2.0874   295  -0.1  100   -0.1  2     0     973.7    NA       0.0000   UP       BR    9999  200  
2019/03/06  09:38:00  BASE  1.38768  332  2.0874   295  -0.1  100   -0.1  2     0     973.7    NA       0.0000   UP       BR    9999  200  
2019/03/06  09:39:00  BASE  1.51704  342  2.0874   295  -0.1  100   -0.1  2     0     973.7    NA       0.0000   UP       BR    9999  200  
2019/03/06  09:40:00  BASE  1.61112  344  2.0874   295  -0.1  100   -0.1  2     0     973.7    NA       0.0000   UP       BR    9999  160  
2019/03/06  09:41:00  BASE  1.59348  340  2.0286   301  -0.1  100   -0.1  2     0     973.7    NA       0.0000   UP       BR    9999  160  
2019/03/06  09:42:00  BASE  1.54644  332  2.0286   301  -0.2  100   -0.2  2     0     973.7    NA       0.0000   UP       BR    9000  200  
2019/03/06  09:43:00  BASE  1.58172  325  2.0286   301  -0.2  100   -0.2  2     0     973.7    NA       0.0000   UP       BR    8000  200  
2019/03/06  09:44:00  BASE  1.65228  325  1.90512  300  -0.2  100   -0.2  2     0     973.7    NA       0.0000   UP       BR    8000  200  
2019/03/06  09:45:00  BASE  1.53468  324  1.90512  300  -0.2  100   -0.2  2     0     973.8    NA       0.0000   UP       BR    8000  200  
2019/03/06  09:46:00  BASE  1.617    317  2.21088  309  -0.2  100   -0.2  2     0     973.9    NA       0.0000   UP       BR    8000  160  
2019/03/06  09:47:00  BASE  2.0286   309  2.48136  307  -0.2  100   -0.2  2     0     973.9    NA       0.0000   UP       BR    8000  0    
2019/03/06  09:48:00  BASE  2.24028  307  2.69304  304  -0.1  100   -0.1  2     0     973.9    NA       0.0000   UP       BR    8000  200  
2019/03/06  09:49:00  BASE  2.44608  306  2.69304  304  -0.1  100   -0.1  2     0     973.9    NA       0.0000   UP       BR    8000  330  
2019/03/06  09:50:00  BASE  2.68128  309  2.87532  314  -0.1  100   -0.1  2     0     973.9    NA       0.0000   UP       BR    8000  230  
2019/03/06  09:51:00  BASE  2.74008  312  2.87532  313  -0.1  100   -0.1  2     0     973.9    NA       0.0000   UP       BR    8000  160  
2019/03/06  09:52:00  BASE  2.69304  312  2.87532  313  -0.1  100   -0.1  2     0     973.9    NA       0.0000   UP       BR    8000  0    
2019/03/06  09:53:00  BASE  2.56368  312  2.87532  313  -0.1  100   -0.1  3     0     973.9    NA       0.0000   UP       BR    9999  200  
2019/03/06  09:54:00  BASE  2.37552  311  2.87532  313  -0.1  100   -0.1  3     0     973.9    NA       0.0000   UP       BR    5000  230  
2019/03/06  09:55:00  BASE  2.33436  312  2.87532  313  -0.1  100   -0.1  3     0     973.9    NA       0.0000   UP       BR    8000  560  
2019/03/06  09:56:00  BASE  2.42256  316  2.87532  313  -0.1  100   -0.1  3     0     973.9    NA       0.0000   UP       BR    9999  490  
2019/03/06  09:57:00  BASE  2.2932   323  2.87532  313  -0.0  100   -0.0  3     0     973.9    NA       0.0000   UP       BR    9999  460  
2019/03/06  09:58:00  BASE  2.31084  330  2.87532  313  -0.0  100   -0.0  3     0     973.9    NA       0.0000   UP       BR    9999  200  
2019/03/06  09:59:00  BASE  2.54016  331  2.87532  313  -0.0  100   -0.0  3     0     973.9    NA       0.0000   UP       BR    9999  200  
2019/03/06  10:00:00  BASE  2.48724  328  2.87532  313  -0.1  100   -0.1  3     0     973.9    NA       0.0000   UP       BR    9999  200  
2019/03/06  10:01:00  BASE  2.42256  325  2.81064  313  -0.1  100   -0.1  4     0     973.9    NA       0.0000   UP       BR    9999  200  
2019/03/06  10:02:00  BASE  2.54016  325  2.75184  326  -0.1  100   -0.1  4     0     973.9    NA       0.0000   UP       BR    9999  360  
2019/03/06  10:03:00  BASE  2.66952  326  2.75184  326  -0.1  100   -0.1  4     0     973.9    NA       0.0000   UP       BR    9999  230  
2019/03/06  10:04:00  BASE  2.64012  331  2.75184  326  -0.1  100   -0.1  4     0     973.9    NA       0.0000   UP       9999  200   980  
2019/03/06  10:05:00  BASE  2.65188  337  2.81064  346  -0.1  100   -0.1  4     0     973.9    NA       0.0000   UP       9999  160   0    
2019/03/06  10:06:00  BASE  2.65776  342  2.81064  346  -0.1  100   -0.1  5     0     973.9    NA       0.0000   UP       9999  160   1020 
2019/03/06  10:07:00  BASE  2.4696   345  2.81064  346  -0.1  100   -0.1  5     0     973.9    NA       0.0000   UP       9999  160   1080 
2019/03/06  10:08:00  BASE  2.2638   347  2.81064  346  -0.1  100   -0.1  5     0     973.9    NA       0.0000   UP       9999  160   0    
2019/03/06  10:09:00  BASE  2.32848  348  2.81064  346  -0.1  100   -0.1  5     0     973.9    NA       0.0000   UP       9999  160   0    
2019/03/06  10:10:00  BASE  2.50488  350  2.81064  346  -0.2  100   -0.2  5     0     973.9    NA       0.0000   UP       9999  160   0    
2019/03/06  10:11:00  BASE  2.52252  351  2.81064  346  -0.2  100   -0.2  5     0     973.9    NA       0.0000   UP       9999  200   0    
2019/03/06  10:12:00  BASE  2.58132  349  2.81064  346  -0.2  100   -0.2  5     0     973.9    NA       0.0000   UP       9999  200   0    
2019/03/06  10:13:00  BASE  2.6754   347  2.81064  347  -0.2  100   -0.2  6     0     973.9    NA       0.0000   UP       9999  200   0    
2019/03/06  10:14:00  BASE  2.65776  348  2.81064  347  -0.2  100   -0.2  6     0     973.9    NA       0.0000   UP       9999  160   1080 
2019/03/06  10:15:00  BASE  2.54604  350  2.81064  347  -0.2  100   -0.2  6     0     973.9    NA       0.0000   UP       9999  160   0    
2019/03/06  10:16:00  BASE  2.51076  352  2.81064  347  -0.2  100   -0.2  7     0     973.9    NA       0.0000   UP       9999  200   1150 
2019/03/06  10:17:00  BASE  2.6166   351  2.81064  347  -0.2  100   -0.2  7     0     973.9    NA       0.0000   UP       9999  200   1080 
2019/03/06  10:18:00  BASE  2.69304  348  2.84592  349  -0.2  100   -0.2  7     0     973.9    NA       0.0000   UP       9999  200   1050 
2019/03/06  10:19:00  BASE  2.76948  348  2.99292  349  -0.1  100   -0.1  7     0     973.9    NA       0.0000   UP       9999  200   1020 
2019/03/06  10:20:00  BASE  2.84004  348  2.99292  344  -0.1  100   -0.1  7     0     973.9    NA       0.0000   UP       9999  200   1050 
2019/03/06  10:21:00  BASE  2.85768  348  2.99292  343  -0.1  100   -0.1  8     0     973.9    NA       0.0000   UP       9999  230   980  
2019/03/06  10:22:00  BASE  2.79888  346  2.99292  343  -0.1  100   -0.1  8     0     973.9    NA       0.0000   UP       9999  200   980  
2019/03/06  10:23:01  BASE  2.7048   346  2.99292  343  -0.1  100   -0.1  8     0     973.9    NA       0.0000   UP       9999  230   1020 
2019/03/06  10:24:00  BASE  2.63424  347  2.99292  343  -0.1  100   -0.1  8     0     973.9    NA       0.0000   UP       9999  230   950  
2019/03/06  10:25:00  BASE  2.47548  346  2.99292  343  -0.0  100   -0.0  8     0     973.9    NA       0.0000   UP       9999  230   950  
2019/03/06  10:26:00  BASE  2.52252  346  2.99292  343  -0.0  100   -0.0  8     0     973.9    NA       0.0000   UP       9999  230   1020 
2019/03/06  10:27:00  BASE  2.646    342  2.99292  343  -0.0  100   -0.0  8     0     973.9    NA       0.0000   UP       9999  230   1020 
2019/03/06  10:28:00  BASE  2.60484  340  2.99292  343  -0.0  100   -0.0  8     0     973.9    NA       0.0000   UP       9999  230   980  
2019/03/06  10:29:00  BASE  2.4696   339  2.99292  343  -0.0  100   -0.0  9     0     973.9    NA       0.0000   UP       9999  230   950  
2019/03/06  10:30:00  BASE  2.3814   338  2.99292  343  0.0   100   0.0   9     0     973.9    NA       0.0000   UP       9999  260   980  
2019/03/06  10:31:00  BASE  2.352    339  2.84592  343  0.0   100   0.0   10    0     973.9    NA       0.0000   UP       9999  980   0    
2019/03/06  10:32:00  BASE  2.27556  338  2.84592  343  0.0   100   0.0   10    0     973.9    NA       0.0000   UP       9999  300   1020 
2019/03/06  10:33:00  BASE  2.31084  339  2.84592  343  0.0   100   0.0   10    0     973.9    NA       0.0000   UP       9000  1020  0    
2019/03/06  10:34:00  BASE  2.31084  339  2.84592  343  0.1   100   0.1   10    0     973.9    NA       0.0000   UP       9999  1020  0    
2019/03/06  10:35:00  BASE  2.19324  337  2.84592  343  0.1   100   0.1   10    0     973.9    NA       0.0000   UP       9999  300   0    
2019/03/06  10:36:00  BASE  2.28144  337  2.75184  333  0.1   100   0.1   11    0     973.9    NA       0.0000   UP       9999  360   0    
2019/03/06  10:37:00  BASE  2.2638   336  2.69304  338  0.1   100   0.1   11    0     973.9    NA       0.0000   UP       9999  260   1180 
2019/03/06  10:38:00  BASE  2.12856  334  2.66364  341  0.1   100   0.1   11    0     973.9    NA       0.0000   UP       8000  330   0    
2019/03/06  10:39:00  BASE  2.15208  332  2.66364  341  0.1   100   0.1   11    0     973.9    NA       0.0000   UP       BR    7000  360  
2019/03/06  10:40:00  BASE  1.9992   334  2.59896  340  0.1   100   0.1   11    0     974.0    NA       0.0000   UP       BR    7000  300  
2019/03/06  10:41:00  BASE  1.86396  335  2.59896  340  0.1   100   0.1   12    0     974.0    NA       0.0000   UP       BR    7000  330  
2019/03/06  10:42:00  BASE  1.78752  335  2.59896  340  0.1   100   0.1   12    0     974.0    NA       0.0000   UP       BR    7000  330  
2019/03/06  10:43:00  BASE  1.66992  335  2.59896  340  0.1   100   0.1   12    0     974.0    NA       0.0000   UP       BR    7000  330  
2019/03/06  10:44:00  BASE  1.69344  334  2.59896  340  0.1   100   0.1   12    0     974.0    NA       0.0000   UP       BR    6000  330  
2019/03/06  10:45:00  BASE  1.75812  331  2.59896  340  0.1   100   0.1   12    0     974.0    NA       0.0000   UP       BR    7000  330  
2019/03/06  10:46:00  BASE  1.74636  331  2.38728  336  0.1   100   0.1   11    0     974.0    NA       0.0000   UP       BR    8000  300  
2019/03/06  10:47:00  BASE  1.75812  332  2.32848  331  0.1   100   0.1   11    0     974.0    NA       0.0000   UP       BR    9000  260  
2019/03/06  10:48:00  BASE  1.76988  330  2.24028  333  0.2   100   0.2   10    0     974.0    NA       0.0000   UP       BR    9000  330  
2019/03/06  10:49:00  BASE  1.7934   331  2.058    330  0.2   100   0.2   10    0     974.0    NA       0.0000   UP       BR    9000  330  
2019/03/06  10:50:00  BASE  1.8228   333  2.0286   332  0.2   100   0.2   10    0     974.0    NA       0.0000   UP       BR    8000  330  
2019/03/06  10:51:00  BASE  1.86984  333  2.0286   332  0.2   100   0.2   10    0     974.0    NA       0.0000   UP       BR    8000  300  
2019/03/06  10:52:00  BASE  1.95216  330  2.0874   326  0.2   100   0.2   10    0     974.0    NA       0.0000   UP       BR    8000  300  
2019/03/06  10:53:00  BASE  1.95804  324  2.1168   321  0.2   100   0.2   10    0     974.0    NA       0.0000   UP       BR    2900  300  
2019/03/06  10:54:00  BASE  1.78752  322  2.1168   321  0.2   100   0.2   10    0     974.0    NA       0.0000   UP       BR    2400  300  
2019/03/06  10:55:00  BASE  1.69344  323  2.1168   321  0.2   100   0.2   10    0     974.0    NA       0.0000   UP       BR    2400  360  
2019/03/06  10:56:00  BASE  1.65228  322  2.1168   321  0.2   100   0.2   10    0     974.0    NA       0.0000   UP       BR    5000  300  
2019/03/06  10:57:00  BASE  1.54056  322  2.1168   321  0.1   100   0.1   10    0     974.0    NA       0.0000   UP       BR    9999  360  
2019/03/06  10:58:00  BASE  1.51704  321  2.1168   321  0.1   100   0.1   10    0     974.0    NA       0.0000   UP       BR    9999  360  
2019/03/06  10:59:00  BASE  1.55232  318  2.1168   321  0.1   100   0.1   10    0     974.1    NA       0.0000   UP       BR    8000  360  
2019/03/06  11:00:00  BASE  1.5288   315  2.1168   321  0.1   100   0.1   10    0     974.1    NA       0.0000   UP       BR    8000  360  
2019/03/06  11:01:00  BASE  1.48176  315  2.1168   321  0.1   100   0.1   10    0     974.1    NA       0.0000   UP       BR    8000  360  
2019/03/06  11:02:00  BASE  1.47     315  2.1168   321  0.1   100   0.1   10    0     974.1    NA       0.0000   UP       BR    7000  390  
2019/03/06  11:03:00  BASE  1.42884  315  1.87572  320  0.1   100   0.1   10    0     974.1    NA       0.0000   UP       BR    7000  360  
2019/03/06  11:04:00  BASE  1.41708  315  1.87572  320  0.1   100   0.1   10    0     974.1    NA       0.0000   UP       BR    8000  360  
2019/03/06  11:05:00  BASE  1.40532  314  1.69344  324  0.1   100   0.1   10    0     974.1    NA       0.0000   UP       BR    8000  360  
2019/03/06  11:06:00  BASE  1.39356  312  1.66404  323  0.1   100   0.1   10    0     974.1    NA       0.0000   UP       BR    8000  360  
2019/03/06  11:07:00  BASE  1.38768  312  1.66404  323  0.1   100   0.1   10    0     974.1    NA       0.0000   UP       BR    6000  360  
2019/03/06  11:08:00  BASE  1.35828  310  1.63464  314  0.1   100   0.1   11    0     974.1    NA       0.0000   UP       BR    4800  360  
2019/03/06  11:09:00  BASE  1.33476  308  1.60524  315  0.1   100   0.1   11    0     974.1    NA       0.0000   UP       BR    5000  390  
2019/03/06  11:10:00  BASE  1.31712  307  1.60524  315  0.1   100   0.1   11    0     974.1    NA       0.0000   UP       BR    5000  390  
2019/03/06  11:11:00  BASE  1.29948  305  1.54056  316  0.1   100   0.1   11    0     974.1    NA       0.0000   UP       BR    7000  390  
2019/03/06  11:12:00  BASE  1.32888  303  1.54056  316  0.1   100   0.1   11    0     974.1    NA       0.0000   UP       BR    8000  2030 
2019/03/06  11:13:00  BASE  1.37004  302  1.54056  316  0.1   100   0.1   11    0     974.1    NA       0.0000   UP       BR    5000  2030 
2019/03/06  11:14:00  BASE  1.40532  301  1.51116  302  0.1   100   0.1   11    0     974.1    NA       0.0000   UP       BR    5000  1870 
2019/03/06  11:15:00  BASE  1.40532  302  1.51116  302  0.1   100   0.1   11    0     974.1    NA       0.0000   UP       BR    5000  260  
2019/03/06  11:16:00  BASE  1.33476  304  1.51116  302  0.1   100   0.1   11    0     974.1    NA       0.0000   UP       BR    5000  260  
2019/03/06  11:17:00  BASE  1.2936   306  1.51116  302  0.1   100   0.1   11    0     974.1    NA       0.0000   UP       BR    5000  1940 
2019/03/06  11:18:00  BASE  1.24068  307  1.51116  302  0.1   100   0.1   11    0     974.1    NA       0.0000   UP       BR    5000  230  
2019/03/06  11:19:00  BASE  1.19952  308  1.51116  302  0.1   100   0.1   12    0     974.1    NA       0.0000   UP       BR    5000  1610 
2019/03/06  11:20:00  BASE  1.16424  309  1.51116  302  0.1   100   0.1   12    0     974.1    NA       0.0000   UP       BR    8000  2000 
2019/03/06  11:21:00  BASE  1.1172   309  1.51116  302  0.1   100   0.1   12    0     974.1    NA       0.0000   UP       BR    9999  2030 
2019/03/06  11:22:00  BASE  1.0878   309  1.51116  302  0.1   100   0.1   13    0     974.1    NA       0.0000   UP       BR    8000  2000 
2019/03/06  11:23:00  BASE  1.0584   311  1.51116  302  0.1   100   0.1   13    0     974.1    NA       0.0000   UP       BR    7000  2030 
2019/03/06  11:24:00  BASE  1.04076  314  1.42296  301  0.1   100   0.1   13    0     974.1    NA       0.0000   UP       BR    6000  200  
2019/03/06  11:25:00  BASE  1.06428  314  1.39356  306  0.1   100   0.1   14    0     974.1    NA       0.0000   UP       BR    7000  200  
2019/03/06  11:26:00  BASE  1.07016  311  1.29948  306  0.1   100   0.1   14    0     974.1    NA       0.0000   UP       BR    9000  200  
2019/03/06  11:27:00  BASE  1.04076  309  1.24068  308  0.1   100   0.1   14    0     974.1    NA       0.0000   UP       BR    7000  160  
2019/03/06  11:28:00  BASE  0.94668  307  1.24068  308  0.1   100   0.1   15    0     974.1    NA       0.0000   UP       BR    8000  160  
2019/03/06  11:29:00  BASE  0.82908  308  1.18188  312  0.1   100   0.1   15    0     974.1    NA       0.0000   UP       BR    4100  160  
2019/03/06  11:30:00  BASE  0.69972  311  1.18188  312  0.1   100   0.1   16    0     974.1    NA       0.0000   -SN      BR    3600  160  
2019/03/06  11:31:00  BASE  0.45276  306  1.18188  312  0.1   100   0.1   16    0     974.1    NA       0.0000   -SN      BR    4300  160  
2019/03/06  11:32:00  BASE  0.36456  301  1.18188  312  0.1   100   0.1   17    0     974.1    NA       0.0000   -SN      BR    4600  0    
2019/03/06  11:33:00  BASE  0.2646   303  1.18188  312  0.2   100   0.2   17    0     974.1    NA       0.0000   -SN      BR    4800  160  
2019/03/06  11:34:00  BASE  0.22932  299  1.18188  312  0.2   100   0.2   18    0     974.2    NA       0.0000   -SN      BR    5000  0    
2019/03/06  11:35:00  BASE  0.4704   296  1.18188  312  0.2   100   0.2   18    0     974.2    NA       0.0000   -SN      BR    5000  160  
2019/03/06  11:36:00  BASE  0.48216  295  1.0878   304  0.2   100   0.2   19    0     974.2    NA       0.0000   -SN      BR    3600  0    
2019/03/06  11:37:00  BASE  0.27636  292  1.0878   304  0.2   100   0.2   18    0     974.2    NA       0.0000   -SN      BR    4200  0    
2019/03/06  11:38:00  BASE  0.147    282  0.9702   295  0.2   100   0.2   19    0     974.2    NA       0.0000   -SN      BR    6000  0    
2019/03/06  11:39:00  BASE  0.16464  273  0.9702   295  0.2   100   0.2   18    0     974.2    NA       0.0000   -SN      BR    9000  0    
2019/03/06  11:40:00  BASE  0.13524  285  0.9702   295  0.2   100   0.2   17    0     974.2    NA       0.0000   -SN      BR    9999  0    
2019/03/06  11:41:00  BASE  0.0294   285  0.9702   295  0.2   100   0.2   17    0     974.2    NA       0.0000   -SN      BR    9999  0    
2019/03/06  11:42:00  BASE  0.0882   283  0.9702   295  0.2   100   0.2   17    0     974.2    NA       0.0000   -SN      BR    9999  0    
2019/03/06  11:43:00  BASE  0.24108  279  0.9702   295  0.2   100   0.2   17    0     974.2    NA       0.0000   -SN      BR    9999  0    
2019/03/06  11:44:00  BASE  0.19992  267  0.9702   295  0.2   100   0.2   18    0     974.2    NA       0.0000   -SN      BR    9999  0    
2019/03/06  11:45:00  BASE  0.05292  260  0.87612  287  0.2   100   0.2   19    0     974.2    NA       0.0000   -SN      BR    9999  0    
2019/03/06  11:46:00  BASE  0        273  0.78792  267  0.2   100   0.2   19    0     974.2    NA       0.0000   -SN      BR    9999  160  
2019/03/06  11:47:00  BASE  0.24108  291  1.029    296  0.2   100   0.2   19    0     974.2    NA       0.0000   -SN      BR    9999  160  
2019/03/06  11:48:00  BASE  0.93492  290  1.54056  290  0.3   100   0.3   18    0     974.2    NA       0.0000   -SN      9999  160   0    
2019/03/06  11:49:00  BASE  1.09956  291  1.69344  310  0.3   100   0.3   19    0     974.2    NA       0.0000   -SN      9999  160   0    
2019/03/06  11:50:00  BASE  0.67032  302  1.69344  310  0.4   100   0.4   19    0     974.2    NA       0.0000   -SN      9999  160   0    
2019/03/06  11:51:00  BASE  0.65856  297  1.69344  310  0.4   100   0.4   19    0     974.2    NA       0.0000   -SN      9999  160   0    
2019/03/06  11:52:00  BASE  1.03488  288  1.87572  287  0.4   100   0.4   19    0     974.2    NA       0.0000   -SN      9999  160   0    
2019/03/06  11:53:00  BASE  1.24656  292  1.87572  278  0.4   100   0.4   18    0     974.2    NA       0.0000   -SN      9999  160   0    
2019/03/06  11:54:00  BASE  0.88788  295  1.87572  278  0.4   100   0.4   18    0     974.2    NA       0.0000   -SN      9999  160   0    
2019/03/06  11:55:00  BASE  0.31164  306  1.87572  278  0.4   100   0.4   18    0     974.2    NA       0.0000   -SN      9999  0     0    
2019/03/06  11:56:00  BASE  0.10584  322  1.87572  278  0.4   100   0.4   18    0     974.2    NA       0.0000   -SN      8000  160   0    
2019/03/06  11:57:00  BASE  0.55272  336  1.87572  278  0.4   100   0.4   18    0     974.2    NA       0.0000   -SN      6000  160   0    
2019/03/06  11:58:00  BASE  1.05252  343  1.87572  278  0.5   100   0.5   17    0     974.2    NA       0.0000   -SN      BR    6000  0    
2019/03/06  11:59:00  BASE  1.0584   340  1.87572  278  0.5   100   0.5   17    0     974.2    NA       0.0000   -SN      BR    8000  0    
2019/03/06  12:00:00  BASE  0.98196  331  1.87572  278  0.5   100   0.5   18    0     974.2    NA       0.0000   -SN      BR    7000  0    
2019/03/06  12:01:00  BASE  0.98784  324  1.87572  278  0.5   100   0.5   18    0     974.2    NA       0.0000   -SN      BR    9999  0    
2019/03/06  12:02:00  BASE  0.82908  325  1.87572  278  0.4   100   0.4   18    0     974.2    NA       0.0000   -SN      BR    9999  0    
2019/03/06  12:03:00  BASE  0.7056   331  1.51116  337  0.4   100   0.4   18    0     974.2    NA       0.0000   -SN      BR    9999  0    
2019/03/06  12:04:00  BASE  0.54684  342  1.51116  337  0.4   100   0.4   18    0     974.2    NA       0.0000   -SN      BR    9999  0    
2019/03/06  12:05:00  BASE  0.64092  8    1.51116  337  0.4   100   0.4   18    0     974.2    NA       0.0000   -SN      BR    9999  160  
2019/03/06  12:06:00  BASE  0.93492  13   1.51116  337  0.4   100   0.4   18    0     974.3    NA       0.0000   -SN      BR    9999  0    
2019/03/06  12:07:00  BASE  0.72324  6    1.51116  337  0.4   100   0.4   18    0     974.3    NA       0.0000   -SN      BR    9999  0    
2019/03/06  12:08:00  BASE  0.74088  18   1.48176  25   0.4   100   0.4   18    0     974.3    NA       0.0000   -SN      9999  0     0    
2019/03/06  12:09:00  BASE  1.08192  6    1.48176  25   0.4   100   0.4   18    0     974.3    NA       0.0000   -SN      9999  0     0    
2019/03/06  12:10:00  BASE  0.92316  9    1.51116  35   0.4   100   0.4   18    0     974.3    NA       0.0000   -SN      9999  0     0    
2019/03/06  12:11:00  BASE  0.7938   21   1.51116  35   0.4   100   0.4   19    0     974.3    NA       0.0000   -SN      9999  160   0    
2019/03/06  12:12:00  BASE  1.27008  25   1.87572  34   0.4   100   0.4   20    0     974.3    NA       0.0000   -SN      9999  0     0    
2019/03/06  12:13:00  BASE  1.18188  46   1.87572  34   0.4   100   0.4   21    0     974.3    NA       0.0000   9999     0     0     0    
2019/03/06  12:14:00  BASE  0.86436  42   1.87572  34   0.4   100   0.4   21    0     974.3    NA       0.0000   9999     0     0     0    
2019/03/06  12:15:00  BASE  0.99372  27   1.87572  34   0.4   100   0.4   22    0     974.3    NA       0.0000   -SN      9999  0     0    
2019/03/06  12:16:00  BASE  0.89376  30   1.87572  34   0.5   100   0.5   22    0     974.3    NA       0.0000   -SN      9999  160   0    
2019/03/06  12:17:00  BASE  0.71736  36   1.87572  34   0.5   100   0.5   23    0     974.3    NA       0.0000   -SN      9000  160   0    
2019/03/06  12:18:00  BASE  0.7056   27   1.87572  34   0.5   100   0.5   24    0     974.4    NA       0.0000   -SN      9000  160   0    
2019/03/06  12:19:00  BASE  0.65856  5    1.87572  34   0.5   100   0.5   25    0     974.4    NA       0.0000   -SN      9999  200   0    
2019/03/06  12:20:00  BASE  0.54096  355  1.87572  34   0.5   100   0.5   26    0     974.5    NA       0.0000   -SN      9999  200   1940 
2019/03/06  12:21:00  BASE  0.48804  24   1.87572  34   0.5   100   0.5   26    0     974.5    NA       0.0000   -SN      9999  200   1940 
2019/03/06  12:22:00  BASE  0.40572  46   1.63464  7    0.5   100   0.5   26    0     974.5    NA       0.0000   -SN      9999  1900  0    
2019/03/06  12:23:00  BASE  0.72912  58   1.63464  7    0.5   100   0.5   27    0     974.5    NA       0.0000   -SN      9999  330   0    
2019/03/06  12:24:00  BASE  0.9702   62   1.63464  7    0.5   100   0.5   27    0     974.5    NA       0.0000   -SN      9999  230   2000 
2019/03/06  12:25:00  BASE  0.5586   49   1.63464  7    0.5   100   0.5   27    0     974.5    NA       0.0000   -SN      9999  260   1970 
2019/03/06  12:26:00  BASE  0.25872  52   1.63464  7    0.5   100   0.5   28    0     974.5    NA       0.0000   -SN      9999  230   1940 
2019/03/06  12:27:00  BASE  0.1176   63   1.63464  7    0.5   100   0.5   28    0     974.5    NA       0.0000   9999     330   0     0    
2019/03/06  12:28:00  BASE  0        63   1.45236  4    0.5   100   0.5   28    0     974.5    NA       0.0000   9999     300   1840  0    
2019/03/06  12:29:00  BASE  0.0294   76   1.1466   67   0.5   100   0.5   28    0     974.5    NA       0.0000   9999     260   1800  0    
2019/03/06  12:30:00  BASE  0.0294   93   1.1466   67   0.5   100   0.5   28    0     974.5    NA       0.0000   9999     230   1900  0    
2019/03/06  12:31:00  BASE  0        100  1.1466   67   0.6   100   0.6   28    0     974.5    NA       0.0000   9999     260   1710  0    
2019/03/06  12:32:00  BASE  0        106  1.1466   67   0.6   100   0.6   28    0     974.5    NA       0.0000   9999     260   1800  0    
2019/03/06  12:33:00  BASE  0        130  1.0584   69   0.6   100   0.6   28    0     974.5    NA       0.0000   9999     260   1800  0    
2019/03/06  12:34:00  BASE  0        168  0.9996   59   0.6   100   0.6   29    0     974.6    NA       0.0000   -SN      9999  260   0    
2019/03/06  12:35:00  BASE  0.05292  161  0.84672  73   0.6   100   0.6   30    0     974.6    NA       0.0000   -SN      9999  390   2030 
2019/03/06  12:36:00  BASE  0.07644  140  0.63504  137  0.6   100   0.6   31    0     974.6    NA       0.0000   -SN      9999  390   2000 
2019/03/06  12:37:00  BASE  0.38808  139  0.84672  133  0.6   100   0.6   32    0     974.6    NA       0.0000   -SN      8000  330   2030 
2019/03/06  12:38:00  BASE  0.56448  135  0.84672  133  0.6   100   0.6   32    0     974.6    NA       0.0000   -SN      9000  300   0    
2019/03/06  12:39:00  BASE  0.25872  131  0.84672  133  0.6   100   0.6   33    0     974.6    NA       0.0000   -SN      BR    6000  230  
2019/03/06  12:40:00  BASE  0.46452  130  0.87612  130  0.6   100   0.6   34    0     974.6    NA       0.0000   -SN      BR    4200  0    
2019/03/06  12:41:00  BASE  0.74088  133  0.87612  130  0.6   100   0.6   36    0     974.5    NA       0.0000   -SN      BR    3600  0    
2019/03/06  12:42:00  BASE  0.63504  142  0.9702   139  0.6   100   0.6   37    0     974.6    NA       0.0000   -SN      BR    4500  260  
2019/03/06  12:43:00  BASE  0.29988  143  0.9702   139  0.6   100   0.6   39    0     974.5    NA       0.0000   -SN      BR    3800  230  
2019/03/06  12:44:00  BASE  0.22932  138  0.9702   139  0.6   100   0.6   40    0     974.5    NA       0.0000   -SN      BR    3800  260  
2019/03/06  12:45:00  BASE  0.57624  140  0.9702   139  0.6   100   0.6   40    0     974.5    NA       0.0000   -SN      BR    4400  200  
2019/03/06  12:46:00  BASE  0.54684  145  0.9702   139  0.6   100   0.6   41    0     974.5    NA       0.0000   -SN      BR    4200  200  
2019/03/06  12:47:00  BASE  0.58212  145  0.9702   139  0.6   100   0.6   41    0     974.5    NA       0.0000   -SN      BR    4100  200  
2019/03/06  12:48:00  BASE  0.81732  141  0.9702   146  0.6   100   0.6   41    0     974.6    NA       0.0000   -SN      BR    4100  260  
2019/03/06  12:49:00  BASE  0.95256  137  1.32888  137  0.6   100   0.6   41    0     974.6    NA       0.0000   -SN      BR    4000  260  
2019/03/06  12:50:00  BASE  1.09956  130  1.32888  137  0.6   100   0.6   41    0     974.6    NA       0.0000   -SN      BR    3400  230  
2019/03/06  12:51:00  BASE  1.176    128  1.45236  138  0.6   100   0.6   42    0     974.6    NA       0.0000   -SN      BR    2400  0    
2019/03/06  12:52:00  BASE  1.25244  131  1.48176  133  0.5   100   0.5   43    0     974.6    NA       0.0000   -SN      BR    2200  0    
2019/03/06  12:53:00  BASE  1.4112   131  1.78752  122  0.5   100   0.5   44    0     974.6    NA       0.0000   -SN      BR    2300  0    
2019/03/06  12:54:00  BASE  1.62288  130  1.93452  132  0.5   100   0.5   44    0     974.6    NA       0.0000   -SN      BR    2400  200  
2019/03/06  12:55:00  BASE  1.5876   131  1.93452  132  0.5   100   0.5   44    0     974.6    NA       0.0000   -SN      BR    2900  200  
2019/03/06  12:56:00  BASE  1.56408  132  1.93452  132  0.4   100   0.4   44    0     974.6    NA       0.0000   -SN      BR    4000  230  
2019/03/06  12:57:00  BASE  1.57584  133  1.93452  132  0.4   100   0.4   44    0     974.6    NA       0.0000   -SN      BR    3300  260  
2019/03/06  12:58:00  BASE  1.37592  134  1.93452  132  0.4   100   0.4   45    0     974.6    NA       0.0000   -SN      BR    2800  260  
2019/03/06  12:59:00  BASE  1.3818   132  1.93452  132  0.4   100   0.4   46    0     974.6    NA       0.0000   -SN      BR    2300  230  
2019/03/06  13:00:00  BASE  1.51116  128  1.93452  132  0.4   100   0.4   46    0     974.6    NA       0.0000   -SN      BR    2100  230  
2019/03/06  13:01:00  BASE  1.47588  127  1.93452  132  0.4   100   0.4   47    0     974.6    NA       0.0000   -SN      BR    2000  230  
2019/03/06  13:02:00  BASE  1.45236  129  1.93452  132  0.4   100   0.4   48    0     974.6    NA       0.0000   -SN      BR    2600  230  
2019/03/06  13:03:00  BASE  1.5582   131  1.93452  132  0.4   100   0.4   49    0     974.6    NA       0.0000   -SN      BR    3200  0    
2019/03/06  13:04:00  BASE  1.61112  130  1.87572  124  0.4   100   0.4   50    0     974.6    NA       0.0000   -SN      BR    3200  1440 
2019/03/06  13:05:00  BASE  1.61112  128  1.87572  124  0.4   100   0.4   51    0     974.6    NA       0.0000   -SN      BR    2400  260  
2019/03/06  13:06:00  BASE  1.65816  129  1.90512  128  0.4   100   0.4   52    0     974.7    NA       0.0000   -SN      BR    2700  0    
2019/03/06  13:07:00  BASE  1.81692  131  2.1462   134  0.4   100   0.4   54    0     974.7    NA       0.0000   -SN      BR    2700  0    
2019/03/06  13:08:00  BASE  1.8816   131  2.29908  136  0.4   100   0.4   55    0     974.7    NA       0.0000   -SN      BR    2100  0    
2019/03/06  13:09:00  BASE  1.86984  134  2.35788  136  0.4   100   0.4   56    0     974.7    NA       0.0000   -SN      BR    2300  0    
2019/03/06  13:10:00  BASE  1.87572  137  2.35788  136  0.4   100   0.4   56    0     974.6    NA       0.0000   -SN      BR    2200  0    
2019/03/06  13:11:00  BASE  1.84044  137  2.35788  136  0.4   100   0.4   56    0     974.6    NA       0.0000   -SN      BR    2300  0    
2019/03/06  13:12:00  BASE  1.7934   136  2.35788  136  0.4   100   0.4   57    0     974.7    NA       0.0000   -SN      BR    2300  0    
2019/03/06  13:13:00  BASE  1.75224  130  2.35788  136  0.4   100   0.4   59    0     974.7    NA       0.0000   -SN      BR    2300  0    
2019/03/06  13:14:00  BASE  1.72284  123  2.35788  136  0.4   100   0.4   60    0     974.6    NA       0.0000   -SN      BR    2200  0    
2019/03/06  13:15:00  BASE  1.8522   120  2.35788  136  0.4   100   0.4   61    0     974.6    NA       0.0000   -SN      BR    2100  230  
2019/03/06  13:16:00  BASE  2.00508  122  2.35788  136  0.4   100   0.4   61    0     974.7    NA       0.0000   -SN      BR    2100  0    
2019/03/06  13:17:00  BASE  2.04624  130  2.75184  143  0.5   100   0.5   62    0     974.6    NA       0.0000   -SN      BR    2100  260  
2019/03/06  13:18:00  BASE  2.12856  135  2.75184  143  0.5   100   0.5   63    0     974.7    NA       0.0000   -SN      BR    1900  0    
2019/03/06  13:19:00  BASE  2.0874   135  2.75184  143  0.5   100   0.5   65    0     974.7    NA       0.0000   -SN      BR    2200  0    
2019/03/06  13:20:00  BASE  2.205    131  2.75184  143  0.5   100   0.5   66    0     974.7    NA       0.0000   -SN      BR    2300  0    
2019/03/06  13:21:00  BASE  2.2638   129  2.75184  143  0.4   100   0.4   68    0     974.7    NA       0.0000   -SN      BR    2200  0    
2019/03/06  13:22:00  BASE  2.33436  131  2.75184  143  0.4   100   0.4   69    0     974.7    NA       0.0000   -SN      BR    2100  0    
2019/03/06  13:23:00  BASE  2.50488  131  2.75184  132  0.4   100   0.4   69    0     974.7    NA       0.0000   -SN      BR    2500  0    
2019/03/06  13:24:00  BASE  2.50488  133  2.84592  140  0.4   100   0.4   69    0     974.7    NA       0.0000   -SN      BR    2300  300  
2019/03/06  13:25:00  BASE  2.2638   137  2.84592  140  0.4   100   0.4   69    0     974.7    NA       0.2540   -SN      BR    2300  300  
2019/03/06  13:26:00  BASE  1.95216  133  2.84592  140  0.4   100   0.4   69    0     974.7    NA       0.0000   -SN      BR    2200  300  
2019/03/06  13:27:00  BASE  1.83456  129  2.84592  140  0.4   100   0.4   68    0     974.7    NA       0.0000   -SN      BR    2100  300  
2019/03/06  13:28:00  BASE  1.87572  131  2.84592  140  0.4   100   0.4   68    0     974.6    NA       0.0000   -SN      BR    2100  0    
2019/03/06  13:29:00  BASE  2.16384  134  2.84592  140  0.4   100   0.4   68    0     974.7    NA       0.0000   -SN      BR    2300  0    
2019/03/06  13:30:00  BASE  2.35788  129  2.84592  140  0.5   100   0.5   70    0     974.7    NA       0.0000   -SN      BR    2400  300  
2019/03/06  13:31:00  BASE  2.2932   125  2.84592  140  0.5   100   0.5   71    0     974.7    NA       0.0000   -SN      BR    2100  0    
2019/03/06  13:32:00  BASE  2.31084  129  2.84592  140  0.5   100   0.5   73    0     974.7    NA       0.0000   -SN      BR    2500  0    
2019/03/06  13:33:00  BASE  2.5578   134  2.96352  137  0.4   100   0.4   75    0     974.7    NA       0.0000   -SN      BR    2300  0    
2019/03/06  13:34:00  BASE  2.81064  135  3.1458   135  0.4   100   0.4   77    0     974.7    NA       0.0000   -SN      BR    2200  330  
2019/03/06  13:35:00  BASE  2.99292  136  3.29868  139  0.4   100   0.4   79    0     974.7    NA       0.0000   -SN      BR    2100  330  
2019/03/06  13:36:00  BASE  2.89296  135  3.29868  139  0.4   100   0.4   79    0     974.7    NA       0.0000   -SN      BR    2300  330  
2019/03/06  13:37:00  BASE  2.7636   135  3.29868  139  0.4   100   0.4   80    0     974.7    NA       0.0000   -SN      BR    2500  0    
2019/03/06  13:38:00  BASE  2.92236  138  3.32808  135  0.4   100   0.4   80    0     974.7    NA       0.0000   -SN      BR    2500  2100 
2019/03/06  13:39:00  BASE  2.95176  140  3.32808  135  0.4   100   0.4   80    0     974.7    NA       0.0000   -SN      BR    2400  330  
2019/03/06  13:40:00  BASE  2.62836  143  3.32808  135  0.4   100   0.4   80    0     974.8    NA       0.0000   -SN      BR    2100  330  
2019/03/06  13:41:00  BASE  2.53428  144  3.32808  135  0.4   100   0.4   80    0     974.8    NA       0.0000   -SN      BR    2300  330  
2019/03/06  13:42:00  BASE  2.71068  141  3.32808  135  0.4   100   0.4   80    0     974.8    NA       0.0000   -SN      BR    2300  360  
2019/03/06  13:43:00  BASE  2.53428  138  3.32808  135  0.4   100   0.4   80    0     974.8    NA       0.0000   -SN      BR    2400  360  
2019/03/06  13:44:00  BASE  2.3814   137  3.32808  135  0.4   100   0.4   81    0     974.8    NA       0.0000   -SN      BR    2200  360  
2019/03/06  13:45:00  BASE  2.19912  138  3.32808  135  0.4   100   0.4   81    0     974.8    NA       0.0000   -SN      BR    2900  360  
2019/03/06  13:46:00  BASE  2.10504  134  3.32808  135  0.4   100   0.4   79    0     974.8    NA       0.0000   -SN      BR    2700  360  
2019/03/06  13:47:00  BASE  2.37552  132  3.32808  135  0.4   100   0.4   79    0     974.8    NA       0.0000   -SN      BR    2100  0    
2019/03/06  13:48:00  BASE  2.28732  135  3.1458   140  0.3   100   0.3   78    0     974.8    NA       0.0000   -SN      BR    2200  360  
2019/03/06  13:49:00  BASE  2.10504  132  3.087    144  0.3   100   0.3   77    0     974.8    NA       0.0000   -SN      BR    2100  0    
2019/03/06  13:50:00  BASE  2.21088  130  3.087    144  0.4   100   0.4   75    0     974.8    NA       0.0000   -SN      BR    2300  0    
2019/03/06  13:51:00  BASE  2.3226   131  3.087    144  0.4   100   0.4   74    0     974.8    NA       0.0000   -SN      BR    2100  0    
2019/03/06  13:52:00  BASE  2.18736  130  2.90472  135  0.4   100   0.4   72    0     974.8    NA       0.0000   -SN      BR    2200  0    
2019/03/06  13:53:00  BASE  2.03448  129  2.90472  135  0.4   100   0.4   71    0     974.8    NA       0.0000   -SN      BR    2100  360  
2019/03/06  13:54:00  BASE  1.89336  129  2.90472  135  0.4   100   0.4   70    0     974.8    NA       0.0000   -SN      BR    2400  0    
2019/03/06  13:55:00  BASE  1.85808  128  2.90472  135  0.4   100   0.4   69    0     974.8    NA       0.0000   -SN      BR    2200  360  
2019/03/06  13:56:00  BASE  2.15796  126  2.90472  135  0.4   100   0.4   69    0     974.8    NA       0.0000   -SN      BR    2200  360  
2019/03/06  13:57:00  BASE  2.33436  122  2.81064  132  0.4   100   0.4   69    0     974.8    NA       0.0000   -SN      BR    2400  0    
2019/03/06  13:58:00  BASE  2.04624  116  2.81064  132  0.4   100   0.4   69    0     974.8    NA       0.0000   -SN      BR    2300  0    
2019/03/06  13:59:00  BASE  1.54056  118  2.81064  132  0.5   100   0.5   68    0     974.8    NA       0.0000   -SN      BR    2300  360  
2019/03/06  14:00:00  BASE  1.30536  129  2.81064  132  0.5   100   0.5   67    0     974.8    NA       0.0000   -SN      BR    2300  360  
2019/03/06  14:01:00  BASE  1.39356  130  2.72244  127  0.5   100   0.5   66    0     974.8    NA       0.0000   -SN      BR    1900  360  
2019/03/06  14:02:00  BASE  1.39944  121  2.72244  127  0.5   100   0.5   66    0     974.8    NA       0.0000   -SN      BR    2000  360  
2019/03/06  14:03:00  BASE  1.57584  117  2.72244  127  0.6   100   0.6   65    0     974.8    NA       0.0000   -SN      BR    2200  0    
2019/03/06  14:04:00  BASE  1.94628  121  2.72244  127  0.6   100   0.6   66    0     974.8    NA       0.0000   -SN      BR    2300  0    
2019/03/06  14:05:00  BASE  1.95216  127  2.72244  127  0.6   100   0.6   66    0     974.8    NA       0.0000   -SN      BR    2100  0    
2019/03/06  14:06:00  BASE  1.911    129  2.72244  127  0.6   100   0.6   67    0     974.8    NA       0.0000   -SN      BR    1900  0    
2019/03/06  14:07:00  BASE  2.07564  128  2.54016  127  0.6   100   0.6   68    0     974.8    NA       0.0000   -SN      BR    2100  390  
2019/03/06  14:08:00  BASE  2.50488  123  3.29868  112  0.6   100   0.6   68    0     974.8    NA       0.0000   -SN      BR    2300  390  
2019/03/06  14:09:00  BASE  3.01644  125  3.48096  134  0.5   100   0.5   67    0     974.8    NA       0.0000   -SN      BR    2000  0    
2019/03/06  14:10:00  BASE  3.10464  129  3.48096  134  0.5   100   0.5   66    0     974.8    NA       0.0000   -SN      BR    1700  0    
2019/03/06  14:11:00  BASE  2.9106   127  3.48096  134  0.5   100   0.5   66    0     974.9    NA       0.0000   -SN      BR    1500  0    
2019/03/06  14:12:00  BASE  2.81652  130  3.48096  134  0.5   100   0.5   65    0     974.9    NA       0.0000   -SN      BR    1600  330  
2019/03/06  14:13:00  BASE  2.56368  131  3.48096  134  0.5   100   0.5   64    0     974.9    NA       0.0000   -SN      BR    1400  360  
2019/03/06  14:14:00  BASE  2.46372  133  3.48096  134  0.5   100   0.5   64    0     974.9    NA       0.0000   -SN      BR    2000  360  
2019/03/06  14:15:00  BASE  2.51664  139  3.48096  134  0.4   100   0.4   64    0     974.9    NA       0.0000   -SN      BR    1500  330  
2019/03/06  14:16:00  BASE  2.0874   139  3.48096  134  0.4   100   0.4   65    0     974.9    NA       0.0000   -SN      BR    1500  330  
2019/03/06  14:17:00  BASE  1.51116  131  3.48096  134  0.4   100   0.4   66    0     974.9    NA       0.0000   -SN      BR    1900  330  
2019/03/06  14:18:00  BASE  1.75224  124  3.48096  134  0.5   100   0.5   67    0     974.9    NA       0.0000   -SN      BR    1800  330  
2019/03/06  14:19:00  BASE  2.51664  123  3.41628  133  0.5   100   0.5   68    0     974.9    NA       0.0000   -SN      BR    1600  300  
2019/03/06  14:20:00  BASE  3.03996  124  3.62796  131  0.5   100   0.5   69    0     974.9    NA       0.0000   -SN      BR    1700  330  
2019/03/06  14:21:00  BASE  3.33984  127  3.81024  131  0.5   100   0.5   70    0     974.9    NA       0.0000   -SN      BR    1500  330  
2019/03/06  14:22:00  BASE  3.18696  125  3.81024  131  0.5   100   0.5   71    0     974.9    NA       0.0000   -SN      BR    1700  330  
2019/03/06  14:23:00  BASE  3.0282   121  3.81024  131  0.5   100   0.5   73    0     974.9    NA       0.0000   -SN      BR    1800  330  
2019/03/06  14:24:00  BASE  2.8812   121  3.81024  131  0.4   100   0.4   74    0     975.0    NA       0.0000   -SN      BR    1200  0    
2019/03/06  14:25:00  BASE  3.01644  128  3.81024  131  0.4   100   0.4   76    0     974.9    NA       0.0000   -SN      BR    1200  0    
2019/03/06  14:26:00  BASE  2.92236  135  3.81024  131  0.4   100   0.4   78    0     974.9    NA       0.0000   -SN      BR    1400  330  
2019/03/06  14:27:00  BASE  2.95764  132  3.93372  126  0.4   100   0.4   80    0     975.0    NA       0.0000   -SN      BR    1600  330  
2019/03/06  14:28:00  BASE  3.528    129  4.2042   125  0.4   100   0.4   81    0     975.0    NA       0.0000   -SN      BR    1600  330  
2019/03/06  14:29:00  BASE  3.78672  127  4.41588  123  0.4   100   0.4   82    0     975.1    NA       0.0000   -SN      BR    1600  330  
2019/03/06  14:30:00  BASE  3.9984   128  4.41588  135  0.4   100   0.4   84    0     975.0    NA       0.0000   -SN      BR    1300  0    
2019/03/06  14:31:00  BASE  3.88668  131  4.41588  135  0.4   100   0.4   84    0     975.1    NA       0.0000   -SN      BR    1100  0    
2019/03/06  14:32:00  BASE  3.65736  131  4.41588  135  0.4   100   0.4   85    0     975.1    NA       0.0000   -SN      BR    0900  0    
2019/03/06  14:33:00  BASE  3.7044   131  4.41588  135  0.4   100   0.4   84    0     975.1    NA       0.0000   -SN      BR    0800  0    
2019/03/06  14:34:00  BASE  3.53388  132  4.41588  135  0.4   100   0.4   83    0     975.1    NA       0.0000   -SN      BR    1100  0    
2019/03/06  14:35:00  BASE  3.27516  131  4.41588  135  0.4   100   0.4   83    0     975.1    NA       0.0000   -SN      BR    1400  0    
2019/03/06  14:36:00  BASE  3.15168  130  4.41588  135  0.4   100   0.4   82    0     975.1    NA       0.0000   -SN      BR    1400  0    
2019/03/06  14:37:00  BASE  2.99292  132  4.41588  135  0.4   100   0.4   81    0     975.1    NA       0.0000   -SN      BR    1700  0    
2019/03/06  14:38:00  BASE  3.12816  132  4.41588  135  0.4   100   0.4   81    0     975.1    NA       0.0000   -SN      BR    1500  300  
2019/03/06  14:39:00  BASE  3.32808  131  4.41588  135  0.4   100   0.4   81    0     975.1    NA       0.0000   -SN      BR    1500  0    
2019/03/06  14:40:00  BASE  3.6162   133  4.2042   138  0.4   100   0.4   81    0     975.2    NA       0.0000   -SN      BR    1500  0    
2019/03/06  14:41:00  BASE  3.78672  134  4.2042   138  0.4   100   0.4   82    0     975.2    NA       0.0000   -SN      BR    1500  0    
2019/03/06  14:42:00  BASE  3.39864  134  4.2042   138  0.3   100   0.3   82    0     975.2    NA       0.0000   -SN      BR    1300  330  
2019/03/06  14:43:00  BASE  2.98704  134  4.2042   138  0.3   100   0.3   83    0     975.2    NA       0.0000   -SN      BR    1600  0    
2019/03/06  14:44:00  BASE  2.79888  125  4.2042   138  0.4   100   0.4   84    0     975.2    NA       0.0000   -SN      BR    1600  0    
2019/03/06  14:45:00  BASE  2.81652  121  4.2042   138  0.4   100   0.4   85    0     975.2    NA       0.0000   -SN      BR    1600  0    
2019/03/06  14:46:00  BASE  3.19284  122  4.2042   138  0.4   100   0.4   86    0     975.2    NA       0.0000   -SN      BR    1700  330  
2019/03/06  14:47:00  BASE  3.68676  121  4.2042   138  0.4   100   0.4   88    0     975.2    NA       0.0000   -SN      BR    1700  330  
2019/03/06  14:48:00  BASE  3.69264  122  4.2042   138  0.4   100   0.4   91    0     975.2    NA       0.0000   -SN      BR    1400  0    
2019/03/06  14:49:00  BASE  3.5868   123  4.2042   138  0.4   100   0.4   94    0     975.2    NA       0.0000   -SN      BR    1300  0    
2019/03/06  14:50:00  BASE  3.60444  125  4.1454   121  0.4   100   0.4   97    0     975.2    NA       0.0000   -SN      BR    1200  920  
2019/03/06  14:51:00  BASE  3.56328  128  4.1454   127  0.4   100   0.4   100   0     975.2    NA       0.0000   -SN      BR    1200  0    
2019/03/06  14:52:00  BASE  3.49272  127  4.1748   123  0.4   100   0.4   101   0     975.3    NA       0.0000   -SN      BR    1000  0    
2019/03/06  14:53:00  BASE  3.83376  123  4.75104  124  0.4   100   0.4   103   0     975.3    NA       0.2540   -SN      BR    1300  300  
2019/03/06  14:54:00  BASE  4.12188  120  4.75104  124  0.3   100   0.3   104   0     975.3    NA       0.0000   -SN      BR    1600  0    
2019/03/06  14:55:00  BASE  4.03368  119  4.75104  124  0.3   100   0.3   105   0     975.3    NA       0.0000   -SN      BR    1600  0    
2019/03/06  14:56:00  BASE  3.82788  118  4.75104  124  0.4   100   0.4   102   0     975.3    NA       0.0000   -SN      BR    1800  300  
2019/03/06  14:57:00  BASE  3.75144  121  4.75104  124  0.4   100   0.4   103   0     975.3    NA       0.0000   -SN      BR    1900  300  
2019/03/06  14:58:00  BASE  3.86316  124  4.75104  124  0.4   100   0.4   104   0     975.3    NA       0.0000   -SN      BR    1700  330  
2019/03/06  14:59:00  BASE  3.53388  124  4.75104  124  0.4   100   0.4   104   0     975.3    NA       0.0000   -SN      BR    1600  330  
2019/03/06  15:00:00  BASE  3.29868  124  4.75104  124  0.4   100   0.4   103   0     975.3    NA       0.0000   -SN      BR    1800  0    
2019/03/06  15:01:00  BASE  3.75732  126  4.75104  124  0.4   100   0.4   103   0     975.3    NA       0.0000   -SN      BR    2100  0    
2019/03/06  15:02:00  BASE  4.1454   129  4.75104  124  0.4   100   0.4   102   0     975.3    NA       0.0000   -SN      BR    1900  0    
2019/03/06  15:03:00  BASE  3.92784  130  4.47468  128  0.4   100   0.4   101   0     975.3    NA       0.0000   -SN      BR    2100  360  
2019/03/06  15:04:00  BASE  3.7338   129  4.47468  128  0.4   100   0.4   101   0     975.3    NA       0.0000   -SN      BR    2300  0    
2019/03/06  15:05:00  BASE  3.65148  129  4.47468  128  0.4   100   0.4   102   0     975.3    NA       0.0000   -SN      BR    2200  0    
2019/03/06  15:06:00  BASE  3.88668  129  4.47468  128  0.4   100   0.4   104   0     975.3    NA       0.0000   -SN      BR    1700  0    
2019/03/06  15:07:00  BASE  3.9396   127  4.47468  128  0.4   100   0.4   106   0     975.3    NA       0.0000   -SN      BR    1400  260  
2019/03/06  15:08:00  BASE  4.2042   122  5.145    123  0.4   100   0.4   106   0     975.4    NA       0.0000   -SN      BR    1600  300  
2019/03/06  15:09:00  BASE  4.48056  120  5.145    123  0.4   100   0.4   109   0     975.4    NA       0.0000   -SN      BR    1400  0    
2019/03/06  15:10:00  BASE  4.25712  125  5.145    123  0.4   100   0.4   112   0     975.4    NA       0.0000   -SN      BR    1300  0    
2019/03/06  15:11:00  BASE  4.32768  131  5.145    123  0.4   100   0.4   115   0     975.4    NA       0.0000   -SN      BR    1300  0    
2019/03/06  15:12:00  BASE  4.08072  128  5.145    123  0.4   100   0.4   117   0     975.4    NA       0.0000   -SN      BR    1300  0    
2019/03/06  15:13:00  BASE  4.30416  125  5.3214   125  0.4   100   0.4   119   0     975.4    NA       0.0000   -SN      BR    1100  0    
2019/03/06  15:14:00  BASE  4.21008  124  5.3214   125  0.4   100   0.4   120   0     975.4    NA       0.0000   -SN      BR    1300  0    
2019/03/06  15:15:00  BASE  3.56916  125  5.3214   125  0.4   100   0.4   119   0     975.4    NA       0.0000   -SN      BR    1200  0    
2019/03/06  15:16:00  BASE  3.9102   126  5.3214   125  0.4   100   0.4   117   0     975.4    NA       0.0000   -SN      BR    1100  0    
2019/03/06  15:17:00  BASE  3.91608  124  5.3214   125  0.4   100   0.4   115   0     975.4    NA       0.0000   -SN      BR    1100  0    
2019/03/06  15:18:00  BASE  3.4398   123  5.3214   125  0.4   100   0.4   114   0     975.4    NA       0.0000   -SN      BR    1400  0    
2019/03/06  15:19:00  BASE  3.18696  120  5.3214   125  0.4   100   0.4   112   0     975.4    NA       0.0000   -SN      BR    1200  0    
2019/03/06  15:20:00  BASE  3.52212  122  5.38608  128  0.4   100   0.4   109   0     975.4    NA       0.0000   -SN      BR    1100  0    
2019/03/06  15:21:00  BASE  4.22772  129  5.38608  128  0.4   100   0.4   106   0     975.4    NA       0.0000   -SN      BR    1200  0    
2019/03/06  15:22:00  BASE  4.46292  127  5.38608  128  0.4   100   0.4   103   0     975.4    NA       0.0000   -SN      BR    1200  0    
2019/03/06  15:23:00  BASE  4.46292  126  5.38608  128  0.4   100   0.4   100   0     975.4    NA       0.0000   -SN      BR    1200  0    
2019/03/06  15:24:00  BASE  4.1454   131  5.38608  128  0.4   100   0.4   98    0     975.4    NA       0.0000   -SN      BR    1200  260  
2019/03/06  15:25:00  BASE  3.83376  135  5.38608  128  0.4   100   0.4   96    0     975.5    NA       0.0000   -SN      BR    1200  0    
2019/03/06  15:26:00  BASE  3.63972  136  5.38608  128  0.4   100   0.4   96    0     975.6    NA       0.0000   -SN      BR    1400  0    
2019/03/06  15:27:00  BASE  3.05172  128  5.38608  128  0.4   100   0.4   96    0     975.6    NA       0.0000   -SN      BR    1100  260  
2019/03/06  15:28:00  BASE  2.71656  128  5.38608  128  0.4   100   0.4   97    0     975.6    NA       0.0000   -SN      BR    1100  260  
2019/03/06  15:29:00  BASE  2.80476  136  5.38608  128  0.4   100   0.4   97    0     975.6    NA       0.0000   -SN      BR    1200  21950
2019/03/06  15:30:00  BASE  2.78124  134  5.02152  121  0.4   100   0.4   97    0     975.6    NA       0.0000   -SN      BR    0900  260  
2019/03/06  15:31:00  BASE  2.98704  127  5.02152  121  0.4   100   0.4   97    0     975.6    NA       0.0000   -SN      BR    0800  0    
2019/03/06  15:32:00  BASE  3.2928   125  4.59816  124  0.4   100   0.4   95    0     975.6    NA       0.0000   SN       BR    0700  0    
2019/03/06  15:33:00  BASE  3.31632  133  4.35708  130  0.4   100   0.4   92    0     975.6    NA       0.0000   SN       BR    0900  0    
2019/03/06  15:34:00  BASE  3.1458   137  4.1454   133  0.4   100   0.4   87    0     975.6    NA       0.0000   +SN      BR    0900  260  
2019/03/06  15:35:00  BASE  3.12228  139  4.1454   133  0.4   100   0.4   84    0     975.6    NA       0.0000   +SN      BR    0900  260  
2019/03/06  15:36:00  BASE  2.8518   143  3.75144  121  0.4   100   0.4   81    0     975.6    NA       0.0000   SN       BR    1000  260  
2019/03/06  15:37:00  BASE  2.21676  147  3.75144  121  0.4   100   0.4   78    0     975.6    NA       0.0000   SN       BR    0650  0    
2019/03/06  15:38:00  BASE  2.09916  139  3.75144  121  0.4   100   0.4   73    0     975.6    NA       0.0000   SN       FG    0800  0    
2019/03/06  15:39:00  BASE  2.53428  129  3.75144  121  0.4   100   0.4   70    0     975.6    NA       0.0000   SN       FG    1000  300  
2019/03/06  15:40:00  BASE  2.8224   125  3.75144  121  0.4   100   0.4   68    0     975.6    NA       0.0000   SN       FG    0700  260  
2019/03/06  15:41:00  BASE  2.95764  127  3.69264  131  0.4   100   0.4   66    0     975.6    NA       0.0000   SN       FG    0550  0    
2019/03/06  15:42:00  BASE  3.11052  135  3.59856  139  0.4   100   0.4   63    0     975.6    NA       0.0000   SN       FG    0750  300  
2019/03/06  15:43:00  BASE  2.84004  134  3.59856  139  0.4   100   0.4   61    0     975.6    NA       0.2540   SN       FG    0900  300  
2019/03/06  15:44:00  BASE  2.62248  128  3.59856  139  0.4   100   0.4   60    0     975.6    NA       0.0000   SN       FG    1000  260  
2019/03/06  15:45:00  BASE  2.72832  128  3.59856  139  0.4   100   0.4   61    0     975.7    NA       0.0000   SN       FG    0750  230  
2019/03/06  15:46:00  BASE  2.4696   126  3.59856  139  0.4   100   0.4   65    0     975.8    NA       0.0000   SN       FG    0750  230  
2019/03/06  15:47:00  BASE  2.25204  126  3.59856  139  0.4   100   0.4   67    0     975.8    NA       0.0000   SN       FG    0800  230  
2019/03/06  15:48:00  BASE  2.24616  131  3.59856  139  0.4   100   0.4   69    0     975.8    NA       0.0000   SN       FG    0650  0    
2019/03/06  15:49:00  BASE  2.04624  130  3.59856  139  0.4   100   0.4   70    0     975.8    NA       0.0000   SN       FG    0500  0    
2019/03/06  15:50:00  BASE  1.85808  126  3.59856  139  0.4   100   0.4   71    0     975.8    NA       0.0000   SN       FG    0550  0    
2019/03/06  15:51:00  BASE  1.79928  127  3.59856  139  0.4   100   0.4   71    0     975.8    NA       0.0000   SN       FG    0650  0    
2019/03/06  15:52:00  BASE  1.89336  124  3.2046   124  0.4   100   0.4   70    0     975.8    NA       0.0000   SN       FG    0600  0    
2019/03/06  15:53:01  BASE  2.12268  116  3.2046   124  0.4   100   0.4   71    0     975.9    NA       0.0000   +SN      FG    0550  0    
2019/03/06  15:54:00  BASE  2.31084  114  2.87532  125  0.4   100   0.4   74    0     975.9    NA       0.0000   +SN      FG    0600  0    
2019/03/06  15:55:00  BASE  2.25204  121  2.72244  129  0.4   100   0.4   74    0     975.8    NA       0.0000   +SN      FG    0600  0    
2019/03/06  15:56:00  BASE  2.39904  120  3.1458   112  0.4   100   0.4   74    0     975.8    NA       0.0000   +SN      FG    0550  0    
2019/03/06  15:57:00  BASE  2.63424  118  3.35748  121  0.4   100   0.4   75    0     975.8    NA       0.0000   +SN      FG    0600  0    
2019/03/06  15:58:00  BASE  2.3226   122  3.35748  121  0.4   100   0.4   77    0     975.8    NA       0.0000   +SN      FG    0500  0    
2019/03/06  15:59:00  BASE  2.058    137  3.35748  121  0.4   100   0.4   82    0     975.8    NA       0.0000   +SN      FG    0350  0    
2019/03/06  16:00:00  BASE  2.28144  149  3.35748  121  0.4   100   0.4   85    0     975.8    NA       0.2540   +SN      FG    0400  0    
2019/03/06  16:01:00  BASE  2.56956  141  3.35748  121  0.3   100   0.3   86    0     975.8    NA       0.0000   +SN      FG    0500  0    
2019/03/06  16:02:00  BASE  2.56368  132  3.35748  121  0.3   100   0.3   87    0     975.8    NA       0.0000   +SN      FG    0450  0    
2019/03/06  16:03:00  BASE  2.50488  134  3.35748  121  0.3   100   0.3   92    0     975.8    NA       0.0000   +SN      FG    0500  0    
2019/03/06  16:04:00  BASE  2.499    140  3.35748  121  0.3   100   0.3   95    0     975.8    NA       0.0000   +SN      FG    0600  0    
2019/03/06  16:05:00  BASE  2.68716  142  3.35748  141  0.3   100   0.3   97    0     975.8    NA       0.0000   +SN      FG    0750  0    
2019/03/06  16:06:00  BASE  2.68128  144  3.35748  141  0.3   100   0.3   97    0     975.8    NA       0.0000   +SN      FG    1000  0    
2019/03/06  16:07:00  BASE  2.47548  144  3.35748  141  0.3   100   0.3   94    0     975.8    NA       0.0000   SN       FG    1200  0    
2019/03/06  16:08:00  BASE  2.21088  143  3.35748  141  0.3   100   0.3   96    0     975.8    NA       0.0000   SN       FG    0800  0    
2019/03/06  16:09:00  BASE  1.86396  145  3.35748  141  0.3   100   0.3   99    0     975.8    NA       0.0000   SN       FG    0800  0    
2019/03/06  16:10:00  BASE  1.68756  128  3.35748  141  0.4   100   0.4   101   0     975.8    NA       0.0000   SN       FG    0900  0    
2019/03/06  16:11:00  BASE  1.56408  67   3.72204  24   0.4   100   0.4   102   0     975.8    NA       0.0000   SN       FG    1200  0    
2019/03/06  16:12:00  BASE  1.53468  57   3.72204  24   0.4   100   0.4   107   0     975.8    NA       0.0000   -SN      FG    1700  790  
2019/03/06  16:13:01  BASE  0.82908  82   3.72204  24   0.5   100   0.5   110   0     975.8    NA       0.0000   -SN      BR    1900  0    
2019/03/06  16:14:00  BASE  0.4998   29   3.72204  24   0.5   100   0.5   113   0     975.8    NA       0.2540   -SN      BR    1800  0    
2019/03/06  16:15:00  BASE  1.40532  15   3.72204  24   0.6   100   0.6   116   0     975.8    NA       0.0000   -SN      BR    2100  300  
2019/03/06  16:16:00  BASE  1.75224  352  3.72204  24   0.6   100   0.6   118   0     975.8    NA       0.0000   -SN      BR    2400  0    
2019/03/06  16:17:00  BASE  1.39356  327  3.72204  24   0.6   100   0.6   118   0     975.8    NA       0.0000   -SN      BR    3600  0    
2019/03/06  16:18:00  BASE  1.1466   312  3.72204  24   0.6   100   0.6   119   0     975.8    NA       0.0000   -SN      BR    3400  0    
2019/03/06  16:19:00  BASE  1.48176  285  3.72204  24   0.6   100   0.6   126   0     975.8    NA       0.0000   -SN      BR    3200  0    
2019/03/06  16:20:00  BASE  1.90512  284  3.72204  24   0.6   100   0.6   125   0     975.8    NA       0.0000   -SN      BR    3300  0    
2019/03/06  16:21:00  BASE  1.75812  280  3.02232  350  0.6   100   0.6   124   0     975.8    NA       0.0000   -SN      BR    4300  0    
2019/03/06  16:22:00  BASE  1.6464   284  3.02232  350  0.5   100   0.5   122   0     975.8    NA       0.0000   -SN      BR    6000  1280 
2019/03/06  16:23:00  BASE  1.54056  319  3.02232  350  0.5   100   0.5   120   0     975.8    NA       0.0000   -SN      BR    9000  0    
2019/03/06  16:24:00  BASE  1.72284  322  4.116    354  0.5   100   0.5   119   0     975.8    NA       0.0000   -SN      BR    9999  0    
2019/03/06  16:25:00  BASE  2.11092  320  4.1454   18   0.6   100   0.6   118   0     975.8    NA       0.0000   -SN      BR    9000  0    
2019/03/06  16:26:00  BASE  2.71656  340  4.50996  347  0.6   100   0.6   118   0     975.8    NA       0.0000   -SN      BR    5000  0    
2019/03/06  16:27:00  BASE  3.29868  350  4.99212  7    0.7   100   0.7   117   0     975.9    NA       0.0000   -SN      BR    8000  0    
2019/03/06  16:28:01  BASE  3.68676  8    5.08032  13   0.8   100   0.8   116   0     975.9    NA       0.0000   -SN      BR    9999  0    
2019/03/06  16:29:00  BASE  3.234    39   5.08032  13   0.9   100   0.9   117   0     975.9    NA       0.0000   -SN      BR    5000  0    
2019/03/06  16:30:00  BASE  1.8816   51   5.08032  13   1.0   100   1.0   117   0     975.9    NA       0.0000   -SN      BR    5000  0    
2019/03/06  16:31:00  BASE  2.53428  42   5.08032  13   1.0   100   1.0   118   0     975.8    NA       0.0000   -SN      BR    9999  0    
2019/03/06  16:32:00  BASE  3.53976  35   5.08032  13   1.1   100   1.1   119   0     975.9    NA       0.0000   -SN      BR    9999  0    
2019/03/06  16:33:00  BASE  3.40452  39   5.08032  13   1.1   100   1.1   120   0     975.9    NA       0.0000   -SN      BR    9999  0    
2019/03/06  16:34:00  BASE  2.36964  87   5.08032  13   1.1   100   1.1   121   0     975.9    NA       0.0000   -SN      BR    9999  0    
2019/03/06  16:35:00  BASE  0.7938   137  5.08032  13   1.1   100   1.1   122   0     976.0    NA       0.0000   -SN      BR    9999  790  
2019/03/06  16:36:00  BASE  0.61152  164  5.08032  13   1.0   100   1.0   123   0     975.9    NA       0.0000   -SN      BR    9000  0    
2019/03/06  16:37:00  BASE  1.60524  189  5.08032  13   0.9   100   0.9   124   0     975.9    NA       0.0000   -SN      BR    6000  2590 
2019/03/06  16:38:00  BASE  1.38768  196  4.75104  23   0.8   100   0.8   125   0     975.9    NA       0.0000   -SN      BR    8000  2620 
2019/03/06  16:39:00  BASE  0.3822   158  4.75104  23   0.8   100   0.8   125   0     975.9    NA       0.0000   -SN      BR    9999  0    
2019/03/06  16:40:00  BASE  0.63504  170  4.75104  23   0.7   100   0.7   125   0     975.9    NA       0.0000   -SN      9999  1310  0    
2019/03/06  16:41:00  BASE  0.75264  195  4.38648  42   0.7   100   0.7   125   0     976.0    NA       0.0000   -SN      9999  1510  0    
2019/03/06  16:42:00  BASE  0.30576  200  4.38648  42   0.8   100   0.8   125   0     976.0    NA       0.0000   -SN      9999  2660  0    
2019/03/06  16:43:00  BASE  0.51744  195  2.54016  197  0.7   100   0.7   127   0     976.0    NA       0.0000   -SN      9999  2590  0    
2019/03/06  16:44:00  BASE  1.17012  190  2.54016  197  0.7   100   0.7   129   0     976.0    NA       0.0000   -SN      9999  2530  0    
2019/03/06  16:45:00  BASE  1.5288   186  2.54016  197  0.7   100   0.7   130   0     976.0    NA       0.0000   -SN      9999  0     0    
2019/03/06  16:46:00  BASE  1.19364  174  2.54016  197  0.7   100   0.7   130   0     976.0    NA       0.0000   -SN      9999  2530  0    
2019/03/06  16:47:00  BASE  0.69384  178  2.0286   193  0.7   100   0.7   130   0     976.0    NA       0.0000   -SN      9999  2460  0    
2019/03/06  16:48:00  BASE  0.79968  194  2.0286   193  0.7   100   0.7   129   0     976.0    NA       0.0000   9999     2490  0     0    
2019/03/06  16:49:00  BASE  1.24656  198  2.0286   193  0.7   100   0.7   129   0     976.0    NA       0.0000   9999     2430  0     0    
2019/03/06  16:50:00  BASE  1.31124  180  2.0286   193  0.8   100   0.8   128   0     976.0    NA       0.0000   9999     2430  0     0    
2019/03/06  16:51:00  BASE  1.029    130  2.0874   76   0.8   100   0.8   126   0     976.0    NA       0.0000   9999     2530  0     0    
2019/03/06  16:52:00  BASE  0.99372  80   2.0874   76   0.9   100   0.9   126   0     976.0    NA       0.0000   9999     2430  0     0    
2019/03/06  16:53:00  BASE  0.84672  106  2.0874   76   0.9   100   0.9   125   0     976.0    NA       0.0000   9999     2400  0     0    
2019/03/06  16:54:00  BASE  1.27596  50   3.02232  12   1.0   100   1.0   125   0     976.0    NA       0.0000   9999     2560  0     0    
2019/03/06  16:55:00  BASE  1.1466   14   3.02232  12   1.1   100   1.1   126   0     976.0    NA       0.0000   9999     0     0     0    
2019/03/06  16:56:00  BASE  0.65856  46   3.02232  12   1.1   100   1.1   127   0     976.0    NA       0.0000   9999     0     0     0    
2019/03/06  16:57:00  BASE  0.92904  119  3.02232  12   1.1   100   1.1   128   0     976.0    NA       0.0000   9999     2330  0     0    
2019/03/06  16:58:00  BASE  1.68756  172  3.02232  12   1.2   100   1.2   127   0     976.0    NA       0.0000   9999     2330  0     0    
2019/03/06  16:59:00  BASE  2.28732  182  3.02232  12   1.1   100   1.1   125   0     976.1    NA       0.0000   9999     2590  0     0    
2019/03/06  17:00:00  BASE  2.34024  173  3.02232  12   1.1   100   1.1   126   0     976.1    NA       0.0000   9999     2260  0     0    
2019/03/06  17:01:00  BASE  2.42844  163  3.02232  12   1.0   100   1.0   126   0     976.2    NA       0.0000   9999     4560  0     0    
2019/03/06  17:02:00  BASE  2.32848  163  3.02232  172  1.0   100   1.0   126   0     976.2    NA       0.0000   9999     2400  4530  0    
2019/03/06  17:03:00  BASE  2.51076  167  3.62796  176  1.0   100   1.0   125   0     976.1    NA       0.0000   9999     2130  0     0    
2019/03/06  17:04:00  BASE  3.13404  169  3.96312  169  1.0   100   1.0   125   0     976.0    NA       0.0000   9999     2300  0     0    
2019/03/06  17:05:00  BASE  3.42804  164  4.08072  172  0.9   100   0.9   126   0     976.1    NA       0.0000   9999     2000  3410  0    
2019/03/06  17:06:00  BASE  3.36336  150  4.08072  172  0.9   100   0.9   127   0     976.1    NA       0.0000   9999     1970  2530  0    
2019/03/06  17:07:00  BASE  3.69264  143  5.3214   147  0.9   100   0.9   126   0     976.1    NA       0.0000   9999     2460  0     0    
2019/03/06  17:08:00  BASE  3.48684  145  5.3214   147  0.9   100   0.9   126   0     976.2    NA       0.0000   9999     2530  0     0    
2019/03/06  17:09:00  BASE  3.22224  146  5.3214   147  0.8   100   0.8   126   0     976.2    NA       0.0000   9999     2460  0     0    
2019/03/06  17:10:00  BASE  3.80436  153  5.3214   147  0.9   100   0.9   127   0     976.2    NA       0.0000   9999     2460  0     0    
2019/03/06  17:11:00  BASE  3.95136  153  5.3214   147  0.9   100   0.9   126   0     976.2    NA       0.0000   9999     2530  0     0    
2019/03/06  17:12:00  BASE  3.61032  150  5.3214   147  0.9   100   0.9   125   0     976.2    NA       0.0000   9999     2490  0     0    
2019/03/06  17:13:00  BASE  3.25164  149  5.3214   147  0.9   100   0.9   124   0     976.2    NA       0.0000   9999     2720  0     0    
2019/03/06  17:14:00  BASE  3.15168  144  5.3214   147  0.9   100   0.9   123   0     976.2    NA       0.0000   9999     1210  0     0    
2019/03/06  17:15:00  BASE  3.06348  143  5.3214   147  0.9   100   0.9   123   0     976.2    NA       0.0000   9999     0     0     0    
2019/03/06  17:16:00  BASE  2.93412  143  5.3214   147  0.8   100   0.8   122   0     976.2    NA       0.0000   9999     2460  4530  0    
2019/03/06  17:17:00  BASE  2.98116  140  4.47468  157  0.8   100   0.8   121   0     976.2    NA       0.0000   9999     2590  0     0    
2019/03/06  17:18:00  BASE  3.10464  133  4.47468  157  0.8   100   0.8   122   0     976.2    NA       0.0000   9999     2590  0     0    
2019/03/06  17:19:00  BASE  3.38688  124  4.47468  157  0.9   100   0.9   123   0     976.2    NA       0.0000   9999     2490  0     0    
2019/03/06  17:20:00  BASE  3.18108  124  4.08072  150  0.9   100   0.9   124   0     976.2    NA       0.0000   -SN      9999  1970  0    
2019/03/06  17:21:00  BASE  2.68716  126  3.75144  125  0.9   100   0.9   124   0     976.2    NA       0.0000   -SN      9999  2200  4330 
2019/03/06  17:22:00  BASE  2.646    128  3.75144  125  0.9   100   0.9   123   0     976.2    NA       0.0000   -SN      9999  2620  0    
2019/03/06  17:23:00  BASE  2.75184  135  3.75144  125  1.0   100   1.0   122   0     976.2    NA       0.0000   -SN      9999  2200  0    
2019/03/06  17:24:00  BASE  2.71068  138  3.75144  125  1.0   100   1.0   123   0     976.2    NA       0.0000   -SN      9999  2130  0    
2019/03/06  17:25:00  BASE  2.8518   140  3.75144  125  1.0   100   1.0   124   0     976.2    NA       0.0000   -SN      9999  2620  0    
2019/03/06  17:26:00  BASE  2.72832  136  3.75144  125  1.0   100   1.0   126   0     976.2    NA       0.0000   -SN      9999  2660  0    
2019/03/06  17:27:00  BASE  2.29908  129  3.75144  125  1.0   100   1.0   127   0     976.3    NA       0.0000   -SN      9999  2660  0    
2019/03/06  17:28:00  BASE  1.98156  130  3.75144  125  1.0   100   1.0   128   0     976.3    NA       0.0000   -SN      9999  2620  0    
2019/03/06  17:29:00  BASE  1.91688  127  3.35748  143  1.0   100   1.0   128   0     976.4    NA       0.0000   -SN      9999  2720  0    
2019/03/06  17:30:00  BASE  1.911    123  3.35748  143  1.0   100   1.0   129   0     976.4    NA       0.0000   9999     2790  0     0    
2019/03/06  17:31:00  BASE  2.01096  130  3.35748  143  1.0   100   1.0   131   0     976.4    NA       0.0000   9999     2560  0     0    
2019/03/06  17:32:00  BASE  2.32848  139  3.35748  143  0.9   100   0.9   133   0     976.4    NA       0.0000   -SN      9999  2690  0    
2019/03/06  17:33:00  BASE  2.69304  142  3.35748  143  0.9   100   0.9   134   0     976.4    NA       0.0000   -SN      9999  2260  0    
2019/03/06  17:34:00  BASE  2.93412  136  3.35748  143  0.9   100   0.9   134   0     976.4    NA       0.0000   -SN      9999  2920  0    
2019/03/06  17:35:00  BASE  2.54604  132  3.48096  149  0.9   100   0.9   133   0     976.4    NA       0.0000   -SN      9999  2690  0    
2019/03/06  17:36:00  BASE  2.646    131  3.51036  127  0.9   100   0.9   132   0     976.4    NA       0.0000   -SN      9999  2000  0    
2019/03/06  17:37:00  BASE  2.8812   132  3.51036  127  0.9   100   0.9   131   0     976.4    NA       0.0000   -SN      9999  1540  0    
2019/03/06  17:38:00  BASE  2.34024  135  3.51036  127  0.8   100   0.8   129   0     976.4    NA       0.0000   -SN      9999  1250  0    
2019/03/06  17:39:00  BASE  1.77576  146  3.51036  127  0.8   100   0.8   127   0     976.4    NA       0.0000   -SN      9999  1610  0    
2019/03/06  17:40:00  BASE  1.62876  141  3.51036  127  0.9   100   0.9   125   0     976.4    NA       0.0000   -SN      9999  2660  0    
2019/03/06  17:41:00  BASE  1.95216  101  3.51036  127  0.9   100   0.9   123   0     976.4    NA       0.0000   -SN      9999  2790  0    
2019/03/06  17:42:00  BASE  1.92276  89   3.51036  127  1.0   100   1.0   121   0     976.5    NA       0.0000   -SN      9999  2530  0    
2019/03/06  17:43:00  BASE  1.42884  114  3.51036  127  1.1   100   1.1   120   0     976.5    NA       0.0000   -SN      9999  2560  0    
2019/03/06  17:44:00  BASE  1.05252  101  3.51036  127  1.3   100   1.3   118   0     976.6    NA       0.0000   -SN      9999  1970  0    
2019/03/06  17:45:00  BASE  1.56408  106  3.51036  127  1.3   100   1.3   116   0     976.5    NA       0.0000   -SN      9999  2690  0    
2019/03/06  17:46:00  BASE  2.40492  131  3.35748  148  1.3   100   1.3   114   0     976.5    NA       0.0000   -SN      9999  1900  0    
2019/03/06  17:47:00  BASE  2.32848  120  3.35748  148  1.3   100   1.3   113   0     976.5    NA       0.0000   -SN      9999  2760  0    
2019/03/06  17:48:00  BASE  2.2932   117  3.35748  148  1.2   100   1.2   112   0     976.6    NA       0.0000   -SN      9999  2760  0    
2019/03/06  17:49:00  BASE  2.8518   123  4.32768  107  1.2   100   1.2   111   0     976.6    NA       0.0000   -SN      9999  2660  0    
2019/03/06  17:50:00  BASE  2.96352  112  4.32768  107  1.2   100   1.2   111   0     976.6    NA       0.0000   -SN      9999  2760  0    
2019/03/06  17:51:00  BASE  2.14032  113  4.32768  107  1.2   100   1.2   110   0     976.6    NA       0.0000   -SN      9999  2720  0    
2019/03/06  17:52:00  BASE  1.84632  128  4.32768  107  1.2   100   1.2   109   0     976.7    NA       0.0000   -SN      9999  2660  0    
2019/03/06  17:53:00  BASE  1.95804  142  4.32768  107  1.1   100   1.1   108   0     976.7    NA       0.0000   -SN      9999  2620  0    
2019/03/06  17:54:00  BASE  1.24068  146  4.32768  107  1.1   100   1.1   107   0     976.7    NA       0.0000   -SN      9999  2660  0    
2019/03/06  17:55:00  BASE  1.12896  151  4.32768  107  1.1   100   1.1   106   0     976.7    NA       0.0000   -SN      9999  2660  0    
2019/03/06  17:56:00  BASE  1.98156  157  4.32768  107  1.1   100   1.1   105   0     976.7    NA       0.0000   -SN      9999  2660  0    
2019/03/06  17:57:00  BASE  2.48136  153  4.32768  107  1.1   100   1.1   104   0     976.7    NA       0.0000   -SN      9999  2560  0    
2019/03/06  17:58:00  BASE  2.25204  148  4.32768  107  1.0   100   1.0   103   0     976.7    NA       0.0000   -SN      9999  2690  0    
2019/03/06  17:59:00  BASE  1.95216  154  3.99252  107  1.0   100   1.0   103   0     976.7    NA       0.0000   -SN      9999  2660  0    
2019/03/06  18:00:00  BASE  1.8816   170  3.1458   150  1.0   100   1.0   103   0     976.7    NA       0.0000   -SN      9999  2620  0    
2019/03/06  18:01:00  BASE  1.98744  166  3.1458   150  0.9   100   0.9   103   0     976.8    NA       0.0000   -SN      9999  2620  0    
2019/03/06  18:02:00  BASE  2.39904  145  3.1458   150  1.0   100   1.0   102   0     976.8    NA       0.0000   -SN      9999  2490  0    
2019/03/06  18:03:00  BASE  2.76948  136  3.1458   150  0.9   100   0.9   102   0     976.8    NA       0.0000   -SN      9999  1250  2460 
2019/03/06  18:04:00  BASE  3.04584  140  3.69264  144  1.0   100   1.0   104   0     976.8    NA       0.0000   -SN      9999  2460  0    
2019/03/06  18:05:00  BASE  3.15756  146  3.69264  144  1.0   100   1.0   106   0     976.8    NA       0.0000   -SN      9999  2490  0    
2019/03/06  18:06:00  BASE  3.06348  154  3.69264  144  0.9   100   0.9   108   0     976.8    NA       0.0000   -SN      9999  2660  0    
2019/03/06  18:07:00  BASE  2.75772  154  3.69264  144  0.9   100   0.9   109   0     976.8    NA       0.0000   -SN      9999  2400  0    
2019/03/06  18:08:00  BASE  2.53428  152  3.69264  144  0.9   100   0.9   111   0     976.8    NA       0.0000   -SN      9999  2330  0    
2019/03/06  18:09:00  BASE  2.68716  158  3.69264  144  1.0   100   1.0   114   0     976.8    NA       0.0000   -SN      9999  2200  0    
2019/03/06  18:10:00  BASE  3.05172  163  3.83964  163  1.0   100   1.0   118   0     976.8    NA       0.0000   -SN      9999  2330  0    
2019/03/06  18:11:00  BASE  3.4104   161  3.83964  163  1.0   100   1.0   122   0     976.7    NA       0.0000   -SN      9999  2560  0    
2019/03/06  18:12:00  BASE  3.55152  159  3.96312  160  1.0   100   1.0   125   0     976.8    NA       0.0000   -SN      9999  2590  0    
2019/03/06  18:13:00  BASE  3.69852  156  4.08072  155  1.0   100   1.0   127   0     976.8    NA       0.0000   -SN      9999  2460  0    
2019/03/06  18:14:00  BASE  3.83376  153  4.1454   157  1.0   100   1.0   129   0     976.7    NA       0.0000   -SN      9999  2660  0    
2019/03/06  18:15:00  BASE  4.01604  154  4.29828  155  1.0   100   1.0   129   0     976.7    NA       0.0000   -SN      9999  2850  0    
2019/03/06  18:16:00  BASE  4.15716  153  4.38648  153  1.0   100   1.0   129   0     976.8    NA       0.0000   -SN      9999  2590  0    
2019/03/06  18:17:00  BASE  3.91608  153  4.38648  153  1.0   100   1.0   128   0     976.8    NA       0.0000   -SN      9999  2620  0    
2019/03/06  18:18:00  BASE  3.61032  153  4.38648  153  1.0   100   1.0   126   0     976.8    NA       0.0000   -SN      9999  2720  0    
2019/03/06  18:19:00  BASE  3.675    150  4.62756  141  1.0   100   1.0   125   0     976.8    NA       0.0000   -SN      9999  2620  0    
2019/03/06  18:20:00  BASE  4.1454   148  4.99212  152  1.0   100   1.0   124   0     976.8    NA       0.0000   -SN      9999  2530  0    
2019/03/06  18:21:00  BASE  4.6452   147  5.05092  140  1.0   100   1.0   123   0     976.8    NA       0.0000   -SN      8000  2560  0    
2019/03/06  18:22:00  BASE  4.72752  144  5.05092  141  0.9   100   0.9   123   0     976.8    NA       0.0000   -SN      7000  2490  0    
2019/03/06  18:23:00  BASE  4.45116  142  5.05092  141  0.9   100   0.9   123   0     976.8    NA       0.0000   -SN      7000  2530  0    
2019/03/06  18:24:00  BASE  4.21008  142  5.05092  141  0.9   100   0.9   125   0     976.8    NA       0.0000   -SN      9999  2690  0    
2019/03/06  18:25:00  BASE  4.15128  139  5.05092  141  0.9   100   0.9   127   0     976.9    NA       0.0000   -SN      9999  2690  0    
2019/03/06  18:26:00  BASE  3.89844  137  5.05092  141  0.8   100   0.8   130   0     976.9    NA       0.0000   -SN      9999  2720  0    
2019/03/06  18:27:00  BASE  3.77496  137  5.05092  141  0.8   100   0.8   134   0     976.9    NA       0.0000   -SN      9999  2720  0    
2019/03/06  18:28:00  BASE  3.83376  129  5.05092  141  0.8   100   0.8   138   0     977.0    NA       0.0000   -SN      9999  2720  0    
2019/03/06  18:29:00  BASE  3.84552  128  5.05092  141  0.9   100   0.9   141   0     977.0    NA       0.0000   -SN      9999  1350  0    
2019/03/06  18:30:00  BASE  3.84552  138  5.05092  141  0.9   100   0.9   147   0     977.0    NA       0.0000   -SN      9999  2030  0    
2019/03/06  18:31:00  BASE  3.56916  143  5.05092  141  0.9   100   0.9   155   0     977.0    NA       0.0000   -SN      9999  2790  0    
2019/03/06  18:32:00  BASE  3.56916  147  4.80984  145  0.9   100   0.9   166   0     977.0    NA       0.0000   -SN      9999  2790  0    
2019/03/06  18:33:00  BASE  3.7632   151  4.68636  145  0.9   100   0.9   177   0     977.0    NA       0.0000   -SN      9999  2850  0    
2019/03/06  18:34:00  BASE  3.55152  148  4.68636  145  1.0   100   1.0   190   0     977.0    NA       0.0000   9999     2990  0     0    
2019/03/06  18:35:00  BASE  3.53976  140  4.68636  145  1.0   100   1.0   202   0     977.0    NA       0.0000   9999     2920  22080 0    
2019/03/06  18:36:00  BASE  3.52212  137  4.68636  145  1.0   100   1.0   209   0     977.0    NA       0.0000   9999     2890  0     0    
2019/03/06  18:37:00  BASE  3.42216  138  4.56876  117  1.0   100   1.0   213   0     977.0    NA       0.0000   9999     2300  0     0    
2019/03/06  18:38:00  BASE  3.59856  135  4.47468  140  1.0   100   1.0   210   0     977.0    NA       0.0000   9999     2920  0     0    
2019/03/06  18:39:00  BASE  4.13364  136  5.1744   137  1.0   100   1.0   203   0     977.0    NA       0.0000   9999     1570  2990  0    
2019/03/06  18:40:00  BASE  4.27476  140  5.1744   137  0.9   100   0.9   191   0     977.0    NA       0.0000   9999     2130  0     0    
2019/03/06  18:41:00  BASE  3.8514   145  5.1744   137  0.9   100   0.9   177   0     977.0    NA       0.0000   9999     2100  0     0    
2019/03/06  18:42:00  BASE  3.68676  147  5.1744   137  0.9   100   0.9   163   0     977.1    NA       0.0000   9999     1740  0     0    
2019/03/06  18:43:00  BASE  3.65148  143  5.1744   137  0.9   100   0.9   150   0     977.1    NA       0.0000   -SN      9999  1710  0    
2019/03/06  18:44:00  BASE  3.32808  142  5.1744   137  0.9   100   0.9   140   0     977.1    NA       0.0000   -SN      9999  1380  0    
2019/03/06  18:45:00  BASE  2.793    145  5.1744   137  1.0   100   1.0   131   0     977.1    NA       0.0000   -SN      9999  1210  0    
2019/03/06  18:46:00  BASE  2.45196  137  5.1744   137  1.0   100   1.0   124   0     977.2    NA       0.0000   -SN      9999  2260  2920 
2019/03/06  18:47:00  BASE  2.33436  123  5.1744   137  1.0   100   1.0   119   0     977.2    NA       0.0000   -SN      9999  1870  0    
2019/03/06  18:48:00  BASE  2.52252  117  5.1744   137  1.1   100   1.1   116   0     977.2    NA       0.0000   -SN      9999  1800  0    
2019/03/06  18:49:00  BASE  2.66364  120  4.86864  139  1.1   100   1.1   115   0     977.2    NA       0.0000   -SN      9999  1870  0    
2019/03/06  18:50:00  BASE  2.53428  130  4.2042   145  1.1   100   1.1   115   0     977.2    NA       0.0000   -SN      9999  2070  2790 
2019/03/06  18:51:00  BASE  2.86944  135  4.2042   145  1.0   100   1.0   115   0     977.2    NA       0.0000   -SN      9999  2790  0    
2019/03/06  18:52:00  BASE  3.62796  135  4.44528  140  1.0   100   1.0   114   0     977.2    NA       0.0000   -SN      9999  2820  0    
2019/03/06  18:53:00  BASE  3.98076  140  4.44528  140  1.0   100   1.0   113   0     977.2    NA       0.0000   -SN      9000  2200  0    
2019/03/06  18:54:00  BASE  3.7338   144  4.44528  140  0.9   100   0.9   112   0     977.2    NA       0.0000   -SN      9999  2360  0    
2019/03/06  18:55:00  BASE  3.31044  150  4.44528  140  1.0   100   1.0   113   0     977.3    NA       0.0000   -SN      9999  1840  2820 
2019/03/06  18:56:00  BASE  3.37512  153  4.44528  140  1.0   100   1.0   115   0     977.3    NA       0.0000   -SN      9999  2920  0    
2019/03/06  18:57:00  BASE  3.33984  148  4.44528  140  1.0   100   1.0   117   0     977.3    NA       0.0000   -SN      9999  2100  0    
2019/03/06  18:58:00  BASE  2.94588  143  4.44528  140  1.0   100   1.0   119   0     977.3    NA       0.0000   -SN      9999  1480  1870 
2019/03/06  18:59:00  BASE  2.90472  145  4.44528  140  1.0   100   1.0   122   0     977.3    NA       0.0000   -SN      9999  1770  0    
2019/03/06  19:00:00  BASE  2.94588  150  4.44528  140  1.0   100   1.0   127   0     977.3    NA       0.0000   -SN      9999  2790  0    
2019/03/06  19:01:00  BASE  2.88708  158  4.44528  140  1.0   100   1.0   131   0     977.3    NA       0.0000   -SN      9999  2790  0    
2019/03/06  19:02:00  BASE  3.19284  170  4.65696  173  1.0   100   1.0   132   0     977.2    NA       0.0000   -SN      9999  2260  0    
2019/03/06  19:03:00  BASE  3.62208  170  4.65696  173  1.0   100   1.0   132   0     977.2    NA       0.0000   -SN      9999  2620  0    
2019/03/06  19:04:00  BASE  3.75732  152  4.68636  142  1.0   100   1.0   130   0     977.3    NA       0.0000   9999     2890  0     0    
2019/03/06  19:05:00  BASE  3.88668  121  4.80984  113  1.1   100   1.1   126   0     977.3    NA       0.0000   9999     2620  0     0    
2019/03/06  19:06:00  BASE  2.92824  113  4.80984  113  1.1   100   1.1   120   0     977.4    NA       0.0000   9999     2920  0     0    
2019/03/06  19:07:00  BASE  2.11092  151  4.80984  113  1.1   100   1.1   113   0     977.3    NA       0.0000   9999     2850  0     0    
2019/03/06  19:08:00  BASE  2.24616  156  4.80984  113  1.1   100   1.1   106   0     977.4    NA       0.0000   9999     2820  0     0    
2019/03/06  19:09:00  BASE  1.8228   98   4.80984  113  1.1   100   1.1   99    0     977.4    NA       0.0000   9999     2850  0     0    
2019/03/06  19:10:00  BASE  1.95216  58   4.80984  113  1.2   100   1.2   93    0     977.4    NA       0.0000   9999     2890  0     0    
2019/03/06  19:11:00  BASE  1.56408  65   4.80984  113  1.3   100   1.3   87    0     977.4    NA       0.0000   9999     3150  0     0    
2019/03/06  19:12:00  BASE  0.48804  165  4.80984  113  1.3   100   1.3   82    0     977.4    NA       0.0000   9999     1900  21790 0    
2019/03/06  19:13:00  BASE  1.12896  140  4.80984  113  1.4   100   1.4   78    0     977.5    NA       0.0000   9999     2920  0     0    
2019/03/06  19:14:00  BASE  2.28732  64   4.80984  113  1.4   100   1.4   74    0     977.5    NA       0.0000   9999     2920  0     0    
2019/03/06  19:15:00  BASE  2.26968  44   4.41588  32   1.5   100   1.5   71    0     977.5    NA       0.0000   9999     2850  0     0    
2019/03/06  19:16:00  BASE  1.9992   17   4.41588  32   1.5   100   1.5   68    0     977.6    NA       0.0000   9999     2100  0     0    
2019/03/06  19:17:00  BASE  2.1756   21   4.41588  32   1.6   100   1.6   66    0     977.6    NA       0.0000   9999     2000  0     0    
2019/03/06  19:18:00  BASE  2.21676  39   4.41588  32   1.7   100   1.7   64    0     977.6    NA       0.0000   9999     2230  0     0    
2019/03/06  19:19:00  BASE  1.42296  52   4.41588  32   1.7   100   1.7   65    0     977.6    NA       0.0000   9999     2790  0     0    
2019/03/06  19:20:00  BASE  0.92904  131  4.41588  32   1.7   100   1.7   66    0     977.6    NA       0.0000   9999     2330  0     0    
2019/03/06  19:21:00  BASE  1.22304  153  4.41588  32   1.7   100   1.7   67    0     977.6    NA       0.0000   9999     1940  0     0    
2019/03/06  19:22:00  BASE  1.4112   154  4.41588  32   1.7   100   1.7   69    0     977.6    NA       0.0000   9999     2820  0     0    
2019/03/06  19:23:00  BASE  1.43472  152  3.93372  53   1.6   100   1.6   70    0     977.6    NA       0.0000   9999     2790  0     0    
2019/03/06  19:24:00  BASE  1.44648  147  3.48096  62   1.6   100   1.6   72    0     977.7    NA       0.0000   9999     2030  0     0    
2019/03/06  19:25:00  BASE  1.27008  133  3.48096  62   1.5   100   1.5   74    0     977.7    NA       0.0000   9999     1870  0     0    
2019/03/06  19:26:00  BASE  0.98196  130  3.48096  62   1.5   100   1.5   76    0     977.7    NA       0.0000   9999     2760  0     0    
2019/03/06  19:27:00  BASE  0.89376  141  3.02232  56   1.5   100   1.5   78    0     977.7    NA       0.0000   9999     2890  0     0    
2019/03/06  19:28:00  BASE  0.8232   151  1.57584  144  1.5   100   1.5   79    0     977.7    NA       0.0000   9999     0     0     0    
2019/03/06  19:29:00  BASE  0.7938   166  1.57584  144  1.5   100   1.5   79    0     977.8    NA       0.0000   9999     1770  0     0    
2019/03/06  19:30:00  BASE  0.44688  158  1.57584  144  1.4   100   1.4   78    0     977.8    NA       0.0000   9999     3410  0     0    
2019/03/06  19:31:00  BASE  0.12936  141  1.57584  144  1.4   100   1.4   76    0     977.8    NA       0.0000   9999     0     0     0    
2019/03/06  19:32:00  BASE  0.6468   159  1.57584  144  1.4   100   1.4   76    0     977.8    NA       0.0000   9999     0     0     0    
2019/03/06  19:33:00  BASE  1.32888  120  2.0874   30   1.4   100   1.4   75    0     977.9    NA       0.0000   UP       9999  0     0    
2019/03/06  19:34:00  BASE  1.38768  57   2.69304  32   1.4   100   1.4   74    0     977.8    NA       0.0000   UP       9999  2490  0    
2019/03/06  19:35:00  BASE  1.30536  95   2.69304  32   1.4   100   1.4   74    0     977.9    NA       0.0000   UP       9999  0     0    
2019/03/06  19:36:00  BASE  0.89376  131  2.69304  32   1.4   100   1.4   77    0     977.9    NA       0.0000   UP       9999  2720  0    
2019/03/06  19:37:00  BASE  0.18816  161  2.69304  32   1.5   100   1.5   80    0     977.9    NA       0.0000   UP       9999  0     0    
2019/03/06  19:38:00  BASE  0.42336  194  2.69304  32   1.5   100   1.5   83    0     977.8    NA       0.0000   UP       9999  0     0    
2019/03/06  19:39:00  BASE  1.16424  194  2.69304  32   1.4   100   1.4   86    0     977.8    NA       0.0000   UP       9999  0     0    
2019/03/06  19:40:00  BASE  1.60524  193  2.69304  32   1.4   100   1.4   88    0     977.9    NA       0.0000   UP       9999  0     0    
2019/03/06  19:41:00  BASE  1.54056  194  2.69304  32   1.4   100   1.4   91    0     977.9    NA       0.0000   UP       9999  0     0    
2019/03/06  19:42:00  BASE  1.36416  193  2.69304  32   1.4   100   1.4   91    0     977.9    NA       0.0000   UP       9999  0     0    
2019/03/06  19:43:00  BASE  1.51116  192  2.69304  32   1.4   100   1.4   89    0     977.9    NA       0.0000   UP       9999  0     0    
2019/03/06  19:44:00  BASE  1.38768  185  1.96392  186  1.4   100   1.4   87    0     977.9    NA       0.0000   UP       9999  2530  0    
2019/03/06  19:45:00  BASE  1.47     173  2.0874   166  1.4   100   1.4   86    0     977.9    NA       0.0000   UP       9999  1540  2820 
2019/03/06  19:46:00  BASE  1.75812  169  2.0874   166  1.4   100   1.4   84    0     977.9    NA       0.0000   UP       9999  0     0    
2019/03/06  19:47:00  BASE  1.176    173  2.0874   166  1.4   100   1.4   81    0     977.9    NA       0.0000   UP       9999  950   0    
2019/03/06  19:48:00  BASE  0.31752  196  2.0874   166  1.5   100   1.5   79    0     977.9    NA       0.0000   UP       9999  0     0    
2019/03/06  19:49:00  BASE  0.441    203  2.0874   166  1.4   100   1.4   81    0     977.9    NA       0.0000   UP       9999  0     0    
2019/03/06  19:50:01  BASE  0.51744  181  2.0874   166  1.4   100   1.4   84    0     977.9    NA       0.0000   UP       9999  1670  0    
2019/03/06  19:51:00  BASE  0.19404  126  2.0874   166  1.5   100   1.5   86    0     977.9    NA       0.0000   UP       9999  980   0    
2019/03/06  19:52:00  BASE  0.72912  121  2.0874   166  1.5   100   1.5   86    0     977.9    NA       0.0000   UP       9999  1120  0    
2019/03/06  19:53:00  BASE  0.82908  150  2.0874   166  1.5   100   1.5   86    0     977.9    NA       0.0000   UP       9999  1210  0    
2019/03/06  19:54:00  BASE  0.60564  171  2.0874   166  1.6   100   1.6   85    0     977.9    NA       0.0000   UP       9999  1840  0    
2019/03/06  19:55:00  BASE  1.28184  207  1.96392  228  1.6   100   1.6   85    0     977.9    NA       0.0000   UP       9999  1440  0    
2019/03/06  19:56:01  BASE  1.85808  223  2.29908  228  1.6   100   1.6   86    0     977.9    NA       0.0000   UP       9999  1480  0    
2019/03/06  19:57:00  BASE  2.06976  221  2.99292  215  1.5   100   1.5   86    0     977.9    NA       0.0000   UP       9999  1770  0    
2019/03/06  19:58:00  BASE  2.37552  199  3.1164   166  1.5   100   1.5   86    0     977.9    NA       0.0000   UP       9999  2260  0    
2019/03/06  19:59:00  BASE  2.74596  181  3.53976  180  1.5   100   1.5   86    0     977.9    NA       0.0000   UP       9999  2170  0    
2019/03/06  20:00:00  BASE  3.12228  181  3.75144  178  1.5   100   1.5   86    0     977.9    NA       0.0000   UP       9999  3480  0    
2019/03/06  20:01:00  BASE  3.08112  187  3.75144  178  1.5   100   1.5   86    0     977.9    NA       0.0000   9999     2790  0     0    
2019/03/06  20:02:00  BASE  2.98116  193  3.75144  178  1.4   100   1.4   85    0     977.9    NA       0.0000   9999     2760  0     0    
2019/03/06  20:03:00  BASE  2.9988   193  3.75144  178  1.4   100   1.4   84    0     977.9    NA       0.0000   9999     3150  0     0    
2019/03/06  20:04:00  BASE  2.64012  185  3.75144  178  1.4   100   1.4   83    0     977.9    NA       0.0000   9999     3580  0     0    
2019/03/06  20:05:00  BASE  2.205    174  3.75144  178  1.4   100   1.4   81    0     977.9    NA       0.0000   9999     3710  0     0    
2019/03/06  20:06:00  BASE  2.0874   165  3.75144  178  1.4   100   1.4   79    0     977.9    NA       0.0000   9999     2790  0     0    
2019/03/06  20:07:00  BASE  2.0874   161  3.75144  178  1.4   100   1.4   77    0     977.9    NA       0.0000   9999     3050  0     0    
2019/03/06  20:08:00  BASE  2.74008  156  4.1454   154  1.4   100   1.4   75    0     977.9    NA       0.0000   9999     3740  0     0    
2019/03/06  20:09:00  BASE  3.822    151  4.29828  151  1.5   100   1.5   73    0     977.9    NA       0.0000   9999     3120  0     0    
2019/03/06  20:10:00  BASE  3.95724  153  4.29828  151  1.4   100   1.4   72    0     977.9    NA       0.0000   9999     3870  0     0    
2019/03/06  20:11:00  BASE  3.83964  155  4.35708  151  1.4   100   1.4   71    0     977.9    NA       0.0000   9999     1970  3580  0    
2019/03/06  20:12:00  BASE  3.85728  156  4.35708  151  1.4   100   1.4   69    0     978.0    NA       0.0000   9999     2100  3900  22670
2019/03/06  20:13:00  BASE  3.85728  149  4.59816  146  1.4   100   1.4   68    0     978.0    NA       0.0000   9999     1710  0     0    
2019/03/06  20:14:00  BASE  3.85728  148  4.59816  146  1.4   100   1.4   67    0     978.0    NA       0.0000   9999     1840  3480  0    
2019/03/06  20:15:00  BASE  2.94     158  4.59816  146  1.4   100   1.4   66    0     978.1    NA       0.0000   9999     3450  0     0    
2019/03/06  20:16:00  BASE  1.89336  175  4.59816  146  1.5   100   1.5   65    0     978.0    NA       0.0000   9999     3220  0     0    
2019/03/06  20:17:00  BASE  1.764    180  4.59816  146  1.5   100   1.5   63    0     978.0    NA       0.0000   9999     4200  0     0    
2019/03/06  20:18:00  BASE  2.72832  153  4.59816  146  1.5   100   1.5   61    0     978.1    NA       0.0000   9999     1870  0     0    
2019/03/06  20:19:00  BASE  3.6162   131  4.59816  146  1.6   100   1.6   60    0     978.1    NA       0.0000   9999     1740  0     0    
2019/03/06  20:20:00  BASE  3.69264  134  4.59816  146  1.6   100   1.6   59    0     978.1    NA       0.0000   9999     2820  0     0    
2019/03/06  20:21:00  BASE  3.7044   142  4.59816  146  1.6   100   1.6   58    0     978.1    NA       0.0000   9999     3840  4400  0    
2019/03/06  20:22:00  BASE  3.98664  146  4.65696  154  1.6   100   1.6   58    0     978.1    NA       0.0000   9999     3180  0     0    
2019/03/06  20:23:00  BASE  4.07484  147  4.65696  154  1.5   100   1.5   57    0     978.1    NA       0.0000   9999     3940  0     0    
2019/03/06  20:24:00  BASE  3.54564  148  4.65696  154  1.5   100   1.5   56    0     978.2    NA       0.0000   9999     1900  3940  0    
2019/03/06  20:25:00  BASE  3.4986   153  4.65696  154  1.4   100   1.4   56    0     978.2    NA       0.0000   9999     1940  4040  0    
2019/03/06  20:26:00  BASE  3.69852  160  4.65696  154  1.4   100   1.4   56    0     978.1    NA       0.0000   9999     2530  3940  0    
2019/03/06  20:27:00  BASE  3.38688  144  4.65696  154  1.4   100   1.4   56    0     978.2    NA       0.0000   9999     1800  0     0    
2019/03/06  20:28:00  BASE  3.29868  115  4.65696  154  1.4   100   1.4   56    0     978.2    NA       0.0000   9999     3710  0     0    
2019/03/06  20:29:00  BASE  2.97528  119  4.65696  154  1.4   100   1.4   56    0     978.2    NA       0.0000   9999     4100  0     0    
2019/03/06  20:30:00  BASE  2.84004  130  4.65696  154  1.5   100   1.5   56    0     978.2    NA       0.0000   9999     3810  0     0    
2019/03/06  20:31:00  BASE  3.47508  127  4.80984  122  1.5   100   1.5   54    0     978.2    NA       0.0000   9999     1670  4070  0    
2019/03/06  20:32:00  BASE  4.23948  124  5.47428  128  1.6   100   1.6   53    0     978.2    NA       0.0000   9999     1710  4000  0    
2019/03/06  20:33:00  BASE  5.12736  124  6.02112  134  1.6   100   1.6   50    0     978.2    NA       0.0000   9999     2030  4100  0    
2019/03/06  20:34:00  BASE  5.46252  125  6.02112  134  1.5   100   1.5   49    0     978.3    NA       0.0000   9999     1800  4040  0    
2019/03/06  20:35:00  BASE  5.28024  122  6.02112  134  1.5   100   1.5   48    0     978.3    NA       0.0000   9999     3940  0     0    
2019/03/06  20:36:00  BASE  4.78632  126  6.02112  134  1.4   100   1.4   47    0     978.3    NA       0.0000   9999     4040  0     0    
2019/03/06  20:37:00  BASE  4.4394   150  6.02112  134  1.3   100   1.3   46    0     978.2    NA       0.0000   9999     3180  0     0    
2019/03/06  20:38:00  BASE  4.4982   167  6.02112  134  1.3   100   1.3   46    0     978.3    NA       0.0000   9999     3970  0     0    
2019/03/06  20:39:00  BASE  3.88668  156  6.02112  134  1.3   100   1.3   45    0     978.4    NA       0.0000   9999     1940  4130  0    
2019/03/06  20:40:00  BASE  3.68676  130  6.02112  134  1.3   100   1.3   45    0     978.4    NA       0.0000   9999     1870  4230  0    
2019/03/06  20:41:00  BASE  4.26888  114  6.02112  134  1.3   100   1.3   44    0     978.4    NA       0.0000   9999     4100  0     0    
2019/03/06  20:42:00  BASE  4.28064  122  6.02112  134  1.2   100   1.2   43    0     978.4    NA       0.0000   9999     4070  0     0    
2019/03/06  20:43:00  BASE  4.3218   131  5.83884  120  1.2   100   1.2   42    0     978.4    NA       0.0000   9999     4000  0     0    
2019/03/06  20:44:00  BASE  4.89216  122  5.65656  110  1.2   100   1.2   42    0     978.5    NA       0.0000   9999     4070  0     0    
2019/03/06  20:45:00  BASE  5.18028  119  5.65656  110  1.2   100   1.2   42    0     978.5    NA       0.0000   9999     4100  0     0    
2019/03/06  20:46:00  BASE  5.06856  140  5.65656  110  1.2   100   1.2   41    0     978.4    NA       0.0000   9999     4040  0     0    
2019/03/06  20:47:00  BASE  4.704    167  5.65656  110  1.1   100   1.1   40    0     978.3    NA       0.0000   9999     4100  0     0    
2019/03/06  20:48:00  BASE  3.83376  175  5.65656  110  1.1   100   1.1   40    0     978.4    NA       0.0000   9999     4100  0     0    
2019/03/06  20:49:00  BASE  3.44568  159  5.65656  110  1.2   100   1.2   39    0     978.5    NA       0.0000   9999     3970  0     0    
2019/03/06  20:50:00  BASE  4.07484  139  5.65656  110  1.1   100   1.1   38    0     978.5    NA       0.0000   9999     3940  24410 0    
2019/03/06  20:51:00  BASE  5.26848  131  6.2622   128  1.1   100   1.1   38    0     978.5    NA       0.0000   9999     1800  4000  0    
2019/03/06  20:52:00  BASE  6.18576  134  6.86784  136  1.1   100   1.1   37    0     978.5    NA       0.0000   9999     1740  4130  0    
2019/03/06  20:53:00  BASE  5.95644  143  6.86784  136  1.1   100   1.1   37    0     978.5    NA       0.0000   9999     1610  4100  0    
2019/03/06  20:54:00  BASE  5.0568   145  6.86784  136  1.1   100   1.1   37    0     978.6    NA       0.0000   9999     1640  4170  0    
2019/03/06  20:55:00  BASE  4.73928  135  6.86784  136  1.1   100   1.1   36    0     978.6    NA       0.0000   9999     3940  0     0    
2019/03/06  20:56:00  BASE  4.66284  127  6.86784  136  1.1   100   1.1   35    0     978.6    NA       0.0000   9999     3900  0     0    
2019/03/06  20:57:00  BASE  4.09836  130  6.86784  136  1.1   100   1.1   35    0     978.6    NA       0.0000   9999     3870  0     0    
2019/03/06  20:58:00  BASE  3.89844  134  6.86784  136  1.1   100   1.1   34    0     978.7    NA       0.0000   9999     3770  0     0    
2019/03/06  20:59:00  BASE  4.16892  133  6.86784  136  1.1   100   1.1   34    0     978.7    NA       0.0000   9999     3740  0     0    
2019/03/06  21:00:00  BASE  4.5864   132  6.86784  136  1.1   100   1.1   34    0     978.7    NA       0.0000   9999     3740  0     0    
2019/03/06  21:01:00  BASE  4.91568  134  6.86784  136  1.1   100   1.1   35    0     978.7    NA       0.0000   9999     3380  0     0    
2019/03/06  21:02:00  BASE  5.01564  140  5.95644  148  1.1   100   1.1   35    0     978.6    NA       0.0000   9999     3610  0     0    
2019/03/06  21:03:00  BASE  4.69812  142  5.68596  134  1.1   100   1.1   36    0     978.7    NA       0.0000   9999     3150  0     0    
2019/03/06  21:04:00  BASE  4.16304  141  5.68596  134  1.2   100   1.2   35    0     978.8    NA       0.0000   9999     3670  0     0    
2019/03/06  21:05:00  BASE  4.01604  131  5.68596  134  1.2   100   1.2   35    0     978.9    NA       0.0000   9999     3640  0     0    
2019/03/06  21:06:00  BASE  4.01016  119  5.68596  134  1.2   100   1.2   34    0     978.9    NA       0.0000   9999     3640  0     0    
2019/03/06  21:07:00  BASE  4.03956  119  5.68596  134  1.2   100   1.2   34    0     978.9    NA       0.0000   9999     3710  0     0    
2019/03/06  21:08:00  BASE  3.66912  128  5.68596  134  1.2   100   1.2   33    0     978.9    NA       0.0000   9999     3610  0     0    
2019/03/06  21:09:00  BASE  3.12228  137  5.68596  134  1.2   100   1.2   33    0     978.9    NA       0.0000   9999     3640  0     0    
2019/03/06  21:10:00  BASE  2.81652  138  5.65656  136  1.2   100   1.2   33    0     978.9    NA       0.0000   9999     3670  0     0    
2019/03/06  21:11:00  BASE  2.49312  135  5.59776  137  1.2   100   1.2   32    0     979.0    NA       0.0000   9999     3510  0     0    
2019/03/06  21:12:00  BASE  3.09288  129  5.05092  145  1.2   100   1.2   32    0     979.0    NA       0.0000   9999     3900  0     0    
2019/03/06  21:13:00  BASE  3.91608  125  4.53936  120  1.2   100   1.2   31    0     979.0    NA       0.0000   9999     3940  4660  0    
2019/03/06  21:14:00  BASE  4.02192  124  4.53936  120  1.2   100   1.2   31    0     979.0    NA       0.0000   9999     4100  4690  0    
2019/03/06  21:15:00  BASE  4.12188  125  4.59816  135  1.2   100   1.2   30    0     979.0    NA       0.0000   9999     3900  0     0    
2019/03/06  21:16:00  BASE  3.90432  132  4.59816  135  1.2   100   1.2   30    0     979.0    NA       0.0000   9999     3770  0     0    
2019/03/06  21:17:00  BASE  3.95136  134  4.65696  133  1.2   100   1.2   29    0     979.0    NA       0.0000   9999     3640  0     0    
2019/03/06  21:18:00  BASE  3.95136  129  4.65696  133  1.2   100   1.2   29    0     979.1    NA       0.0000   9999     3740  0     0    
2019/03/06  21:19:00  BASE  3.59268  123  4.65696  133  1.2   100   1.2   28    0     979.1    NA       0.0000   9999     3640  0     0    
2019/03/06  21:20:00  BASE  3.36924  128  4.65696  133  1.2   100   1.2   28    0     979.1    NA       0.0000   9999     3670  0     0    
2019/03/06  21:21:00  BASE  3.5868   133  4.65696  133  1.2   100   1.2   28    0     979.1    NA       0.0000   9999     3770  0     0    
2019/03/06  21:22:00  BASE  3.95136  132  4.68636  134  1.2   100   1.2   27    0     979.1    NA       0.0000   9999     3770  0     0    
2019/03/06  21:23:00  BASE  3.74556  133  4.68636  134  1.2   100   1.2   27    0     979.1    NA       0.0000   9999     3900  0     0    
2019/03/06  21:24:00  BASE  3.38688  135  4.68636  134  1.2   100   1.2   27    0     979.1    NA       0.0000   9999     3940  0     0    
2019/03/06  21:25:00  BASE  3.24576  135  4.68636  134  1.2   100   1.2   27    0     979.1    NA       0.0000   9999     3870  0     0    
2019/03/06  21:26:00  BASE  3.55152  131  4.68636  134  1.2   100   1.2   26    0     979.1    NA       0.0000   9999     3970  0     0    
2019/03/06  21:27:00  BASE  3.675    134  4.68636  134  1.2   100   1.2   26    0     979.1    NA       0.0000   9999     4000  0     0    
2019/03/06  21:28:00  BASE  3.5574   137  4.68636  134  1.2   100   1.2   26    0     979.1    NA       0.0000   9999     4200  0     0    
2019/03/06  21:29:00  BASE  3.822    126  4.68636  134  1.2   100   1.2   26    0     979.1    NA       0.0000   9999     4000  0     0    
2019/03/06  21:30:00  BASE  3.01644  101  4.68636  134  1.2   100   1.2   25    0     979.2    NA       0.0000   9999     3900  0     0    
2019/03/06  21:31:00  BASE  2.45784  107  4.68636  134  1.2   100   1.2   25    0     979.2    NA       0.0000   9999     3870  0     0    
2019/03/06  21:32:00  BASE  2.6754   130  4.53936  107  1.2   100   1.2   25    0     979.2    NA       0.0000   9999     3810  0     0    
2019/03/06  21:33:00  BASE  2.14032  123  4.53936  107  1.2   100   1.2   25    0     979.2    NA       0.0000   9999     4040  0     0    
2019/03/06  21:36:00  BASE  M        M    M        M    1.2   100   1.2   24    0     M        NA       0.0000   9999     4040  0     0    
2019/03/06  21:37:00  BASE  2.8518   63   0        M    1.3   100   1.3   24    0     979.3    NA       0.0000   9999     3940  0     0    
2019/03/06  21:38:00  BASE  2.18148  33   0        M    1.4   100   1.4   24    0     979.3    NA       0.0000   9999     3940  0     0    
2019/03/06  21:39:00  BASE  2.69892  53   0        M    1.5   100   1.5   24    0     979.3    NA       0.0000   9999     3900  0     0    
2019/03/06  21:40:00  BASE  3.63972  84   0        M    1.7   100   1.7   24    0     979.3    NA       0.0000   9999     3970  0     0    
2019/03/06  21:41:00  BASE  2.44608  66   0        M    1.8   100   1.8   24    0     979.3    NA       0.0000   9999     4040  0     0    
2019/03/06  21:42:00  BASE  1.029    57   0        M    1.9   100   1.9   23    0     979.3    NA       0.0000   9999     3870  0     0    
2019/03/06  21:43:00  BASE  0.98784  155  0        M    2.0   100   2.0   23    0     979.4    NA       0.0000   9999     3150  0     0    
2019/03/06  21:44:00  BASE  1.50528  127  5.41548  104  2.0   100   2.0   23    0     979.3    NA       0.0000   9999     3120  0     0    
2019/03/06  21:45:00  BASE  2.01096  112  5.41548  104  2.0   100   2.0   23    0     979.4    NA       0.0000   9999     3870  0     0    
2019/03/06  21:46:00  BASE  2.1168   103  5.41548  104  2.0   100   2.0   22    0     979.5    NA       0.0000   9999     3120  0     0    
2019/03/06  21:47:01  BASE  1.51116  101  5.41548  104  1.9   100   1.9   22    0     979.5    NA       0.0000   9999     3870  0     0    
2019/03/06  21:48:00  BASE  1.7052   132  5.41548  104  1.9   100   1.9   22    0     979.5    NA       0.0000   9999     3770  0     0    
2019/03/06  21:49:00  BASE  2.12268  116  5.41548  104  1.9   100   1.9   21    0     979.5    NA       0.0000   9999     3810  0     0    
2019/03/06  21:50:00  BASE  1.47     88   3.26928  142  1.9   100   1.9   21    0     979.5    NA       0.0000   9999     3870  0     0    
2019/03/06  21:51:00  BASE  1.95216  96   3.81024  60   1.9   100   1.9   21    0     979.5    NA       0.0000   9999     3870  0     0    
2019/03/06  21:52:01  BASE  2.5284   132  3.81024  60   1.9   100   1.9   21    0     979.5    NA       0.0000   9999     3870  0     0    
2019/03/06  21:53:00  BASE  1.89336  121  3.81024  60   1.9   100   1.9   21    0     979.6    NA       0.0000   9999     2890  0     0    
2019/03/06  21:54:00  BASE  1.16424  112  3.81024  60   1.9   100   1.9   21    0     979.6    NA       0.0000   9999     4040  0     0    
2019/03/06  21:55:00  BASE  0.90552  145  3.81024  60   1.9   100   1.9   21    0     979.6    NA       0.0000   9999     2990  0     0    
2019/03/06  21:56:00  BASE  0.5586   162  3.81024  60   1.8   100   1.8   21    0     979.6    NA       0.0000   9999     2620  0     0    
2019/03/06  21:57:00  BASE  0.68796  181  3.81024  60   1.7   100   1.7   21    0     979.6    NA       0.0000   9999     3840  0     0    
2019/03/06  21:58:00  BASE  1.32888  186  3.81024  60   1.6   100   1.6   21    0     979.6    NA       0.0000   9999     3900  0     0    
2019/03/06  21:59:00  BASE  1.51704  186  3.81024  60   1.6   100   1.6   21    0     979.6    NA       0.0000   9999     3970  0     0    
2019/03/06  22:00:00  BASE  1.28772  177  3.81024  60   1.5   100   1.5   21    0     979.6    NA       0.0000   9999     4430  0     0    
2019/03/06  22:01:01  BASE  0.77616  154  2.99292  166  1.4   100   1.4   20    0     979.6    NA       0.0000   9999     2850  0     0    
2019/03/06  22:02:01  BASE  0.63504  101  2.69304  81   1.4   100   1.4   20    0     979.7    NA       0.0000   9999     2990  0     0    
2019/03/06  22:25:28  BASE  M        M    M        M    1.4   100   1.4   M     M     M        NA       0.0000   M        M     M     M    
2019/03/06  22:25:33  BASE  M        M    M        M    1.4   100   1.4   M     M     M        NA       0.0000   M        M     M     M    
2019/03/06  22:26:00  BASE  M        M    M        M    1.4   100   1.4   11    0     M        NA       0.0000   9999     3610  0     0    
2019/03/06  22:27:00  BASE  1.5582   168  0        M    1.4   100   1.4   11    0     980.1    NA       0.0000   9999     2460  0     0    
2019/03/06  22:28:00  BASE  1.01724  158  0        M    1.4   100   1.4   10    0     980.1    NA       0.0000   9999     3970  0     0    
2019/03/06  22:29:00  BASE  0.6174   140  0        M    1.4   100   1.4   10    0     980.1    NA       0.0000   9999     3410  0     0    
2019/03/06  22:30:00  BASE  0.30576  165  0        M    1.3   100   1.3   10    0     980.1    NA       0.0000   9999     3380  0     0    
2019/03/06  22:31:00  BASE  0.82908  196  0        M    1.3   100   1.3   10    0     980.1    NA       0.0000   9999     2920  0     0    
2019/03/06  22:32:01  BASE  1.84044  187  0        M    1.3   100   1.3   10    0     980.1    NA       0.0000   9999     2920  3900  0    
2019/03/06  22:33:00  BASE  1.95804  179  2.72244  162  1.3   100   1.3   10    0     980.1    NA       0.0000   9999     2950  0     0    
2019/03/06  22:34:00  BASE  1.60524  176  2.72244  162  1.3   100   1.3   10    0     980.2    NA       0.0000   9999     2850  4200  0    
2019/03/06  22:35:00  BASE  1.51704  172  2.32848  182  1.3   100   1.3   9     0     980.2    NA       0.0000   9999     3120  4170  0    
2019/03/06  22:36:00  BASE  1.49352  168  2.32848  182  1.3   100   1.3   9     0     980.2    NA       0.0000   9999     2990  0     0    
2019/03/06  22:37:00  BASE  1.17012  178  2.32848  182  1.3   100   1.3   8     0     980.3    NA       0.0000   9999     2820  0     0    
2019/03/06  22:38:00  BASE  0.8232   175  2.32848  182  1.3   100   1.3   8     0     980.3    NA       0.0000   9999     2590  0     0    
2019/03/06  22:39:00  BASE  0.94668  164  2.32848  182  1.3   100   1.3   8     0     980.3    NA       0.0000   9999     2760  0     0    
2019/03/06  22:40:00  BASE  1.617    163  2.32848  182  1.3   100   1.3   7     0     980.3    NA       0.0000   9999     2560  0     0    
2019/03/06  22:41:00  BASE  2.2932   166  2.93412  178  1.2   100   1.2   7     0     980.3    NA       0.0000   9999     2950  0     0    
2019/03/06  22:42:00  BASE  3.00468  178  4.41588  177  1.2   100   1.2   7     0     980.2    NA       0.0000   9999     2990  0     0    
2019/03/06  22:43:01  BASE  3.5868   180  4.41588  177  1.2   100   1.2   6     0     980.3    NA       0.0000   9999     3250  3810  0    
2019/03/06  22:44:00  BASE  3.27516  182  4.41588  177  1.2   100   1.2   6     0     980.3    NA       0.0000   9999     2990  3740  0    
2019/03/06  22:45:00  BASE  3.25752  188  4.41588  177  1.2   100   1.2   6     0     980.3    NA       0.0000   9999     2760  3710  0    
2019/03/06  22:46:00  BASE  3.94548  188  4.50996  190  1.2   100   1.2   6     0     980.3    NA       0.0000   9999     2850  0     0    
2019/03/06  22:47:00  BASE  4.39236  188  4.75104  179  1.1   100   1.1   6     0     980.3    NA       0.0000   9999     2920  0     0    
2019/03/06  22:48:00  BASE  4.57464  190  4.96272  190  1.1   100   1.1   6     0     980.2    NA       0.0000   9999     2920  0     0    
2019/03/06  22:49:00  BASE  4.41     200  4.96272  190  1.1   100   1.1   5     0     980.3    NA       0.0000   9999     1940  2920  0    
2019/03/06  22:50:00  BASE  4.18656  205  4.96272  190  1.1   100   1.1   5     0     980.3    NA       0.0000   9999     2030  0     0    
2019/03/06  22:51:00  BASE  4.05132  201  4.96272  190  1.1   100   1.1   5     0     980.4    NA       0.0000   9999     1870  0     0    
2019/03/06  22:52:00  BASE  3.78084  201  4.96272  190  1.1   100   1.1   5     0     980.4    NA       0.0000   9999     1800  0     0    
2019/03/06  22:53:00  BASE  3.9396   201  5.50368  201  1.1   100   1.1   5     0     980.3    NA       0.0000   9999     1900  2790  0    
2019/03/06  22:54:00  BASE  4.4394   199  5.50368  201  1.1   100   1.1   4     0     980.3    NA       0.0000   9999     1770  2760  0    
2019/03/06  22:55:00  BASE  4.19832  202  5.50368  201  1.1   100   1.1   4     0     980.4    NA       0.0000   9999     1800  0     0    
2019/03/06  22:56:00  BASE  3.0576   203  5.50368  201  1.1   100   1.1   4     0     980.4    NA       0.0000   9999     1770  0     0    
2019/03/06  22:57:00  BASE  2.04624  194  5.50368  201  1.2   100   1.2   4     0     980.4    NA       0.0000   9999     1770  0     0    
2019/03/06  22:58:00  BASE  2.9106   189  5.50368  201  1.2   100   1.2   3     0     980.4    NA       0.0000   9999     1770  2820  0    
2019/03/06  22:59:00  BASE  4.116    197  5.50368  201  1.3   100   1.3   3     0     980.4    NA       0.0000   UP       9999  2690  0    
2019/03/06  23:00:00  BASE  4.22184  202  5.50368  201  1.3   100   1.3   3     0     980.4    NA       0.0000   UP       9999  1800  2790 
2019/03/06  23:01:00  BASE  4.65696  198  5.65656  191  1.3   100   1.3   3     0     980.4    NA       0.0000   UP       9999  1800  0    
2019/03/06  23:02:00  BASE  5.16264  198  5.74476  205  1.4   100   1.4   3     0     980.4    NA       0.0000   UP       9999  1800  0    
2019/03/06  23:03:00  BASE  4.78632  209  5.74476  205  1.4   100   1.4   3     0     980.4    NA       0.0000   UP       9999  1870  0    
2019/03/06  23:04:00  BASE  4.45116  216  5.74476  205  1.5   100   1.5   2     0     980.4    NA       0.0000   UP       9999  1900  2920 
2019/03/06  23:05:00  BASE  4.69224  219  5.74476  228  1.6   100   1.6   2     0     980.4    NA       0.0000   UP       9999  2820  0    
2019/03/06  23:06:00  BASE  5.3214   223  7.3794   240  1.7   100   1.7   2     0     980.5    NA       0.0000   UP       9999  1900  0    
2019/03/06  23:07:00  BASE  5.13912  222  7.3794   240  1.8   100   1.8   2     0     980.6    NA       0.0000   UP       9999  2030  0    
2019/03/06  23:08:00  BASE  3.7338   221  7.3794   240  1.9   100   1.9   2     0     980.7    NA       0.0000   9999     1940  0     0    
2019/03/06  23:09:00  BASE  2.82828  219  7.3794   240  2.0   99    1.9   2     0     980.7    NA       0.0000   9999     1940  0     0    
2019/03/06  23:10:00  BASE  2.99292  208  7.3794   240  2.1   98    1.8   2     0     980.7    NA       0.0000   9999     1900  2950  0    
2019/03/06  23:11:00  BASE  3.18696  205  7.3794   240  2.2   97    1.8   2     0     980.7    NA       0.0000   9999     3250  0     0    
2019/03/06  23:12:00  BASE  3.49272  215  7.3794   240  2.2   96    1.6   1     0     980.7    NA       0.0000   9999     1940  2430  0    
2019/03/06  23:13:00  BASE  3.80436  225  7.3794   240  2.3   94    1.5   1     0     980.7    NA       0.0000   9999     1900  0     0    
2019/03/06  23:14:00  BASE  3.381    232  7.3794   240  2.3   94    1.4   1     0     980.8    NA       0.0000   9999     2000  2790  0    
2019/03/06  23:15:00  BASE  3.06348  242  7.3794   240  2.3   93    1.3   1     0     980.8    NA       0.0000   9999     2590  0     0    
2019/03/06  23:16:00  BASE  2.21088  248  5.62716  231  2.3   93    1.3   1     0     980.8    NA       0.0000   9999     2030  0     0    
2019/03/06  23:17:00  BASE  1.43472  250  4.53936  212  2.3   93    1.3   1     0     980.9    NA       0.0000   9999     2000  0     0    
2019/03/06  23:18:00  BASE  1.47588  274  4.53936  212  2.3   93    1.2   1     0     980.9    NA       0.0000   9999     1970  0     0    
2019/03/06  23:19:00  BASE  1.58172  304  4.53936  212  2.3   92    1.2   1     0     980.9    NA       0.0000   9999     2030  0     0    
2019/03/06  23:20:00  BASE  1.75224  317  4.53936  212  2.2   92    1.1   1     0     981.0    NA       0.0000   9999     2070  3020  0    
2019/03/06  23:21:00  BASE  1.43472  303  4.53936  212  2.2   93    1.1   1     0     981.0    NA       0.0000   9999     2920  0     0    
2019/03/06  23:22:00  BASE  1.764    252  4.47468  241  2.1   94    1.2   1     0     980.9    NA       0.0000   9999     2990  0     0    
2019/03/06  23:23:00  BASE  3.32808  220  4.83924  213  2.1   94    1.3   1     0     980.9    NA       0.0000   9999     2000  3480  0    
2019/03/06  23:24:00  BASE  3.65148  215  4.83924  213  2.0   95    1.4   1     0     980.9    NA       0.0000   9999     2000  0     0    
2019/03/06  23:25:00  BASE  2.28732  194  4.83924  213  2.1   96    1.4   1     0     981.0    NA       0.0000   9999     2070  0     0    
2019/03/06  23:26:00  BASE  1.5876   145  4.83924  213  2.1   95    1.4   1     0     981.0    NA       0.0000   9999     1940  0     0    
2019/03/06  23:27:00  BASE  1.89924  122  4.83924  213  2.1   95    1.4   1     0     981.0    NA       0.0000   9999     1800  2920  0    
2019/03/06  23:28:00  BASE  2.25792  135  4.83924  213  2.2   94    1.3   1     0     981.0    NA       0.0000   9999     2100  2920  0    
2019/03/06  23:29:00  BASE  2.22852  138  4.83924  213  2.2   93    1.2   1     0     981.0    NA       0.0000   9999     2720  0     0    
2019/03/06  23:30:00  BASE  1.50528  137  4.83924  213  2.2   93    1.1   1     0     981.1    NA       0.0000   9999     2890  0     0    
2019/03/06  23:31:00  BASE  0.59976  139  4.83924  213  2.2   93    1.1   1     0     981.2    NA       0.0000   9999     2690  0     0    
2019/03/06  23:32:00  BASE  0.147    156  4.83924  213  2.1   93    1.1   1     0     981.2    NA       0.0000   9999     2130  2890  0    
2019/03/06  23:33:00  BASE  1.04076  96   4.1454   229  2.1   93    1.1   1     0     981.2    NA       0.0000   9999     2850  0     0    
2019/03/06  23:34:00  BASE  1.5582   19   3.41628  143  2.0   94    1.1   1     0     981.2    NA       0.0000   9999     2890  0     0    
2019/03/06  23:35:00  BASE  1.12896  16   3.41628  143  2.0   95    1.3   1     0     981.2    NA       0.0000   9999     2660  0     0    
2019/03/06  23:36:00  BASE  1.41708  31   3.41628  143  1.9   96    1.4   0     0     981.3    NA       0.0000   9999     2720  0     0    
2019/03/06  23:37:00  BASE  1.65816  45   3.41628  143  1.8   98    1.5   0     0     981.4    NA       0.0000   9999     2890  0     0    
2019/03/06  23:38:00  BASE  1.50528  60   3.41628  143  1.7   99    1.6   0     0     981.4    NA       0.0000   9999     2820  0     0    
2019/03/06  23:39:00  BASE  1.34652  94   2.75184  26   1.7   100   1.7   0     0     981.4    NA       0.0000   9999     2430  0     0    
2019/03/06  23:40:00  BASE  1.27008  124  2.75184  26   1.6   100   1.6   0     0     981.4    NA       0.0000   9999     2560  0     0    
2019/03/06  23:41:00  BASE  1.44648  135  2.75184  26   1.6   100   1.6   0     0     981.4    NA       0.0000   9999     2990  0     0    
2019/03/06  23:42:00  BASE  1.21128  143  2.75184  26   1.6   100   1.6   0     0     981.4    NA       0.0000   9999     2000  0     0    
2019/03/06  23:43:00  BASE  0.45864  155  2.54016  31   1.6   100   1.6   0     0     981.5    NA       0.0000   9999     1870  0     0    
2019/03/06  23:44:00  BASE  0.16464  176  2.1168   36   1.7   100   1.7   0     0     981.5    NA       0.0000   9999     1870  0     0    
2019/03/06  23:45:00  BASE  0.3528   211  2.1168   36   1.7   100   1.7   0     0     981.5    NA       0.0000   9999     1900  0     0    
2019/03/06  23:46:00  BASE  0.47628  228  2.0874   47   1.8   100   1.8   0     0     981.5    NA       0.0000   9999     1940  0     0    
2019/03/06  23:47:00  BASE  0.22932  225  2.0874   47   1.8   100   1.8   0     0     981.5    NA       0.0000   9999     1900  0     0    
2019/03/06  23:48:00  BASE  0        234  1.93452  127  1.8   100   1.8   0     0     981.5    NA       0.0000   9999     1970  0     0    
2019/03/06  23:49:00  BASE  0        258  1.93452  127  1.9   100   1.9   0     0     981.6    NA       0.0000   9999     2030  0     0    
2019/03/06  23:50:00  BASE  0.147    280  1.93452  127  1.9   100   1.9   0     0     981.6    NA       0.0000   9999     2070  3380  0    
2019/03/06  23:51:00  BASE  0.78204  95   1.35828  102  1.8   100   1.8   0     0     981.6    NA       0.0000   9999     1970  0     0    
2019/03/06  23:52:00  BASE  1.58172  109  2.35788  127  1.8   100   1.8   0     0     981.6    NA       0.0000   9999     2460  0     0    
2019/03/06  23:53:00  BASE  2.24616  125  2.96352  145  1.7   100   1.7   0     0     981.6    NA       0.0000   9999     1800  0     0    
2019/03/06  23:54:00  BASE  2.25792  141  2.96352  145  1.7   100   1.7   0     0     981.6    NA       0.0000   9999     1870  0     0    
2019/03/06  23:55:00  BASE  1.66992  150  2.96352  145  1.7   100   1.7   0     0     981.7    NA       0.0000   9999     1800  0     0    
2019/03/06  23:56:00  BASE  1.53468  145  2.96352  145  1.7   100   1.7   0     0     981.7    NA       0.0000   9999     1840  0     0    
2019/03/06  23:57:00  BASE  1.68756  136  2.96352  145  1.7   100   1.7   0     0     981.7    NA       0.0000   9999     1870  0     0    
2019/03/06  23:58:00  BASE  1.75812  136  2.96352  145  1.7   100   1.7   0     0     981.7    NA       0.0000   9999     1770  2890  0    
2019/03/06  23:59:00  BASE  1.59348  143  2.96352  145  1.7   100   1.7   0     0     981.8    NA       0.0000   9999     1800  0     0